<?xml version="1.0" encoding="UTF-8" standalone="no" ?>
<gpx xmlns="http://www.topografix.com/GPX/1/1" xmlns:xsi="http://www.w3.org/2001/XMLSchema-instance" xsi:schemaLocation="http://www.topografix.com/GPX/1/1 http://www.topografix.com/GPX/1/1/gpx.xsd" version="1.1" creator="VisuGPX - https://www.visugpx.com">
  <metadata>
    <name>Au long de l'Ouysse</name>
    <desc><![CDATA[petite rando en aller-retour au bord de l'Ouysse ; départ et arrivée au moulin de Cougnaguet]]></desc>
  </metadata>
  <trk>
    <name><![CDATA[Cougbaguet]]></name>
    <trkseg>
      <trkpt lat="44.81201" lon="1.56062">
        <ele>98</ele>
        <time>2017-08-17T07:37:40Z</time>
      </trkpt>
      <trkpt lat="44.81205" lon="1.56053">
        <ele>100</ele>
        <time>2017-08-17T07:37:46Z</time>
      </trkpt>
      <trkpt lat="44.81205" lon="1.56053">
        <ele>102</ele>
        <time>2017-08-17T07:38:02Z</time>
      </trkpt>
      <trkpt lat="44.81205" lon="1.56053">
        <ele>103</ele>
        <time>2017-08-17T07:38:04Z</time>
      </trkpt>
      <trkpt lat="44.81205" lon="1.56053">
        <ele>103</ele>
        <time>2017-08-17T07:38:32Z</time>
      </trkpt>
      <trkpt lat="44.81205" lon="1.56053">
        <ele>104</ele>
        <time>2017-08-17T07:38:34Z</time>
      </trkpt>
      <trkpt lat="44.81205" lon="1.56053">
        <ele>104</ele>
        <time>2017-08-17T07:39:02Z</time>
      </trkpt>
      <trkpt lat="44.81205" lon="1.56053">
        <ele>103</ele>
        <time>2017-08-17T07:39:04Z</time>
      </trkpt>
      <trkpt lat="44.81205" lon="1.56053">
        <ele>102</ele>
        <time>2017-08-17T07:39:32Z</time>
      </trkpt>
      <trkpt lat="44.81205" lon="1.56053">
        <ele>101</ele>
        <time>2017-08-17T07:39:34Z</time>
      </trkpt>
      <trkpt lat="44.81223" lon="1.56048">
        <ele>101</ele>
        <time>2017-08-17T07:39:42Z</time>
      </trkpt>
      <trkpt lat="44.81223" lon="1.56048">
        <ele>101</ele>
        <time>2017-08-17T07:40:02Z</time>
      </trkpt>
      <trkpt lat="44.81223" lon="1.56048">
        <ele>101</ele>
        <time>2017-08-17T07:40:04Z</time>
      </trkpt>
      <trkpt lat="44.81223" lon="1.56048">
        <ele>102</ele>
        <time>2017-08-17T07:40:32Z</time>
      </trkpt>
      <trkpt lat="44.81223" lon="1.56048">
        <ele>102</ele>
        <time>2017-08-17T07:40:34Z</time>
      </trkpt>
      <trkpt lat="44.81229" lon="1.56032">
        <ele>103</ele>
        <time>2017-08-17T07:40:53Z</time>
      </trkpt>
      <trkpt lat="44.81233" lon="1.56029">
        <ele>104</ele>
        <time>2017-08-17T07:41:00Z</time>
      </trkpt>
      <trkpt lat="44.81231" lon="1.56036">
        <ele>106</ele>
        <time>2017-08-17T07:41:13Z</time>
      </trkpt>
      <trkpt lat="44.81233" lon="1.56035">
        <ele>107</ele>
        <time>2017-08-17T07:41:32Z</time>
      </trkpt>
      <trkpt lat="44.81234" lon="1.56035">
        <ele>108</ele>
        <time>2017-08-17T07:41:34Z</time>
      </trkpt>
      <trkpt lat="44.81234" lon="1.56031">
        <ele>108</ele>
        <time>2017-08-17T07:42:02Z</time>
      </trkpt>
      <trkpt lat="44.81235" lon="1.56031">
        <ele>108</ele>
        <time>2017-08-17T07:42:04Z</time>
      </trkpt>
      <trkpt lat="44.81233" lon="1.5603">
        <ele>108</ele>
        <time>2017-08-17T07:42:33Z</time>
      </trkpt>
      <trkpt lat="44.81233" lon="1.56028">
        <ele>107</ele>
        <time>2017-08-17T07:42:34Z</time>
      </trkpt>
      <trkpt lat="44.81235" lon="1.56021">
        <ele>106</ele>
        <time>2017-08-17T07:42:41Z</time>
      </trkpt>
      <trkpt lat="44.81237" lon="1.56014">
        <ele>106</ele>
        <time>2017-08-17T07:42:45Z</time>
      </trkpt>
      <trkpt lat="44.81238" lon="1.56009">
        <ele>105</ele>
        <time>2017-08-17T07:43:03Z</time>
      </trkpt>
      <trkpt lat="44.81238" lon="1.56009">
        <ele>105</ele>
        <time>2017-08-17T07:43:04Z</time>
      </trkpt>
      <trkpt lat="44.81243" lon="1.56011">
        <ele>105</ele>
        <time>2017-08-17T07:43:29Z</time>
      </trkpt>
      <trkpt lat="44.81246" lon="1.56016">
        <ele>105</ele>
        <time>2017-08-17T07:43:41Z</time>
      </trkpt>
      <trkpt lat="44.81249" lon="1.5601">
        <ele>106</ele>
        <time>2017-08-17T07:43:49Z</time>
      </trkpt>
      <trkpt lat="44.81254" lon="1.56005">
        <ele>106</ele>
        <time>2017-08-17T07:43:53Z</time>
      </trkpt>
      <trkpt lat="44.8126" lon="1.56001">
        <ele>107</ele>
        <time>2017-08-17T07:43:57Z</time>
      </trkpt>
      <trkpt lat="44.81264" lon="1.55998">
        <ele>107</ele>
        <time>2017-08-17T07:44:00Z</time>
      </trkpt>
      <trkpt lat="44.81269" lon="1.55995">
        <ele>108</ele>
        <time>2017-08-17T07:44:07Z</time>
      </trkpt>
      <trkpt lat="44.81274" lon="1.55993">
        <ele>108</ele>
        <time>2017-08-17T07:44:11Z</time>
      </trkpt>
      <trkpt lat="44.81279" lon="1.55989">
        <ele>108</ele>
        <time>2017-08-17T07:44:15Z</time>
      </trkpt>
      <trkpt lat="44.81283" lon="1.55985">
        <ele>108</ele>
        <time>2017-08-17T07:44:22Z</time>
      </trkpt>
      <trkpt lat="44.81287" lon="1.5598">
        <ele>108</ele>
        <time>2017-08-17T07:44:27Z</time>
      </trkpt>
      <trkpt lat="44.81292" lon="1.55976">
        <ele>108</ele>
        <time>2017-08-17T07:44:34Z</time>
      </trkpt>
      <trkpt lat="44.81295" lon="1.55971">
        <ele>108</ele>
        <time>2017-08-17T07:44:39Z</time>
      </trkpt>
      <trkpt lat="44.81299" lon="1.55964">
        <ele>109</ele>
        <time>2017-08-17T07:44:47Z</time>
      </trkpt>
      <trkpt lat="44.81302" lon="1.55958">
        <ele>109</ele>
        <time>2017-08-17T07:44:53Z</time>
      </trkpt>
      <trkpt lat="44.81305" lon="1.55952">
        <ele>109</ele>
        <time>2017-08-17T07:44:58Z</time>
      </trkpt>
      <trkpt lat="44.81308" lon="1.55946">
        <ele>109</ele>
        <time>2017-08-17T07:45:06Z</time>
      </trkpt>
      <trkpt lat="44.8131" lon="1.5594">
        <ele>108</ele>
        <time>2017-08-17T07:45:10Z</time>
      </trkpt>
      <trkpt lat="44.81313" lon="1.55935">
        <ele>108</ele>
        <time>2017-08-17T07:45:14Z</time>
      </trkpt>
      <trkpt lat="44.81315" lon="1.55928">
        <ele>108</ele>
        <time>2017-08-17T07:45:18Z</time>
      </trkpt>
      <trkpt lat="44.81318" lon="1.55921">
        <ele>107</ele>
        <time>2017-08-17T07:45:23Z</time>
      </trkpt>
      <trkpt lat="44.81322" lon="1.55916">
        <ele>107</ele>
        <time>2017-08-17T07:45:27Z</time>
      </trkpt>
      <trkpt lat="44.81325" lon="1.5591">
        <ele>107</ele>
        <time>2017-08-17T07:45:31Z</time>
      </trkpt>
      <trkpt lat="44.81328" lon="1.55906">
        <ele>106</ele>
        <time>2017-08-17T07:45:39Z</time>
      </trkpt>
      <trkpt lat="44.81332" lon="1.559">
        <ele>106</ele>
        <time>2017-08-17T07:45:44Z</time>
      </trkpt>
      <trkpt lat="44.81334" lon="1.55893">
        <ele>106</ele>
        <time>2017-08-17T07:45:48Z</time>
      </trkpt>
      <trkpt lat="44.81335" lon="1.55887">
        <ele>106</ele>
        <time>2017-08-17T07:45:53Z</time>
      </trkpt>
      <trkpt lat="44.81339" lon="1.55882">
        <ele>106</ele>
        <time>2017-08-17T07:46:00Z</time>
      </trkpt>
      <trkpt lat="44.81341" lon="1.55876">
        <ele>107</ele>
        <time>2017-08-17T07:46:06Z</time>
      </trkpt>
      <trkpt lat="44.81342" lon="1.5587">
        <ele>107</ele>
        <time>2017-08-17T07:46:11Z</time>
      </trkpt>
      <trkpt lat="44.81344" lon="1.55863">
        <ele>107</ele>
        <time>2017-08-17T07:46:16Z</time>
      </trkpt>
      <trkpt lat="44.81344" lon="1.55857">
        <ele>107</ele>
        <time>2017-08-17T07:46:21Z</time>
      </trkpt>
      <trkpt lat="44.81347" lon="1.55851">
        <ele>107</ele>
        <time>2017-08-17T07:46:26Z</time>
      </trkpt>
      <trkpt lat="44.81349" lon="1.55844">
        <ele>107</ele>
        <time>2017-08-17T07:46:31Z</time>
      </trkpt>
      <trkpt lat="44.8135" lon="1.55837">
        <ele>107</ele>
        <time>2017-08-17T07:46:39Z</time>
      </trkpt>
      <trkpt lat="44.81352" lon="1.55831">
        <ele>107</ele>
        <time>2017-08-17T07:46:42Z</time>
      </trkpt>
      <trkpt lat="44.81355" lon="1.55826">
        <ele>107</ele>
        <time>2017-08-17T07:46:45Z</time>
      </trkpt>
      <trkpt lat="44.81358" lon="1.55821">
        <ele>107</ele>
        <time>2017-08-17T07:46:53Z</time>
      </trkpt>
      <trkpt lat="44.81361" lon="1.55812">
        <ele>107</ele>
        <time>2017-08-17T07:46:58Z</time>
      </trkpt>
      <trkpt lat="44.81364" lon="1.55801">
        <ele>108</ele>
        <time>2017-08-17T07:47:04Z</time>
      </trkpt>
      <trkpt lat="44.81367" lon="1.55795">
        <ele>108</ele>
        <time>2017-08-17T07:47:08Z</time>
      </trkpt>
      <trkpt lat="44.81369" lon="1.55789">
        <ele>109</ele>
        <time>2017-08-17T07:47:13Z</time>
      </trkpt>
      <trkpt lat="44.81372" lon="1.55783">
        <ele>109</ele>
        <time>2017-08-17T07:47:18Z</time>
      </trkpt>
      <trkpt lat="44.81374" lon="1.55777">
        <ele>109</ele>
        <time>2017-08-17T07:47:24Z</time>
      </trkpt>
      <trkpt lat="44.81376" lon="1.5577">
        <ele>109</ele>
        <time>2017-08-17T07:47:30Z</time>
      </trkpt>
      <trkpt lat="44.81379" lon="1.55765">
        <ele>109</ele>
        <time>2017-08-17T07:47:34Z</time>
      </trkpt>
      <trkpt lat="44.81382" lon="1.55759">
        <ele>109</ele>
        <time>2017-08-17T07:47:39Z</time>
      </trkpt>
      <trkpt lat="44.81384" lon="1.55753">
        <ele>109</ele>
        <time>2017-08-17T07:47:43Z</time>
      </trkpt>
      <trkpt lat="44.81387" lon="1.55748">
        <ele>109</ele>
        <time>2017-08-17T07:47:48Z</time>
      </trkpt>
      <trkpt lat="44.81389" lon="1.55741">
        <ele>108</ele>
        <time>2017-08-17T07:47:53Z</time>
      </trkpt>
      <trkpt lat="44.8139" lon="1.55735">
        <ele>108</ele>
        <time>2017-08-17T07:47:56Z</time>
      </trkpt>
      <trkpt lat="44.81392" lon="1.55728">
        <ele>108</ele>
        <time>2017-08-17T07:48:02Z</time>
      </trkpt>
      <trkpt lat="44.81394" lon="1.55722">
        <ele>108</ele>
        <time>2017-08-17T07:48:06Z</time>
      </trkpt>
      <trkpt lat="44.81395" lon="1.55715">
        <ele>107</ele>
        <time>2017-08-17T07:48:12Z</time>
      </trkpt>
      <trkpt lat="44.81395" lon="1.55708">
        <ele>107</ele>
        <time>2017-08-17T07:48:18Z</time>
      </trkpt>
      <trkpt lat="44.81396" lon="1.55701">
        <ele>107</ele>
        <time>2017-08-17T07:48:22Z</time>
      </trkpt>
      <trkpt lat="44.81397" lon="1.55694">
        <ele>107</ele>
        <time>2017-08-17T07:48:27Z</time>
      </trkpt>
      <trkpt lat="44.81397" lon="1.55687">
        <ele>107</ele>
        <time>2017-08-17T07:48:31Z</time>
      </trkpt>
      <trkpt lat="44.814" lon="1.55681">
        <ele>107</ele>
        <time>2017-08-17T07:48:35Z</time>
      </trkpt>
      <trkpt lat="44.814" lon="1.55675">
        <ele>106</ele>
        <time>2017-08-17T07:48:41Z</time>
      </trkpt>
      <trkpt lat="44.81399" lon="1.55668">
        <ele>106</ele>
        <time>2017-08-17T07:48:45Z</time>
      </trkpt>
      <trkpt lat="44.814" lon="1.55662">
        <ele>106</ele>
        <time>2017-08-17T07:48:50Z</time>
      </trkpt>
      <trkpt lat="44.81401" lon="1.55655">
        <ele>106</ele>
        <time>2017-08-17T07:48:54Z</time>
      </trkpt>
      <trkpt lat="44.81401" lon="1.55649">
        <ele>106</ele>
        <time>2017-08-17T07:48:58Z</time>
      </trkpt>
      <trkpt lat="44.81403" lon="1.55642">
        <ele>106</ele>
        <time>2017-08-17T07:49:01Z</time>
      </trkpt>
      <trkpt lat="44.81405" lon="1.55635">
        <ele>106</ele>
        <time>2017-08-17T07:49:05Z</time>
      </trkpt>
      <trkpt lat="44.81406" lon="1.55628">
        <ele>106</ele>
        <time>2017-08-17T07:49:09Z</time>
      </trkpt>
      <trkpt lat="44.81408" lon="1.55622">
        <ele>106</ele>
        <time>2017-08-17T07:49:13Z</time>
      </trkpt>
      <trkpt lat="44.8141" lon="1.55617">
        <ele>106</ele>
        <time>2017-08-17T07:49:17Z</time>
      </trkpt>
      <trkpt lat="44.81412" lon="1.5561">
        <ele>106</ele>
        <time>2017-08-17T07:49:23Z</time>
      </trkpt>
      <trkpt lat="44.81415" lon="1.55605">
        <ele>105</ele>
        <time>2017-08-17T07:49:28Z</time>
      </trkpt>
      <trkpt lat="44.81416" lon="1.55598">
        <ele>105</ele>
        <time>2017-08-17T07:49:33Z</time>
      </trkpt>
      <trkpt lat="44.81418" lon="1.55591">
        <ele>105</ele>
        <time>2017-08-17T07:49:38Z</time>
      </trkpt>
      <trkpt lat="44.8142" lon="1.55585">
        <ele>105</ele>
        <time>2017-08-17T07:49:48Z</time>
      </trkpt>
      <trkpt lat="44.81421" lon="1.55577">
        <ele>105</ele>
        <time>2017-08-17T07:49:52Z</time>
      </trkpt>
      <trkpt lat="44.81421" lon="1.55569">
        <ele>105</ele>
        <time>2017-08-17T07:49:57Z</time>
      </trkpt>
      <trkpt lat="44.81421" lon="1.55562">
        <ele>105</ele>
        <time>2017-08-17T07:50:02Z</time>
      </trkpt>
      <trkpt lat="44.81421" lon="1.55554">
        <ele>105</ele>
        <time>2017-08-17T07:50:07Z</time>
      </trkpt>
      <trkpt lat="44.81423" lon="1.55547">
        <ele>105</ele>
        <time>2017-08-17T07:50:11Z</time>
      </trkpt>
      <trkpt lat="44.81426" lon="1.55541">
        <ele>105</ele>
        <time>2017-08-17T07:50:14Z</time>
      </trkpt>
      <trkpt lat="44.81427" lon="1.55534">
        <ele>105</ele>
        <time>2017-08-17T07:50:18Z</time>
      </trkpt>
      <trkpt lat="44.8143" lon="1.5553">
        <ele>105</ele>
        <time>2017-08-17T07:50:24Z</time>
      </trkpt>
      <trkpt lat="44.81434" lon="1.55524">
        <ele>105</ele>
        <time>2017-08-17T07:50:31Z</time>
      </trkpt>
      <trkpt lat="44.81437" lon="1.55519">
        <ele>106</ele>
        <time>2017-08-17T07:50:35Z</time>
      </trkpt>
      <trkpt lat="44.8144" lon="1.55514">
        <ele>107</ele>
        <time>2017-08-17T07:50:41Z</time>
      </trkpt>
      <trkpt lat="44.81444" lon="1.55509">
        <ele>107</ele>
        <time>2017-08-17T07:50:45Z</time>
      </trkpt>
      <trkpt lat="44.81448" lon="1.55503">
        <ele>108</ele>
        <time>2017-08-17T07:50:52Z</time>
      </trkpt>
      <trkpt lat="44.81451" lon="1.55499">
        <ele>108</ele>
        <time>2017-08-17T07:50:58Z</time>
      </trkpt>
      <trkpt lat="44.81456" lon="1.55495">
        <ele>108</ele>
        <time>2017-08-17T07:51:04Z</time>
      </trkpt>
      <trkpt lat="44.8146" lon="1.55491">
        <ele>109</ele>
        <time>2017-08-17T07:51:09Z</time>
      </trkpt>
      <trkpt lat="44.81464" lon="1.55488">
        <ele>109</ele>
        <time>2017-08-17T07:51:13Z</time>
      </trkpt>
      <trkpt lat="44.81469" lon="1.55485">
        <ele>109</ele>
        <time>2017-08-17T07:51:19Z</time>
      </trkpt>
      <trkpt lat="44.81473" lon="1.55481">
        <ele>109</ele>
        <time>2017-08-17T07:51:26Z</time>
      </trkpt>
      <trkpt lat="44.81477" lon="1.55478">
        <ele>109</ele>
        <time>2017-08-17T07:51:32Z</time>
      </trkpt>
      <trkpt lat="44.81482" lon="1.55476">
        <ele>109</ele>
        <time>2017-08-17T07:51:36Z</time>
      </trkpt>
      <trkpt lat="44.81488" lon="1.55472">
        <ele>110</ele>
        <time>2017-08-17T07:51:40Z</time>
      </trkpt>
      <trkpt lat="44.81493" lon="1.55471">
        <ele>110</ele>
        <time>2017-08-17T07:51:43Z</time>
      </trkpt>
      <trkpt lat="44.81498" lon="1.55471">
        <ele>110</ele>
        <time>2017-08-17T07:51:48Z</time>
      </trkpt>
      <trkpt lat="44.81503" lon="1.55471">
        <ele>110</ele>
        <time>2017-08-17T07:51:54Z</time>
      </trkpt>
      <trkpt lat="44.81508" lon="1.55471">
        <ele>110</ele>
        <time>2017-08-17T07:51:58Z</time>
      </trkpt>
      <trkpt lat="44.81513" lon="1.5547">
        <ele>109</ele>
        <time>2017-08-17T07:52:03Z</time>
      </trkpt>
      <trkpt lat="44.81518" lon="1.5547">
        <ele>109</ele>
        <time>2017-08-17T07:52:08Z</time>
      </trkpt>
      <trkpt lat="44.81524" lon="1.55469">
        <ele>109</ele>
        <time>2017-08-17T07:52:12Z</time>
      </trkpt>
      <trkpt lat="44.81528" lon="1.55469">
        <ele>109</ele>
        <time>2017-08-17T07:52:18Z</time>
      </trkpt>
      <trkpt lat="44.81533" lon="1.55469">
        <ele>109</ele>
        <time>2017-08-17T07:52:23Z</time>
      </trkpt>
      <trkpt lat="44.81538" lon="1.55469">
        <ele>109</ele>
        <time>2017-08-17T07:52:29Z</time>
      </trkpt>
      <trkpt lat="44.81543" lon="1.5547">
        <ele>109</ele>
        <time>2017-08-17T07:52:37Z</time>
      </trkpt>
      <trkpt lat="44.81548" lon="1.55471">
        <ele>110</ele>
        <time>2017-08-17T07:52:42Z</time>
      </trkpt>
      <trkpt lat="44.81552" lon="1.55475">
        <ele>111</ele>
        <time>2017-08-17T07:52:47Z</time>
      </trkpt>
      <trkpt lat="44.81557" lon="1.55477">
        <ele>112</ele>
        <time>2017-08-17T07:52:52Z</time>
      </trkpt>
      <trkpt lat="44.81561" lon="1.55482">
        <ele>114</ele>
        <time>2017-08-17T07:52:59Z</time>
      </trkpt>
      <trkpt lat="44.81566" lon="1.55485">
        <ele>115</ele>
        <time>2017-08-17T07:53:05Z</time>
      </trkpt>
      <trkpt lat="44.81571" lon="1.55487">
        <ele>115</ele>
        <time>2017-08-17T07:53:08Z</time>
      </trkpt>
      <trkpt lat="44.81576" lon="1.55489">
        <ele>116</ele>
        <time>2017-08-17T07:53:13Z</time>
      </trkpt>
      <trkpt lat="44.8158" lon="1.55494">
        <ele>117</ele>
        <time>2017-08-17T07:53:18Z</time>
      </trkpt>
      <trkpt lat="44.81584" lon="1.55498">
        <ele>117</ele>
        <time>2017-08-17T07:53:22Z</time>
      </trkpt>
      <trkpt lat="44.81589" lon="1.55502">
        <ele>118</ele>
        <time>2017-08-17T07:53:32Z</time>
      </trkpt>
      <trkpt lat="44.81593" lon="1.55507">
        <ele>118</ele>
        <time>2017-08-17T07:53:38Z</time>
      </trkpt>
      <trkpt lat="44.81598" lon="1.55509">
        <ele>119</ele>
        <time>2017-08-17T07:53:43Z</time>
      </trkpt>
      <trkpt lat="44.81603" lon="1.5551">
        <ele>120</ele>
        <time>2017-08-17T07:53:50Z</time>
      </trkpt>
      <trkpt lat="44.81607" lon="1.55512">
        <ele>120</ele>
        <time>2017-08-17T07:53:54Z</time>
      </trkpt>
      <trkpt lat="44.81611" lon="1.55512">
        <ele>121</ele>
        <time>2017-08-17T07:53:59Z</time>
      </trkpt>
      <trkpt lat="44.81617" lon="1.55512">
        <ele>121</ele>
        <time>2017-08-17T07:54:03Z</time>
      </trkpt>
      <trkpt lat="44.81621" lon="1.55514">
        <ele>122</ele>
        <time>2017-08-17T07:54:08Z</time>
      </trkpt>
      <trkpt lat="44.81627" lon="1.55515">
        <ele>122</ele>
        <time>2017-08-17T07:54:13Z</time>
      </trkpt>
      <trkpt lat="44.81632" lon="1.55516">
        <ele>121</ele>
        <time>2017-08-17T07:54:18Z</time>
      </trkpt>
      <trkpt lat="44.81636" lon="1.55518">
        <ele>121</ele>
        <time>2017-08-17T07:54:22Z</time>
      </trkpt>
      <trkpt lat="44.81641" lon="1.55517">
        <ele>121</ele>
        <time>2017-08-17T07:54:31Z</time>
      </trkpt>
      <trkpt lat="44.81647" lon="1.55519">
        <ele>120</ele>
        <time>2017-08-17T07:54:34Z</time>
      </trkpt>
      <trkpt lat="44.81653" lon="1.55519">
        <ele>120</ele>
        <time>2017-08-17T07:54:38Z</time>
      </trkpt>
      <trkpt lat="44.81657" lon="1.5552">
        <ele>119</ele>
        <time>2017-08-17T07:54:43Z</time>
      </trkpt>
      <trkpt lat="44.81663" lon="1.55518">
        <ele>118</ele>
        <time>2017-08-17T07:54:49Z</time>
      </trkpt>
      <trkpt lat="44.81669" lon="1.55516">
        <ele>117</ele>
        <time>2017-08-17T07:54:53Z</time>
      </trkpt>
      <trkpt lat="44.81673" lon="1.55515">
        <ele>117</ele>
        <time>2017-08-17T07:54:58Z</time>
      </trkpt>
      <trkpt lat="44.81678" lon="1.55514">
        <ele>116</ele>
        <time>2017-08-17T07:55:04Z</time>
      </trkpt>
      <trkpt lat="44.81683" lon="1.55513">
        <ele>116</ele>
        <time>2017-08-17T07:55:10Z</time>
      </trkpt>
      <trkpt lat="44.81688" lon="1.55513">
        <ele>116</ele>
        <time>2017-08-17T07:55:14Z</time>
      </trkpt>
      <trkpt lat="44.81693" lon="1.55512">
        <ele>115</ele>
        <time>2017-08-17T07:55:20Z</time>
      </trkpt>
      <trkpt lat="44.81698" lon="1.55511">
        <ele>115</ele>
        <time>2017-08-17T07:55:24Z</time>
      </trkpt>
      <trkpt lat="44.81703" lon="1.5551">
        <ele>114</ele>
        <time>2017-08-17T07:55:29Z</time>
      </trkpt>
      <trkpt lat="44.81709" lon="1.55507">
        <ele>114</ele>
        <time>2017-08-17T07:55:33Z</time>
      </trkpt>
      <trkpt lat="44.81713" lon="1.55504">
        <ele>114</ele>
        <time>2017-08-17T07:55:44Z</time>
      </trkpt>
      <trkpt lat="44.81718" lon="1.55504">
        <ele>113</ele>
        <time>2017-08-17T07:55:47Z</time>
      </trkpt>
      <trkpt lat="44.81724" lon="1.55502">
        <ele>113</ele>
        <time>2017-08-17T07:55:52Z</time>
      </trkpt>
      <trkpt lat="44.81728" lon="1.55499">
        <ele>112</ele>
        <time>2017-08-17T07:55:56Z</time>
      </trkpt>
      <trkpt lat="44.81733" lon="1.55497">
        <ele>112</ele>
        <time>2017-08-17T07:56:03Z</time>
      </trkpt>
      <trkpt lat="44.81738" lon="1.55495">
        <ele>111</ele>
        <time>2017-08-17T07:56:08Z</time>
      </trkpt>
      <trkpt lat="44.81743" lon="1.55491">
        <ele>111</ele>
        <time>2017-08-17T07:56:14Z</time>
      </trkpt>
      <trkpt lat="44.81747" lon="1.55488">
        <ele>111</ele>
        <time>2017-08-17T07:56:19Z</time>
      </trkpt>
      <trkpt lat="44.81752" lon="1.55487">
        <ele>112</ele>
        <time>2017-08-17T07:56:24Z</time>
      </trkpt>
      <trkpt lat="44.81757" lon="1.55483">
        <ele>112</ele>
        <time>2017-08-17T07:56:27Z</time>
      </trkpt>
      <trkpt lat="44.81761" lon="1.5548">
        <ele>113</ele>
        <time>2017-08-17T07:56:31Z</time>
      </trkpt>
      <trkpt lat="44.81766" lon="1.55478">
        <ele>113</ele>
        <time>2017-08-17T07:56:37Z</time>
      </trkpt>
      <trkpt lat="44.8177" lon="1.55474">
        <ele>113</ele>
        <time>2017-08-17T07:56:43Z</time>
      </trkpt>
      <trkpt lat="44.81775" lon="1.55468">
        <ele>113</ele>
        <time>2017-08-17T07:56:46Z</time>
      </trkpt>
      <trkpt lat="44.8178" lon="1.55467">
        <ele>113</ele>
        <time>2017-08-17T07:56:51Z</time>
      </trkpt>
      <trkpt lat="44.81784" lon="1.55463">
        <ele>113</ele>
        <time>2017-08-17T07:56:57Z</time>
      </trkpt>
      <trkpt lat="44.81789" lon="1.55459">
        <ele>113</ele>
        <time>2017-08-17T07:57:02Z</time>
      </trkpt>
      <trkpt lat="44.81793" lon="1.55455">
        <ele>113</ele>
        <time>2017-08-17T07:57:07Z</time>
      </trkpt>
      <trkpt lat="44.81796" lon="1.5545">
        <ele>113</ele>
        <time>2017-08-17T07:57:14Z</time>
      </trkpt>
      <trkpt lat="44.818" lon="1.55446">
        <ele>113</ele>
        <time>2017-08-17T07:57:23Z</time>
      </trkpt>
      <trkpt lat="44.81803" lon="1.55441">
        <ele>113</ele>
        <time>2017-08-17T07:57:28Z</time>
      </trkpt>
      <trkpt lat="44.81806" lon="1.55436">
        <ele>112</ele>
        <time>2017-08-17T07:57:32Z</time>
      </trkpt>
      <trkpt lat="44.81809" lon="1.5543">
        <ele>112</ele>
        <time>2017-08-17T07:57:36Z</time>
      </trkpt>
      <trkpt lat="44.8181" lon="1.55424">
        <ele>112</ele>
        <time>2017-08-17T07:57:41Z</time>
      </trkpt>
      <trkpt lat="44.81813" lon="1.55419">
        <ele>111</ele>
        <time>2017-08-17T07:57:48Z</time>
      </trkpt>
      <trkpt lat="44.81815" lon="1.55412">
        <ele>111</ele>
        <time>2017-08-17T07:57:53Z</time>
      </trkpt>
      <trkpt lat="44.81817" lon="1.55404">
        <ele>111</ele>
        <time>2017-08-17T07:57:58Z</time>
      </trkpt>
      <trkpt lat="44.81816" lon="1.55398">
        <ele>111</ele>
        <time>2017-08-17T07:58:02Z</time>
      </trkpt>
      <trkpt lat="44.81817" lon="1.55389">
        <ele>111</ele>
        <time>2017-08-17T07:58:09Z</time>
      </trkpt>
      <trkpt lat="44.81817" lon="1.55382">
        <ele>111</ele>
        <time>2017-08-17T07:58:17Z</time>
      </trkpt>
      <trkpt lat="44.81818" lon="1.55374">
        <ele>111</ele>
        <time>2017-08-17T07:58:21Z</time>
      </trkpt>
      <trkpt lat="44.8182" lon="1.55368">
        <ele>111</ele>
        <time>2017-08-17T07:58:24Z</time>
      </trkpt>
      <trkpt lat="44.81825" lon="1.55361">
        <ele>111</ele>
        <time>2017-08-17T07:58:28Z</time>
      </trkpt>
      <trkpt lat="44.81827" lon="1.55356">
        <ele>111</ele>
        <time>2017-08-17T07:58:34Z</time>
      </trkpt>
      <trkpt lat="44.81833" lon="1.55348">
        <ele>111</ele>
        <time>2017-08-17T07:58:40Z</time>
      </trkpt>
      <trkpt lat="44.81838" lon="1.55344">
        <ele>110</ele>
        <time>2017-08-17T07:58:46Z</time>
      </trkpt>
      <trkpt lat="44.81843" lon="1.55342">
        <ele>110</ele>
        <time>2017-08-17T07:58:54Z</time>
      </trkpt>
      <trkpt lat="44.81849" lon="1.55341">
        <ele>110</ele>
        <time>2017-08-17T07:59:01Z</time>
      </trkpt>
      <trkpt lat="44.81852" lon="1.55337">
        <ele>111</ele>
        <time>2017-08-17T07:59:05Z</time>
      </trkpt>
      <trkpt lat="44.81857" lon="1.55335">
        <ele>111</ele>
        <time>2017-08-17T07:59:13Z</time>
      </trkpt>
      <trkpt lat="44.81862" lon="1.55333">
        <ele>112</ele>
        <time>2017-08-17T07:59:17Z</time>
      </trkpt>
      <trkpt lat="44.81867" lon="1.55331">
        <ele>113</ele>
        <time>2017-08-17T07:59:21Z</time>
      </trkpt>
      <trkpt lat="44.81871" lon="1.55329">
        <ele>114</ele>
        <time>2017-08-17T07:59:24Z</time>
      </trkpt>
      <trkpt lat="44.81876" lon="1.55327">
        <ele>115</ele>
        <time>2017-08-17T07:59:28Z</time>
      </trkpt>
      <trkpt lat="44.81879" lon="1.55322">
        <ele>116</ele>
        <time>2017-08-17T07:59:36Z</time>
      </trkpt>
      <trkpt lat="44.81883" lon="1.55318">
        <ele>117</ele>
        <time>2017-08-17T07:59:41Z</time>
      </trkpt>
      <trkpt lat="44.81888" lon="1.55318">
        <ele>117</ele>
        <time>2017-08-17T07:59:46Z</time>
      </trkpt>
      <trkpt lat="44.81893" lon="1.55317">
        <ele>118</ele>
        <time>2017-08-17T07:59:51Z</time>
      </trkpt>
      <trkpt lat="44.81899" lon="1.55315">
        <ele>119</ele>
        <time>2017-08-17T07:59:57Z</time>
      </trkpt>
      <trkpt lat="44.81903" lon="1.55314">
        <ele>120</ele>
        <time>2017-08-17T08:00:02Z</time>
      </trkpt>
      <trkpt lat="44.81908" lon="1.55312">
        <ele>120</ele>
        <time>2017-08-17T08:00:07Z</time>
      </trkpt>
      <trkpt lat="44.81913" lon="1.55311">
        <ele>121</ele>
        <time>2017-08-17T08:00:11Z</time>
      </trkpt>
      <trkpt lat="44.81917" lon="1.55309">
        <ele>121</ele>
        <time>2017-08-17T08:00:18Z</time>
      </trkpt>
      <trkpt lat="44.81922" lon="1.55305">
        <ele>122</ele>
        <time>2017-08-17T08:00:23Z</time>
      </trkpt>
      <trkpt lat="44.81927" lon="1.55303">
        <ele>122</ele>
        <time>2017-08-17T08:00:27Z</time>
      </trkpt>
      <trkpt lat="44.81931" lon="1.553">
        <ele>123</ele>
        <time>2017-08-17T08:00:32Z</time>
      </trkpt>
      <trkpt lat="44.81936" lon="1.553">
        <ele>123</ele>
        <time>2017-08-17T08:00:36Z</time>
      </trkpt>
      <trkpt lat="44.81941" lon="1.55299">
        <ele>124</ele>
        <time>2017-08-17T08:00:41Z</time>
      </trkpt>
      <trkpt lat="44.81945" lon="1.55299">
        <ele>124</ele>
        <time>2017-08-17T08:00:45Z</time>
      </trkpt>
      <trkpt lat="44.8195" lon="1.55298">
        <ele>124</ele>
        <time>2017-08-17T08:00:50Z</time>
      </trkpt>
      <trkpt lat="44.81955" lon="1.55298">
        <ele>124</ele>
        <time>2017-08-17T08:00:56Z</time>
      </trkpt>
      <trkpt lat="44.81959" lon="1.55298">
        <ele>124</ele>
        <time>2017-08-17T08:00:59Z</time>
      </trkpt>
      <trkpt lat="44.81964" lon="1.55297">
        <ele>124</ele>
        <time>2017-08-17T08:01:03Z</time>
      </trkpt>
      <trkpt lat="44.81968" lon="1.55298">
        <ele>124</ele>
        <time>2017-08-17T08:01:09Z</time>
      </trkpt>
      <trkpt lat="44.81973" lon="1.55296">
        <ele>124</ele>
        <time>2017-08-17T08:01:13Z</time>
      </trkpt>
      <trkpt lat="44.81978" lon="1.55295">
        <ele>124</ele>
        <time>2017-08-17T08:01:19Z</time>
      </trkpt>
      <trkpt lat="44.81984" lon="1.55294">
        <ele>124</ele>
        <time>2017-08-17T08:01:24Z</time>
      </trkpt>
      <trkpt lat="44.81987" lon="1.5529">
        <ele>124</ele>
        <time>2017-08-17T08:01:28Z</time>
      </trkpt>
      <trkpt lat="44.81992" lon="1.55286">
        <ele>124</ele>
        <time>2017-08-17T08:01:34Z</time>
      </trkpt>
      <trkpt lat="44.81997" lon="1.55284">
        <ele>123</ele>
        <time>2017-08-17T08:01:38Z</time>
      </trkpt>
      <trkpt lat="44.82" lon="1.5528">
        <ele>123</ele>
        <time>2017-08-17T08:01:44Z</time>
      </trkpt>
      <trkpt lat="44.82005" lon="1.55277">
        <ele>122</ele>
        <time>2017-08-17T08:01:48Z</time>
      </trkpt>
      <trkpt lat="44.82009" lon="1.55273">
        <ele>121</ele>
        <time>2017-08-17T08:01:52Z</time>
      </trkpt>
      <trkpt lat="44.82014" lon="1.55268">
        <ele>121</ele>
        <time>2017-08-17T08:01:57Z</time>
      </trkpt>
      <trkpt lat="44.82017" lon="1.55263">
        <ele>121</ele>
        <time>2017-08-17T08:02:05Z</time>
      </trkpt>
      <trkpt lat="44.82022" lon="1.55261">
        <ele>121</ele>
        <time>2017-08-17T08:02:10Z</time>
      </trkpt>
      <trkpt lat="44.82026" lon="1.55257">
        <ele>120</ele>
        <time>2017-08-17T08:02:14Z</time>
      </trkpt>
      <trkpt lat="44.82029" lon="1.55253">
        <ele>120</ele>
        <time>2017-08-17T08:02:19Z</time>
      </trkpt>
      <trkpt lat="44.82034" lon="1.5525">
        <ele>120</ele>
        <time>2017-08-17T08:02:24Z</time>
      </trkpt>
      <trkpt lat="44.82038" lon="1.55245">
        <ele>120</ele>
        <time>2017-08-17T08:02:30Z</time>
      </trkpt>
      <trkpt lat="44.82042" lon="1.55242">
        <ele>120</ele>
        <time>2017-08-17T08:02:34Z</time>
      </trkpt>
      <trkpt lat="44.82045" lon="1.55237">
        <ele>120</ele>
        <time>2017-08-17T08:02:39Z</time>
      </trkpt>
      <trkpt lat="44.82049" lon="1.55233">
        <ele>119</ele>
        <time>2017-08-17T08:02:44Z</time>
      </trkpt>
      <trkpt lat="44.82052" lon="1.55228">
        <ele>120</ele>
        <time>2017-08-17T08:02:51Z</time>
      </trkpt>
      <trkpt lat="44.82056" lon="1.55224">
        <ele>120</ele>
        <time>2017-08-17T08:03:00Z</time>
      </trkpt>
      <trkpt lat="44.8206" lon="1.55221">
        <ele>119</ele>
        <time>2017-08-17T08:03:03Z</time>
      </trkpt>
      <trkpt lat="44.82064" lon="1.55217">
        <ele>119</ele>
        <time>2017-08-17T08:03:07Z</time>
      </trkpt>
      <trkpt lat="44.8207" lon="1.55213">
        <ele>118</ele>
        <time>2017-08-17T08:03:10Z</time>
      </trkpt>
      <trkpt lat="44.82074" lon="1.55207">
        <ele>117</ele>
        <time>2017-08-17T08:03:15Z</time>
      </trkpt>
      <trkpt lat="44.82078" lon="1.55203">
        <ele>117</ele>
        <time>2017-08-17T08:03:21Z</time>
      </trkpt>
      <trkpt lat="44.82082" lon="1.552">
        <ele>116</ele>
        <time>2017-08-17T08:03:28Z</time>
      </trkpt>
      <trkpt lat="44.82087" lon="1.55193">
        <ele>115</ele>
        <time>2017-08-17T08:03:33Z</time>
      </trkpt>
      <trkpt lat="44.82092" lon="1.55189">
        <ele>114</ele>
        <time>2017-08-17T08:03:37Z</time>
      </trkpt>
      <trkpt lat="44.82095" lon="1.55189">
        <ele>113</ele>
        <time>2017-08-17T08:03:55Z</time>
      </trkpt>
      <trkpt lat="44.82095" lon="1.55189">
        <ele>112</ele>
        <time>2017-08-17T08:03:57Z</time>
      </trkpt>
      <trkpt lat="44.82098" lon="1.55185">
        <ele>111</ele>
        <time>2017-08-17T08:04:05Z</time>
      </trkpt>
      <trkpt lat="44.82103" lon="1.55181">
        <ele>110</ele>
        <time>2017-08-17T08:04:10Z</time>
      </trkpt>
      <trkpt lat="44.82106" lon="1.55175">
        <ele>109</ele>
        <time>2017-08-17T08:04:16Z</time>
      </trkpt>
      <trkpt lat="44.82108" lon="1.55169">
        <ele>108</ele>
        <time>2017-08-17T08:04:22Z</time>
      </trkpt>
      <trkpt lat="44.8211" lon="1.55163">
        <ele>108</ele>
        <time>2017-08-17T08:04:26Z</time>
      </trkpt>
      <trkpt lat="44.82112" lon="1.55156">
        <ele>108</ele>
        <time>2017-08-17T08:04:34Z</time>
      </trkpt>
      <trkpt lat="44.82114" lon="1.5515">
        <ele>109</ele>
        <time>2017-08-17T08:04:40Z</time>
      </trkpt>
      <trkpt lat="44.82116" lon="1.55144">
        <ele>109</ele>
        <time>2017-08-17T08:04:45Z</time>
      </trkpt>
      <trkpt lat="44.82117" lon="1.55136">
        <ele>109</ele>
        <time>2017-08-17T08:04:52Z</time>
      </trkpt>
      <trkpt lat="44.82119" lon="1.5513">
        <ele>110</ele>
        <time>2017-08-17T08:04:57Z</time>
      </trkpt>
      <trkpt lat="44.82121" lon="1.55124">
        <ele>110</ele>
        <time>2017-08-17T08:05:04Z</time>
      </trkpt>
      <trkpt lat="44.82124" lon="1.55117">
        <ele>110</ele>
        <time>2017-08-17T08:05:11Z</time>
      </trkpt>
      <trkpt lat="44.82126" lon="1.5511">
        <ele>110</ele>
        <time>2017-08-17T08:05:16Z</time>
      </trkpt>
      <trkpt lat="44.82128" lon="1.55104">
        <ele>110</ele>
        <time>2017-08-17T08:05:22Z</time>
      </trkpt>
      <trkpt lat="44.82129" lon="1.55097">
        <ele>110</ele>
        <time>2017-08-17T08:05:26Z</time>
      </trkpt>
      <trkpt lat="44.82132" lon="1.55092">
        <ele>110</ele>
        <time>2017-08-17T08:05:31Z</time>
      </trkpt>
      <trkpt lat="44.82134" lon="1.55084">
        <ele>110</ele>
        <time>2017-08-17T08:05:37Z</time>
      </trkpt>
      <trkpt lat="44.82137" lon="1.55078">
        <ele>110</ele>
        <time>2017-08-17T08:05:44Z</time>
      </trkpt>
      <trkpt lat="44.82139" lon="1.55071">
        <ele>109</ele>
        <time>2017-08-17T08:05:48Z</time>
      </trkpt>
      <trkpt lat="44.82142" lon="1.55066">
        <ele>108</ele>
        <time>2017-08-17T08:05:53Z</time>
      </trkpt>
      <trkpt lat="44.82144" lon="1.55059">
        <ele>107</ele>
        <time>2017-08-17T08:05:59Z</time>
      </trkpt>
      <trkpt lat="44.82145" lon="1.55052">
        <ele>106</ele>
        <time>2017-08-17T08:06:04Z</time>
      </trkpt>
      <trkpt lat="44.82148" lon="1.55046">
        <ele>105</ele>
        <time>2017-08-17T08:06:11Z</time>
      </trkpt>
      <trkpt lat="44.82149" lon="1.5504">
        <ele>105</ele>
        <time>2017-08-17T08:06:15Z</time>
      </trkpt>
      <trkpt lat="44.8215" lon="1.55032">
        <ele>104</ele>
        <time>2017-08-17T08:06:23Z</time>
      </trkpt>
      <trkpt lat="44.8215" lon="1.55025">
        <ele>104</ele>
        <time>2017-08-17T08:06:26Z</time>
      </trkpt>
      <trkpt lat="44.8215" lon="1.55019">
        <ele>104</ele>
        <time>2017-08-17T08:06:30Z</time>
      </trkpt>
      <trkpt lat="44.82151" lon="1.55013">
        <ele>105</ele>
        <time>2017-08-17T08:06:34Z</time>
      </trkpt>
      <trkpt lat="44.8215" lon="1.55005">
        <ele>105</ele>
        <time>2017-08-17T08:06:38Z</time>
      </trkpt>
      <trkpt lat="44.82152" lon="1.54999">
        <ele>106</ele>
        <time>2017-08-17T08:06:43Z</time>
      </trkpt>
      <trkpt lat="44.82152" lon="1.54992">
        <ele>106</ele>
        <time>2017-08-17T08:06:50Z</time>
      </trkpt>
      <trkpt lat="44.82153" lon="1.54984">
        <ele>107</ele>
        <time>2017-08-17T08:06:58Z</time>
      </trkpt>
      <trkpt lat="44.82152" lon="1.54977">
        <ele>107</ele>
        <time>2017-08-17T08:07:02Z</time>
      </trkpt>
      <trkpt lat="44.82151" lon="1.5497">
        <ele>108</ele>
        <time>2017-08-17T08:07:08Z</time>
      </trkpt>
      <trkpt lat="44.82151" lon="1.54962">
        <ele>108</ele>
        <time>2017-08-17T08:07:14Z</time>
      </trkpt>
      <trkpt lat="44.82152" lon="1.54956">
        <ele>108</ele>
        <time>2017-08-17T08:07:18Z</time>
      </trkpt>
      <trkpt lat="44.82154" lon="1.54949">
        <ele>108</ele>
        <time>2017-08-17T08:07:22Z</time>
      </trkpt>
      <trkpt lat="44.82154" lon="1.54943">
        <ele>108</ele>
        <time>2017-08-17T08:07:28Z</time>
      </trkpt>
      <trkpt lat="44.82155" lon="1.54937">
        <ele>107</ele>
        <time>2017-08-17T08:07:34Z</time>
      </trkpt>
      <trkpt lat="44.82155" lon="1.54929">
        <ele>106</ele>
        <time>2017-08-17T08:07:38Z</time>
      </trkpt>
      <trkpt lat="44.82157" lon="1.54923">
        <ele>106</ele>
        <time>2017-08-17T08:07:43Z</time>
      </trkpt>
      <trkpt lat="44.82157" lon="1.54916">
        <ele>105</ele>
        <time>2017-08-17T08:07:49Z</time>
      </trkpt>
      <trkpt lat="44.82156" lon="1.54909">
        <ele>104</ele>
        <time>2017-08-17T08:07:53Z</time>
      </trkpt>
      <trkpt lat="44.82157" lon="1.54902">
        <ele>104</ele>
        <time>2017-08-17T08:07:59Z</time>
      </trkpt>
      <trkpt lat="44.8216" lon="1.54897">
        <ele>104</ele>
        <time>2017-08-17T08:08:05Z</time>
      </trkpt>
      <trkpt lat="44.82163" lon="1.5489">
        <ele>104</ele>
        <time>2017-08-17T08:08:12Z</time>
      </trkpt>
      <trkpt lat="44.82163" lon="1.54883">
        <ele>104</ele>
        <time>2017-08-17T08:08:15Z</time>
      </trkpt>
      <trkpt lat="44.82165" lon="1.54876">
        <ele>103</ele>
        <time>2017-08-17T08:08:18Z</time>
      </trkpt>
      <trkpt lat="44.82166" lon="1.5487">
        <ele>103</ele>
        <time>2017-08-17T08:08:22Z</time>
      </trkpt>
      <trkpt lat="44.82167" lon="1.54864">
        <ele>103</ele>
        <time>2017-08-17T08:08:27Z</time>
      </trkpt>
      <trkpt lat="44.82169" lon="1.54857">
        <ele>103</ele>
        <time>2017-08-17T08:08:35Z</time>
      </trkpt>
      <trkpt lat="44.8217" lon="1.5485">
        <ele>103</ele>
        <time>2017-08-17T08:08:39Z</time>
      </trkpt>
      <trkpt lat="44.82171" lon="1.54844">
        <ele>103</ele>
        <time>2017-08-17T08:08:44Z</time>
      </trkpt>
      <trkpt lat="44.82171" lon="1.54838">
        <ele>103</ele>
        <time>2017-08-17T08:08:50Z</time>
      </trkpt>
      <trkpt lat="44.82172" lon="1.54831">
        <ele>103</ele>
        <time>2017-08-17T08:08:57Z</time>
      </trkpt>
      <trkpt lat="44.82172" lon="1.54823">
        <ele>104</ele>
        <time>2017-08-17T08:09:01Z</time>
      </trkpt>
      <trkpt lat="44.82174" lon="1.54817">
        <ele>104</ele>
        <time>2017-08-17T08:09:06Z</time>
      </trkpt>
      <trkpt lat="44.82173" lon="1.54809">
        <ele>104</ele>
        <time>2017-08-17T08:09:11Z</time>
      </trkpt>
      <trkpt lat="44.82175" lon="1.54803">
        <ele>105</ele>
        <time>2017-08-17T08:09:16Z</time>
      </trkpt>
      <trkpt lat="44.82175" lon="1.54799">
        <ele>105</ele>
        <time>2017-08-17T08:09:41Z</time>
      </trkpt>
      <trkpt lat="44.82175" lon="1.54799">
        <ele>105</ele>
        <time>2017-08-17T08:09:42Z</time>
      </trkpt>
      <trkpt lat="44.82175" lon="1.54794">
        <ele>106</ele>
        <time>2017-08-17T08:10:11Z</time>
      </trkpt>
      <trkpt lat="44.82175" lon="1.54794">
        <ele>106</ele>
        <time>2017-08-17T08:10:12Z</time>
      </trkpt>
      <trkpt lat="44.82177" lon="1.54793">
        <ele>106</ele>
        <time>2017-08-17T08:10:41Z</time>
      </trkpt>
      <trkpt lat="44.82178" lon="1.54793">
        <ele>106</ele>
        <time>2017-08-17T08:10:42Z</time>
      </trkpt>
      <trkpt lat="44.82179" lon="1.54798">
        <ele>106</ele>
        <time>2017-08-17T08:11:11Z</time>
      </trkpt>
      <trkpt lat="44.82179" lon="1.54797">
        <ele>107</ele>
        <time>2017-08-17T08:11:13Z</time>
      </trkpt>
      <trkpt lat="44.82183" lon="1.54801">
        <ele>107</ele>
        <time>2017-08-17T08:11:19Z</time>
      </trkpt>
      <trkpt lat="44.82184" lon="1.54805">
        <ele>106</ele>
        <time>2017-08-17T08:11:41Z</time>
      </trkpt>
      <trkpt lat="44.82184" lon="1.54805">
        <ele>106</ele>
        <time>2017-08-17T08:11:42Z</time>
      </trkpt>
      <trkpt lat="44.82185" lon="1.54805">
        <ele>106</ele>
        <time>2017-08-17T08:12:11Z</time>
      </trkpt>
      <trkpt lat="44.82185" lon="1.54805">
        <ele>105</ele>
        <time>2017-08-17T08:12:13Z</time>
      </trkpt>
      <trkpt lat="44.82183" lon="1.548">
        <ele>105</ele>
        <time>2017-08-17T08:12:41Z</time>
      </trkpt>
      <trkpt lat="44.82183" lon="1.548">
        <ele>105</ele>
        <time>2017-08-17T08:12:43Z</time>
      </trkpt>
      <trkpt lat="44.82181" lon="1.54798">
        <ele>105</ele>
        <time>2017-08-17T08:13:11Z</time>
      </trkpt>
      <trkpt lat="44.82181" lon="1.54798">
        <ele>105</ele>
        <time>2017-08-17T08:13:13Z</time>
      </trkpt>
      <trkpt lat="44.82181" lon="1.54798">
        <ele>106</ele>
        <time>2017-08-17T08:13:41Z</time>
      </trkpt>
      <trkpt lat="44.82181" lon="1.54798">
        <ele>107</ele>
        <time>2017-08-17T08:13:43Z</time>
      </trkpt>
      <trkpt lat="44.8218" lon="1.54792">
        <ele>108</ele>
        <time>2017-08-17T08:13:52Z</time>
      </trkpt>
      <trkpt lat="44.82179" lon="1.54791">
        <ele>110</ele>
        <time>2017-08-17T08:14:11Z</time>
      </trkpt>
      <trkpt lat="44.82179" lon="1.54791">
        <ele>111</ele>
        <time>2017-08-17T08:14:13Z</time>
      </trkpt>
      <trkpt lat="44.82182" lon="1.54793">
        <ele>111</ele>
        <time>2017-08-17T08:14:41Z</time>
      </trkpt>
      <trkpt lat="44.82182" lon="1.54793">
        <ele>111</ele>
        <time>2017-08-17T08:14:43Z</time>
      </trkpt>
      <trkpt lat="44.82184" lon="1.54788">
        <ele>112</ele>
        <time>2017-08-17T08:15:08Z</time>
      </trkpt>
      <trkpt lat="44.82188" lon="1.54784">
        <ele>112</ele>
        <time>2017-08-17T08:15:13Z</time>
      </trkpt>
      <trkpt lat="44.82192" lon="1.5478">
        <ele>113</ele>
        <time>2017-08-17T08:15:18Z</time>
      </trkpt>
      <trkpt lat="44.82196" lon="1.54775">
        <ele>113</ele>
        <time>2017-08-17T08:15:24Z</time>
      </trkpt>
      <trkpt lat="44.822" lon="1.54772">
        <ele>113</ele>
        <time>2017-08-17T08:15:29Z</time>
      </trkpt>
      <trkpt lat="44.82204" lon="1.54768">
        <ele>113</ele>
        <time>2017-08-17T08:15:33Z</time>
      </trkpt>
      <trkpt lat="44.82209" lon="1.54765">
        <ele>113</ele>
        <time>2017-08-17T08:15:36Z</time>
      </trkpt>
      <trkpt lat="44.82212" lon="1.54762">
        <ele>113</ele>
        <time>2017-08-17T08:15:40Z</time>
      </trkpt>
      <trkpt lat="44.82216" lon="1.54757">
        <ele>113</ele>
        <time>2017-08-17T08:15:44Z</time>
      </trkpt>
      <trkpt lat="44.8222" lon="1.54754">
        <ele>114</ele>
        <time>2017-08-17T08:15:51Z</time>
      </trkpt>
      <trkpt lat="44.82225" lon="1.54752">
        <ele>114</ele>
        <time>2017-08-17T08:15:56Z</time>
      </trkpt>
      <trkpt lat="44.82229" lon="1.54751">
        <ele>114</ele>
        <time>2017-08-17T08:16:01Z</time>
      </trkpt>
      <trkpt lat="44.82235" lon="1.5475">
        <ele>114</ele>
        <time>2017-08-17T08:16:07Z</time>
      </trkpt>
      <trkpt lat="44.8224" lon="1.5475">
        <ele>114</ele>
        <time>2017-08-17T08:16:11Z</time>
      </trkpt>
      <trkpt lat="44.82245" lon="1.5475">
        <ele>114</ele>
        <time>2017-08-17T08:16:19Z</time>
      </trkpt>
      <trkpt lat="44.82251" lon="1.54754">
        <ele>114</ele>
        <time>2017-08-17T08:16:24Z</time>
      </trkpt>
      <trkpt lat="44.82256" lon="1.54756">
        <ele>114</ele>
        <time>2017-08-17T08:16:28Z</time>
      </trkpt>
      <trkpt lat="44.82261" lon="1.54757">
        <ele>113</ele>
        <time>2017-08-17T08:16:34Z</time>
      </trkpt>
      <trkpt lat="44.82265" lon="1.54761">
        <ele>113</ele>
        <time>2017-08-17T08:16:38Z</time>
      </trkpt>
      <trkpt lat="44.8227" lon="1.54764">
        <ele>113</ele>
        <time>2017-08-17T08:16:45Z</time>
      </trkpt>
      <trkpt lat="44.82274" lon="1.54766">
        <ele>113</ele>
        <time>2017-08-17T08:16:57Z</time>
      </trkpt>
      <trkpt lat="44.82278" lon="1.5477">
        <ele>112</ele>
        <time>2017-08-17T08:17:00Z</time>
      </trkpt>
      <trkpt lat="44.82282" lon="1.54774">
        <ele>112</ele>
        <time>2017-08-17T08:17:03Z</time>
      </trkpt>
      <trkpt lat="44.82286" lon="1.54778">
        <ele>112</ele>
        <time>2017-08-17T08:17:07Z</time>
      </trkpt>
      <trkpt lat="44.8229" lon="1.54781">
        <ele>112</ele>
        <time>2017-08-17T08:17:14Z</time>
      </trkpt>
      <trkpt lat="44.82295" lon="1.54785">
        <ele>112</ele>
        <time>2017-08-17T08:17:20Z</time>
      </trkpt>
      <trkpt lat="44.82299" lon="1.54788">
        <ele>113</ele>
        <time>2017-08-17T08:17:25Z</time>
      </trkpt>
      <trkpt lat="44.82304" lon="1.54792">
        <ele>113</ele>
        <time>2017-08-17T08:17:30Z</time>
      </trkpt>
      <trkpt lat="44.82309" lon="1.54796">
        <ele>114</ele>
        <time>2017-08-17T08:17:35Z</time>
      </trkpt>
      <trkpt lat="44.82313" lon="1.54799">
        <ele>114</ele>
        <time>2017-08-17T08:17:44Z</time>
      </trkpt>
      <trkpt lat="44.82318" lon="1.54801">
        <ele>115</ele>
        <time>2017-08-17T08:17:52Z</time>
      </trkpt>
      <trkpt lat="44.82322" lon="1.54805">
        <ele>115</ele>
        <time>2017-08-17T08:17:54Z</time>
      </trkpt>
      <trkpt lat="44.82327" lon="1.54807">
        <ele>116</ele>
        <time>2017-08-17T08:18:01Z</time>
      </trkpt>
      <trkpt lat="44.82331" lon="1.54811">
        <ele>117</ele>
        <time>2017-08-17T08:18:07Z</time>
      </trkpt>
      <trkpt lat="44.82335" lon="1.54814">
        <ele>118</ele>
        <time>2017-08-17T08:18:13Z</time>
      </trkpt>
      <trkpt lat="44.8234" lon="1.54816">
        <ele>120</ele>
        <time>2017-08-17T08:18:18Z</time>
      </trkpt>
      <trkpt lat="44.82345" lon="1.54819">
        <ele>121</ele>
        <time>2017-08-17T08:18:22Z</time>
      </trkpt>
      <trkpt lat="44.82349" lon="1.54823">
        <ele>123</ele>
        <time>2017-08-17T08:18:26Z</time>
      </trkpt>
      <trkpt lat="44.82352" lon="1.54827">
        <ele>124</ele>
        <time>2017-08-17T08:18:29Z</time>
      </trkpt>
      <trkpt lat="44.82355" lon="1.54832">
        <ele>125</ele>
        <time>2017-08-17T08:18:33Z</time>
      </trkpt>
      <trkpt lat="44.82357" lon="1.54838">
        <ele>126</ele>
        <time>2017-08-17T08:18:37Z</time>
      </trkpt>
      <trkpt lat="44.8236" lon="1.54845">
        <ele>127</ele>
        <time>2017-08-17T08:18:41Z</time>
      </trkpt>
      <trkpt lat="44.82364" lon="1.5485">
        <ele>127</ele>
        <time>2017-08-17T08:18:47Z</time>
      </trkpt>
      <trkpt lat="44.82368" lon="1.54855">
        <ele>128</ele>
        <time>2017-08-17T08:18:51Z</time>
      </trkpt>
      <trkpt lat="44.82372" lon="1.5486">
        <ele>128</ele>
        <time>2017-08-17T08:18:53Z</time>
      </trkpt>
      <trkpt lat="44.82373" lon="1.54866">
        <ele>128</ele>
        <time>2017-08-17T08:19:00Z</time>
      </trkpt>
      <trkpt lat="44.82378" lon="1.54869">
        <ele>128</ele>
        <time>2017-08-17T08:19:05Z</time>
      </trkpt>
      <trkpt lat="44.82381" lon="1.54874">
        <ele>128</ele>
        <time>2017-08-17T08:19:09Z</time>
      </trkpt>
      <trkpt lat="44.82385" lon="1.54879">
        <ele>127</ele>
        <time>2017-08-17T08:19:13Z</time>
      </trkpt>
      <trkpt lat="44.82389" lon="1.54885">
        <ele>127</ele>
        <time>2017-08-17T08:19:20Z</time>
      </trkpt>
      <trkpt lat="44.82392" lon="1.54891">
        <ele>127</ele>
        <time>2017-08-17T08:19:27Z</time>
      </trkpt>
      <trkpt lat="44.82396" lon="1.54896">
        <ele>127</ele>
        <time>2017-08-17T08:19:32Z</time>
      </trkpt>
      <trkpt lat="44.82399" lon="1.54901">
        <ele>127</ele>
        <time>2017-08-17T08:19:36Z</time>
      </trkpt>
      <trkpt lat="44.82403" lon="1.54906">
        <ele>126</ele>
        <time>2017-08-17T08:19:43Z</time>
      </trkpt>
      <trkpt lat="44.82407" lon="1.54911">
        <ele>125</ele>
        <time>2017-08-17T08:19:46Z</time>
      </trkpt>
      <trkpt lat="44.8241" lon="1.54917">
        <ele>125</ele>
        <time>2017-08-17T08:19:52Z</time>
      </trkpt>
      <trkpt lat="44.82413" lon="1.54923">
        <ele>124</ele>
        <time>2017-08-17T08:19:56Z</time>
      </trkpt>
      <trkpt lat="44.82417" lon="1.54929">
        <ele>124</ele>
        <time>2017-08-17T08:20:02Z</time>
      </trkpt>
      <trkpt lat="44.8242" lon="1.54934">
        <ele>123</ele>
        <time>2017-08-17T08:20:05Z</time>
      </trkpt>
      <trkpt lat="44.82422" lon="1.5494">
        <ele>123</ele>
        <time>2017-08-17T08:20:09Z</time>
      </trkpt>
      <trkpt lat="44.82425" lon="1.54946">
        <ele>123</ele>
        <time>2017-08-17T08:20:15Z</time>
      </trkpt>
      <trkpt lat="44.82428" lon="1.54952">
        <ele>123</ele>
        <time>2017-08-17T08:20:20Z</time>
      </trkpt>
      <trkpt lat="44.82432" lon="1.54957">
        <ele>122</ele>
        <time>2017-08-17T08:20:24Z</time>
      </trkpt>
      <trkpt lat="44.82436" lon="1.54961">
        <ele>122</ele>
        <time>2017-08-17T08:20:33Z</time>
      </trkpt>
      <trkpt lat="44.8244" lon="1.54966">
        <ele>122</ele>
        <time>2017-08-17T08:20:36Z</time>
      </trkpt>
      <trkpt lat="44.82444" lon="1.54972">
        <ele>122</ele>
        <time>2017-08-17T08:20:41Z</time>
      </trkpt>
      <trkpt lat="44.82448" lon="1.54976">
        <ele>122</ele>
        <time>2017-08-17T08:20:46Z</time>
      </trkpt>
      <trkpt lat="44.82452" lon="1.54982">
        <ele>122</ele>
        <time>2017-08-17T08:20:53Z</time>
      </trkpt>
      <trkpt lat="44.82455" lon="1.54987">
        <ele>123</ele>
        <time>2017-08-17T08:20:58Z</time>
      </trkpt>
      <trkpt lat="44.8246" lon="1.5499">
        <ele>123</ele>
        <time>2017-08-17T08:21:03Z</time>
      </trkpt>
      <trkpt lat="44.82464" lon="1.54995">
        <ele>124</ele>
        <time>2017-08-17T08:21:08Z</time>
      </trkpt>
      <trkpt lat="44.82468" lon="1.54999">
        <ele>124</ele>
        <time>2017-08-17T08:21:13Z</time>
      </trkpt>
      <trkpt lat="44.82472" lon="1.55004">
        <ele>125</ele>
        <time>2017-08-17T08:21:17Z</time>
      </trkpt>
      <trkpt lat="44.82475" lon="1.55009">
        <ele>125</ele>
        <time>2017-08-17T08:21:21Z</time>
      </trkpt>
      <trkpt lat="44.8248" lon="1.55014">
        <ele>125</ele>
        <time>2017-08-17T08:21:25Z</time>
      </trkpt>
      <trkpt lat="44.82482" lon="1.5502">
        <ele>125</ele>
        <time>2017-08-17T08:21:29Z</time>
      </trkpt>
      <trkpt lat="44.82485" lon="1.55026">
        <ele>125</ele>
        <time>2017-08-17T08:21:34Z</time>
      </trkpt>
      <trkpt lat="44.82488" lon="1.55032">
        <ele>126</ele>
        <time>2017-08-17T08:21:39Z</time>
      </trkpt>
      <trkpt lat="44.8249" lon="1.55037">
        <ele>126</ele>
        <time>2017-08-17T08:21:43Z</time>
      </trkpt>
      <trkpt lat="44.82494" lon="1.5504">
        <ele>126</ele>
        <time>2017-08-17T08:21:47Z</time>
      </trkpt>
      <trkpt lat="44.82499" lon="1.55046">
        <ele>127</ele>
        <time>2017-08-17T08:21:50Z</time>
      </trkpt>
      <trkpt lat="44.82502" lon="1.5505">
        <ele>127</ele>
        <time>2017-08-17T08:21:53Z</time>
      </trkpt>
      <trkpt lat="44.82505" lon="1.55055">
        <ele>127</ele>
        <time>2017-08-17T08:21:57Z</time>
      </trkpt>
      <trkpt lat="44.82509" lon="1.55061">
        <ele>128</ele>
        <time>2017-08-17T08:22:17Z</time>
      </trkpt>
      <trkpt lat="44.82511" lon="1.5506">
        <ele>128</ele>
        <time>2017-08-17T08:22:41Z</time>
      </trkpt>
      <trkpt lat="44.82511" lon="1.55062">
        <ele>128</ele>
        <time>2017-08-17T08:22:43Z</time>
      </trkpt>
      <trkpt lat="44.82509" lon="1.55069">
        <ele>127</ele>
        <time>2017-08-17T08:23:06Z</time>
      </trkpt>
      <trkpt lat="44.82505" lon="1.55074">
        <ele>126</ele>
        <time>2017-08-17T08:23:15Z</time>
      </trkpt>
      <trkpt lat="44.82501" lon="1.55072">
        <ele>124</ele>
        <time>2017-08-17T08:23:26Z</time>
      </trkpt>
      <trkpt lat="44.82503" lon="1.55073">
        <ele>122</ele>
        <time>2017-08-17T08:23:41Z</time>
      </trkpt>
      <trkpt lat="44.82503" lon="1.55073">
        <ele>120</ele>
        <time>2017-08-17T08:23:43Z</time>
      </trkpt>
      <trkpt lat="44.82504" lon="1.55072">
        <ele>118</ele>
        <time>2017-08-17T08:24:11Z</time>
      </trkpt>
      <trkpt lat="44.82504" lon="1.55072">
        <ele>116</ele>
        <time>2017-08-17T08:24:13Z</time>
      </trkpt>
      <trkpt lat="44.82503" lon="1.55073">
        <ele>115</ele>
        <time>2017-08-17T08:24:41Z</time>
      </trkpt>
      <trkpt lat="44.82503" lon="1.55073">
        <ele>114</ele>
        <time>2017-08-17T08:24:43Z</time>
      </trkpt>
      <trkpt lat="44.82506" lon="1.55069">
        <ele>113</ele>
        <time>2017-08-17T08:24:54Z</time>
      </trkpt>
      <trkpt lat="44.8251" lon="1.55067">
        <ele>113</ele>
        <time>2017-08-17T08:25:08Z</time>
      </trkpt>
      <trkpt lat="44.8251" lon="1.55066">
        <ele>114</ele>
        <time>2017-08-17T08:25:26Z</time>
      </trkpt>
      <trkpt lat="44.8251" lon="1.55066">
        <ele>115</ele>
        <time>2017-08-17T08:25:28Z</time>
      </trkpt>
      <trkpt lat="44.8251" lon="1.55066">
        <ele>116</ele>
        <time>2017-08-17T08:25:56Z</time>
      </trkpt>
      <trkpt lat="44.8251" lon="1.55066">
        <ele>116</ele>
        <time>2017-08-17T08:25:58Z</time>
      </trkpt>
      <trkpt lat="44.82511" lon="1.55064">
        <ele>117</ele>
        <time>2017-08-17T08:26:26Z</time>
      </trkpt>
      <trkpt lat="44.82511" lon="1.55064">
        <ele>118</ele>
        <time>2017-08-17T08:26:28Z</time>
      </trkpt>
      <trkpt lat="44.82512" lon="1.55064">
        <ele>119</ele>
        <time>2017-08-17T08:26:56Z</time>
      </trkpt>
      <trkpt lat="44.82512" lon="1.55064">
        <ele>119</ele>
        <time>2017-08-17T08:26:58Z</time>
      </trkpt>
      <trkpt lat="44.82512" lon="1.55067">
        <ele>120</ele>
        <time>2017-08-17T08:27:26Z</time>
      </trkpt>
      <trkpt lat="44.82512" lon="1.55067">
        <ele>120</ele>
        <time>2017-08-17T08:27:28Z</time>
      </trkpt>
      <trkpt lat="44.82512" lon="1.55067">
        <ele>120</ele>
        <time>2017-08-17T08:27:56Z</time>
      </trkpt>
      <trkpt lat="44.82512" lon="1.55067">
        <ele>121</ele>
        <time>2017-08-17T08:27:58Z</time>
      </trkpt>
      <trkpt lat="44.82517" lon="1.55065">
        <ele>120</ele>
        <time>2017-08-17T08:28:18Z</time>
      </trkpt>
      <trkpt lat="44.82522" lon="1.55064">
        <ele>120</ele>
        <time>2017-08-17T08:28:23Z</time>
      </trkpt>
      <trkpt lat="44.82526" lon="1.55064">
        <ele>120</ele>
        <time>2017-08-17T08:28:29Z</time>
      </trkpt>
      <trkpt lat="44.82531" lon="1.55067">
        <ele>119</ele>
        <time>2017-08-17T08:28:32Z</time>
      </trkpt>
      <trkpt lat="44.82536" lon="1.55068">
        <ele>118</ele>
        <time>2017-08-17T08:28:37Z</time>
      </trkpt>
      <trkpt lat="44.82541" lon="1.55065">
        <ele>118</ele>
        <time>2017-08-17T08:28:42Z</time>
      </trkpt>
      <trkpt lat="44.82546" lon="1.55063">
        <ele>117</ele>
        <time>2017-08-17T08:28:47Z</time>
      </trkpt>
      <trkpt lat="44.82551" lon="1.55061">
        <ele>117</ele>
        <time>2017-08-17T08:28:53Z</time>
      </trkpt>
      <trkpt lat="44.82556" lon="1.5506">
        <ele>116</ele>
        <time>2017-08-17T08:28:59Z</time>
      </trkpt>
      <trkpt lat="44.82561" lon="1.5506">
        <ele>116</ele>
        <time>2017-08-17T08:29:04Z</time>
      </trkpt>
      <trkpt lat="44.82567" lon="1.55062">
        <ele>116</ele>
        <time>2017-08-17T08:29:12Z</time>
      </trkpt>
      <trkpt lat="44.82571" lon="1.5506">
        <ele>116</ele>
        <time>2017-08-17T08:29:18Z</time>
      </trkpt>
      <trkpt lat="44.82577" lon="1.55059">
        <ele>116</ele>
        <time>2017-08-17T08:29:26Z</time>
      </trkpt>
      <trkpt lat="44.82583" lon="1.55058">
        <ele>116</ele>
        <time>2017-08-17T08:29:34Z</time>
      </trkpt>
      <trkpt lat="44.82587" lon="1.55056">
        <ele>116</ele>
        <time>2017-08-17T08:29:40Z</time>
      </trkpt>
      <trkpt lat="44.82591" lon="1.55058">
        <ele>116</ele>
        <time>2017-08-17T08:29:42Z</time>
      </trkpt>
      <trkpt lat="44.82596" lon="1.55058">
        <ele>116</ele>
        <time>2017-08-17T08:29:46Z</time>
      </trkpt>
      <trkpt lat="44.826" lon="1.55057">
        <ele>116</ele>
        <time>2017-08-17T08:29:51Z</time>
      </trkpt>
      <trkpt lat="44.82605" lon="1.55055">
        <ele>116</ele>
        <time>2017-08-17T08:29:58Z</time>
      </trkpt>
      <trkpt lat="44.8261" lon="1.55055">
        <ele>116</ele>
        <time>2017-08-17T08:30:03Z</time>
      </trkpt>
      <trkpt lat="44.82615" lon="1.55054">
        <ele>115</ele>
        <time>2017-08-17T08:30:09Z</time>
      </trkpt>
      <trkpt lat="44.8262" lon="1.55056">
        <ele>115</ele>
        <time>2017-08-17T08:30:13Z</time>
      </trkpt>
      <trkpt lat="44.82624" lon="1.55055">
        <ele>115</ele>
        <time>2017-08-17T08:30:20Z</time>
      </trkpt>
      <trkpt lat="44.8263" lon="1.55054">
        <ele>115</ele>
        <time>2017-08-17T08:30:25Z</time>
      </trkpt>
      <trkpt lat="44.82635" lon="1.55053">
        <ele>115</ele>
        <time>2017-08-17T08:30:30Z</time>
      </trkpt>
      <trkpt lat="44.82641" lon="1.55051">
        <ele>114</ele>
        <time>2017-08-17T08:30:35Z</time>
      </trkpt>
      <trkpt lat="44.82645" lon="1.55048">
        <ele>114</ele>
        <time>2017-08-17T08:30:40Z</time>
      </trkpt>
      <trkpt lat="44.82649" lon="1.55046">
        <ele>113</ele>
        <time>2017-08-17T08:30:47Z</time>
      </trkpt>
      <trkpt lat="44.82653" lon="1.55041">
        <ele>113</ele>
        <time>2017-08-17T08:30:52Z</time>
      </trkpt>
      <trkpt lat="44.82658" lon="1.55041">
        <ele>112</ele>
        <time>2017-08-17T08:30:57Z</time>
      </trkpt>
      <trkpt lat="44.82663" lon="1.55038">
        <ele>112</ele>
        <time>2017-08-17T08:31:04Z</time>
      </trkpt>
      <trkpt lat="44.82667" lon="1.5504">
        <ele>111</ele>
        <time>2017-08-17T08:31:09Z</time>
      </trkpt>
      <trkpt lat="44.82673" lon="1.55037">
        <ele>111</ele>
        <time>2017-08-17T08:31:14Z</time>
      </trkpt>
      <trkpt lat="44.82673" lon="1.55031">
        <ele>111</ele>
        <time>2017-08-17T08:31:23Z</time>
      </trkpt>
      <trkpt lat="44.82675" lon="1.55025">
        <ele>112</ele>
        <time>2017-08-17T08:31:30Z</time>
      </trkpt>
      <trkpt lat="44.82678" lon="1.55027">
        <ele>112</ele>
        <time>2017-08-17T08:31:56Z</time>
      </trkpt>
      <trkpt lat="44.82678" lon="1.55027">
        <ele>113</ele>
        <time>2017-08-17T08:31:58Z</time>
      </trkpt>
      <trkpt lat="44.82681" lon="1.5503">
        <ele>112</ele>
        <time>2017-08-17T08:32:26Z</time>
      </trkpt>
      <trkpt lat="44.82681" lon="1.55031">
        <ele>111</ele>
        <time>2017-08-17T08:32:28Z</time>
      </trkpt>
      <trkpt lat="44.82679" lon="1.55037">
        <ele>109</ele>
        <time>2017-08-17T08:32:34Z</time>
      </trkpt>
      <trkpt lat="44.82679" lon="1.55043">
        <ele>108</ele>
        <time>2017-08-17T08:32:38Z</time>
      </trkpt>
      <trkpt lat="44.82674" lon="1.55047">
        <ele>106</ele>
        <time>2017-08-17T08:32:43Z</time>
      </trkpt>
      <trkpt lat="44.8267" lon="1.55051">
        <ele>107</ele>
        <time>2017-08-17T08:32:47Z</time>
      </trkpt>
      <trkpt lat="44.82666" lon="1.55054">
        <ele>107</ele>
        <time>2017-08-17T08:33:11Z</time>
      </trkpt>
      <trkpt lat="44.82666" lon="1.55054">
        <ele>108</ele>
        <time>2017-08-17T08:33:13Z</time>
      </trkpt>
      <trkpt lat="44.82667" lon="1.55047">
        <ele>109</ele>
        <time>2017-08-17T08:33:33Z</time>
      </trkpt>
      <trkpt lat="44.82672" lon="1.55047">
        <ele>110</ele>
        <time>2017-08-17T08:33:41Z</time>
      </trkpt>
      <trkpt lat="44.82674" lon="1.55042">
        <ele>111</ele>
        <time>2017-08-17T08:33:52Z</time>
      </trkpt>
      <trkpt lat="44.82674" lon="1.55037">
        <ele>112</ele>
        <time>2017-08-17T08:34:11Z</time>
      </trkpt>
      <trkpt lat="44.82674" lon="1.55033">
        <ele>114</ele>
        <time>2017-08-17T08:34:13Z</time>
      </trkpt>
      <trkpt lat="44.82678" lon="1.55029">
        <ele>115</ele>
        <time>2017-08-17T08:34:34Z</time>
      </trkpt>
      <trkpt lat="44.82678" lon="1.5503">
        <ele>116</ele>
        <time>2017-08-17T08:34:57Z</time>
      </trkpt>
      <trkpt lat="44.82678" lon="1.5503">
        <ele>116</ele>
        <time>2017-08-17T08:34:58Z</time>
      </trkpt>
      <trkpt lat="44.82681" lon="1.55036">
        <ele>117</ele>
        <time>2017-08-17T08:35:12Z</time>
      </trkpt>
      <trkpt lat="44.82683" lon="1.55041">
        <ele>117</ele>
        <time>2017-08-17T08:35:22Z</time>
      </trkpt>
      <trkpt lat="44.82687" lon="1.55047">
        <ele>118</ele>
        <time>2017-08-17T08:35:29Z</time>
      </trkpt>
      <trkpt lat="44.82691" lon="1.55052">
        <ele>118</ele>
        <time>2017-08-17T08:35:34Z</time>
      </trkpt>
      <trkpt lat="44.82695" lon="1.55056">
        <ele>117</ele>
        <time>2017-08-17T08:35:38Z</time>
      </trkpt>
      <trkpt lat="44.827" lon="1.5506">
        <ele>117</ele>
        <time>2017-08-17T08:35:45Z</time>
      </trkpt>
      <trkpt lat="44.82705" lon="1.55062">
        <ele>117</ele>
        <time>2017-08-17T08:35:51Z</time>
      </trkpt>
      <trkpt lat="44.82709" lon="1.55058">
        <ele>116</ele>
        <time>2017-08-17T08:36:01Z</time>
      </trkpt>
      <trkpt lat="44.82713" lon="1.55054">
        <ele>115</ele>
        <time>2017-08-17T08:36:09Z</time>
      </trkpt>
      <trkpt lat="44.82716" lon="1.55048">
        <ele>114</ele>
        <time>2017-08-17T08:36:15Z</time>
      </trkpt>
      <trkpt lat="44.82719" lon="1.55043">
        <ele>114</ele>
        <time>2017-08-17T08:36:21Z</time>
      </trkpt>
      <trkpt lat="44.82724" lon="1.55039">
        <ele>113</ele>
        <time>2017-08-17T08:36:26Z</time>
      </trkpt>
      <trkpt lat="44.82728" lon="1.55035">
        <ele>112</ele>
        <time>2017-08-17T08:36:32Z</time>
      </trkpt>
      <trkpt lat="44.82732" lon="1.55032">
        <ele>112</ele>
        <time>2017-08-17T08:36:36Z</time>
      </trkpt>
      <trkpt lat="44.82736" lon="1.5503">
        <ele>112</ele>
        <time>2017-08-17T08:36:41Z</time>
      </trkpt>
      <trkpt lat="44.8274" lon="1.55026">
        <ele>111</ele>
        <time>2017-08-17T08:36:48Z</time>
      </trkpt>
      <trkpt lat="44.82745" lon="1.55023">
        <ele>111</ele>
        <time>2017-08-17T08:36:53Z</time>
      </trkpt>
      <trkpt lat="44.82748" lon="1.55018">
        <ele>110</ele>
        <time>2017-08-17T08:36:57Z</time>
      </trkpt>
      <trkpt lat="44.82753" lon="1.55014">
        <ele>110</ele>
        <time>2017-08-17T08:37:03Z</time>
      </trkpt>
      <trkpt lat="44.82758" lon="1.55012">
        <ele>110</ele>
        <time>2017-08-17T08:37:07Z</time>
      </trkpt>
      <trkpt lat="44.82763" lon="1.55007">
        <ele>109</ele>
        <time>2017-08-17T08:37:14Z</time>
      </trkpt>
      <trkpt lat="44.82767" lon="1.55006">
        <ele>109</ele>
        <time>2017-08-17T08:37:18Z</time>
      </trkpt>
      <trkpt lat="44.82772" lon="1.55004">
        <ele>108</ele>
        <time>2017-08-17T08:37:23Z</time>
      </trkpt>
      <trkpt lat="44.82776" lon="1.55">
        <ele>108</ele>
        <time>2017-08-17T08:37:30Z</time>
      </trkpt>
      <trkpt lat="44.82781" lon="1.54996">
        <ele>107</ele>
        <time>2017-08-17T08:37:35Z</time>
      </trkpt>
      <trkpt lat="44.82785" lon="1.54993">
        <ele>106</ele>
        <time>2017-08-17T08:37:41Z</time>
      </trkpt>
      <trkpt lat="44.8279" lon="1.54988">
        <ele>105</ele>
        <time>2017-08-17T08:37:46Z</time>
      </trkpt>
      <trkpt lat="44.82793" lon="1.54984">
        <ele>104</ele>
        <time>2017-08-17T08:37:52Z</time>
      </trkpt>
      <trkpt lat="44.82798" lon="1.54981">
        <ele>103</ele>
        <time>2017-08-17T08:38:03Z</time>
      </trkpt>
      <trkpt lat="44.82801" lon="1.54978">
        <ele>102</ele>
        <time>2017-08-17T08:38:09Z</time>
      </trkpt>
      <trkpt lat="44.82806" lon="1.54974">
        <ele>102</ele>
        <time>2017-08-17T08:38:14Z</time>
      </trkpt>
      <trkpt lat="44.82811" lon="1.54972">
        <ele>101</ele>
        <time>2017-08-17T08:38:19Z</time>
      </trkpt>
      <trkpt lat="44.82816" lon="1.5497">
        <ele>101</ele>
        <time>2017-08-17T08:38:25Z</time>
      </trkpt>
      <trkpt lat="44.82821" lon="1.54972">
        <ele>100</ele>
        <time>2017-08-17T08:38:31Z</time>
      </trkpt>
      <trkpt lat="44.82826" lon="1.54973">
        <ele>100</ele>
        <time>2017-08-17T08:38:37Z</time>
      </trkpt>
      <trkpt lat="44.8283" lon="1.54976">
        <ele>101</ele>
        <time>2017-08-17T08:38:43Z</time>
      </trkpt>
      <trkpt lat="44.82833" lon="1.54983">
        <ele>101</ele>
        <time>2017-08-17T08:38:49Z</time>
      </trkpt>
      <trkpt lat="44.82836" lon="1.54989">
        <ele>102</ele>
        <time>2017-08-17T08:38:53Z</time>
      </trkpt>
      <trkpt lat="44.82838" lon="1.54995">
        <ele>103</ele>
        <time>2017-08-17T08:38:57Z</time>
      </trkpt>
      <trkpt lat="44.8284" lon="1.55002">
        <ele>104</ele>
        <time>2017-08-17T08:39:01Z</time>
      </trkpt>
      <trkpt lat="44.82841" lon="1.55009">
        <ele>105</ele>
        <time>2017-08-17T08:39:08Z</time>
      </trkpt>
      <trkpt lat="44.82844" lon="1.55015">
        <ele>105</ele>
        <time>2017-08-17T08:39:13Z</time>
      </trkpt>
      <trkpt lat="44.82847" lon="1.55021">
        <ele>106</ele>
        <time>2017-08-17T08:39:18Z</time>
      </trkpt>
      <trkpt lat="44.8285" lon="1.55027">
        <ele>107</ele>
        <time>2017-08-17T08:39:22Z</time>
      </trkpt>
      <trkpt lat="44.82853" lon="1.55032">
        <ele>108</ele>
        <time>2017-08-17T08:39:25Z</time>
      </trkpt>
      <trkpt lat="44.82857" lon="1.55038">
        <ele>109</ele>
        <time>2017-08-17T08:39:29Z</time>
      </trkpt>
      <trkpt lat="44.82859" lon="1.55044">
        <ele>110</ele>
        <time>2017-08-17T08:39:34Z</time>
      </trkpt>
      <trkpt lat="44.82861" lon="1.55049">
        <ele>111</ele>
        <time>2017-08-17T08:39:38Z</time>
      </trkpt>
      <trkpt lat="44.82864" lon="1.55055">
        <ele>113</ele>
        <time>2017-08-17T08:39:47Z</time>
      </trkpt>
      <trkpt lat="44.82866" lon="1.55061">
        <ele>114</ele>
        <time>2017-08-17T08:39:53Z</time>
      </trkpt>
      <trkpt lat="44.82868" lon="1.55067">
        <ele>115</ele>
        <time>2017-08-17T08:40:03Z</time>
      </trkpt>
      <trkpt lat="44.8287" lon="1.55073">
        <ele>116</ele>
        <time>2017-08-17T08:40:25Z</time>
      </trkpt>
      <trkpt lat="44.82872" lon="1.55081">
        <ele>116</ele>
        <time>2017-08-17T08:40:29Z</time>
      </trkpt>
      <trkpt lat="44.82875" lon="1.55088">
        <ele>116</ele>
        <time>2017-08-17T08:40:35Z</time>
      </trkpt>
      <trkpt lat="44.82878" lon="1.55095">
        <ele>116</ele>
        <time>2017-08-17T08:40:38Z</time>
      </trkpt>
      <trkpt lat="44.8288" lon="1.55101">
        <ele>116</ele>
        <time>2017-08-17T08:40:41Z</time>
      </trkpt>
      <trkpt lat="44.82879" lon="1.55109">
        <ele>117</ele>
        <time>2017-08-17T08:40:47Z</time>
      </trkpt>
      <trkpt lat="44.8288" lon="1.55115">
        <ele>117</ele>
        <time>2017-08-17T08:40:52Z</time>
      </trkpt>
      <trkpt lat="44.8288" lon="1.55122">
        <ele>117</ele>
        <time>2017-08-17T08:40:55Z</time>
      </trkpt>
      <trkpt lat="44.82881" lon="1.55128">
        <ele>117</ele>
        <time>2017-08-17T08:40:59Z</time>
      </trkpt>
      <trkpt lat="44.82882" lon="1.55135">
        <ele>118</ele>
        <time>2017-08-17T08:41:03Z</time>
      </trkpt>
      <trkpt lat="44.82884" lon="1.55142">
        <ele>118</ele>
        <time>2017-08-17T08:41:08Z</time>
      </trkpt>
      <trkpt lat="44.82884" lon="1.55149">
        <ele>118</ele>
        <time>2017-08-17T08:41:14Z</time>
      </trkpt>
      <trkpt lat="44.82888" lon="1.55157">
        <ele>118</ele>
        <time>2017-08-17T08:41:18Z</time>
      </trkpt>
      <trkpt lat="44.8289" lon="1.55163">
        <ele>118</ele>
        <time>2017-08-17T08:41:23Z</time>
      </trkpt>
      <trkpt lat="44.82892" lon="1.5517">
        <ele>118</ele>
        <time>2017-08-17T08:41:29Z</time>
      </trkpt>
      <trkpt lat="44.82895" lon="1.55175">
        <ele>119</ele>
        <time>2017-08-17T08:41:32Z</time>
      </trkpt>
      <trkpt lat="44.82898" lon="1.55181">
        <ele>119</ele>
        <time>2017-08-17T08:41:37Z</time>
      </trkpt>
      <trkpt lat="44.82902" lon="1.55187">
        <ele>120</ele>
        <time>2017-08-17T08:41:42Z</time>
      </trkpt>
      <trkpt lat="44.82905" lon="1.55193">
        <ele>121</ele>
        <time>2017-08-17T08:41:47Z</time>
      </trkpt>
      <trkpt lat="44.82908" lon="1.552">
        <ele>122</ele>
        <time>2017-08-17T08:41:52Z</time>
      </trkpt>
      <trkpt lat="44.8291" lon="1.55206">
        <ele>123</ele>
        <time>2017-08-17T08:41:59Z</time>
      </trkpt>
      <trkpt lat="44.82914" lon="1.55211">
        <ele>123</ele>
        <time>2017-08-17T08:42:11Z</time>
      </trkpt>
      <trkpt lat="44.82917" lon="1.55216">
        <ele>124</ele>
        <time>2017-08-17T08:42:15Z</time>
      </trkpt>
      <trkpt lat="44.82921" lon="1.55221">
        <ele>124</ele>
        <time>2017-08-17T08:42:19Z</time>
      </trkpt>
      <trkpt lat="44.82922" lon="1.55228">
        <ele>124</ele>
        <time>2017-08-17T08:42:23Z</time>
      </trkpt>
      <trkpt lat="44.82924" lon="1.55234">
        <ele>123</ele>
        <time>2017-08-17T08:42:26Z</time>
      </trkpt>
      <trkpt lat="44.82927" lon="1.55239">
        <ele>123</ele>
        <time>2017-08-17T08:42:30Z</time>
      </trkpt>
      <trkpt lat="44.82931" lon="1.55243">
        <ele>122</ele>
        <time>2017-08-17T08:42:36Z</time>
      </trkpt>
      <trkpt lat="44.82936" lon="1.55246">
        <ele>121</ele>
        <time>2017-08-17T08:42:43Z</time>
      </trkpt>
      <trkpt lat="44.82941" lon="1.55248">
        <ele>120</ele>
        <time>2017-08-17T08:42:50Z</time>
      </trkpt>
      <trkpt lat="44.82946" lon="1.55249">
        <ele>119</ele>
        <time>2017-08-17T08:43:03Z</time>
      </trkpt>
      <trkpt lat="44.82951" lon="1.55251">
        <ele>118</ele>
        <time>2017-08-17T08:43:07Z</time>
      </trkpt>
      <trkpt lat="44.82956" lon="1.55253">
        <ele>118</ele>
        <time>2017-08-17T08:43:11Z</time>
      </trkpt>
      <trkpt lat="44.82961" lon="1.55254">
        <ele>117</ele>
        <time>2017-08-17T08:43:17Z</time>
      </trkpt>
      <trkpt lat="44.82966" lon="1.55258">
        <ele>117</ele>
        <time>2017-08-17T08:43:21Z</time>
      </trkpt>
      <trkpt lat="44.8297" lon="1.55258">
        <ele>116</ele>
        <time>2017-08-17T08:43:26Z</time>
      </trkpt>
      <trkpt lat="44.82975" lon="1.55258">
        <ele>116</ele>
        <time>2017-08-17T08:43:32Z</time>
      </trkpt>
      <trkpt lat="44.8298" lon="1.55257">
        <ele>115</ele>
        <time>2017-08-17T08:43:37Z</time>
      </trkpt>
      <trkpt lat="44.82984" lon="1.55255">
        <ele>114</ele>
        <time>2017-08-17T08:43:46Z</time>
      </trkpt>
      <trkpt lat="44.82989" lon="1.55255">
        <ele>114</ele>
        <time>2017-08-17T08:43:51Z</time>
      </trkpt>
      <trkpt lat="44.82994" lon="1.55253">
        <ele>114</ele>
        <time>2017-08-17T08:44:00Z</time>
      </trkpt>
      <trkpt lat="44.82999" lon="1.55254">
        <ele>113</ele>
        <time>2017-08-17T08:44:03Z</time>
      </trkpt>
      <trkpt lat="44.83003" lon="1.55256">
        <ele>113</ele>
        <time>2017-08-17T08:44:08Z</time>
      </trkpt>
      <trkpt lat="44.83009" lon="1.55256">
        <ele>113</ele>
        <time>2017-08-17T08:44:11Z</time>
      </trkpt>
      <trkpt lat="44.83014" lon="1.55258">
        <ele>113</ele>
        <time>2017-08-17T08:44:17Z</time>
      </trkpt>
      <trkpt lat="44.83019" lon="1.55256">
        <ele>113</ele>
        <time>2017-08-17T08:44:23Z</time>
      </trkpt>
      <trkpt lat="44.83025" lon="1.55256">
        <ele>113</ele>
        <time>2017-08-17T08:44:27Z</time>
      </trkpt>
      <trkpt lat="44.8303" lon="1.55254">
        <ele>113</ele>
        <time>2017-08-17T08:44:32Z</time>
      </trkpt>
      <trkpt lat="44.83035" lon="1.55252">
        <ele>113</ele>
        <time>2017-08-17T08:44:38Z</time>
      </trkpt>
      <trkpt lat="44.8304" lon="1.55249">
        <ele>113</ele>
        <time>2017-08-17T08:44:43Z</time>
      </trkpt>
      <trkpt lat="44.83045" lon="1.5525">
        <ele>112</ele>
        <time>2017-08-17T08:44:47Z</time>
      </trkpt>
      <trkpt lat="44.8305" lon="1.55247">
        <ele>111</ele>
        <time>2017-08-17T08:44:51Z</time>
      </trkpt>
      <trkpt lat="44.83055" lon="1.55244">
        <ele>110</ele>
        <time>2017-08-17T08:44:55Z</time>
      </trkpt>
      <trkpt lat="44.83059" lon="1.5524">
        <ele>109</ele>
        <time>2017-08-17T08:45:00Z</time>
      </trkpt>
      <trkpt lat="44.83064" lon="1.55236">
        <ele>109</ele>
        <time>2017-08-17T08:45:05Z</time>
      </trkpt>
      <trkpt lat="44.83067" lon="1.55232">
        <ele>108</ele>
        <time>2017-08-17T08:45:10Z</time>
      </trkpt>
      <trkpt lat="44.83071" lon="1.55228">
        <ele>107</ele>
        <time>2017-08-17T08:45:17Z</time>
      </trkpt>
      <trkpt lat="44.83075" lon="1.55226">
        <ele>107</ele>
        <time>2017-08-17T08:45:23Z</time>
      </trkpt>
      <trkpt lat="44.8308" lon="1.55222">
        <ele>106</ele>
        <time>2017-08-17T08:45:29Z</time>
      </trkpt>
      <trkpt lat="44.83084" lon="1.55216">
        <ele>106</ele>
        <time>2017-08-17T08:45:34Z</time>
      </trkpt>
      <trkpt lat="44.83087" lon="1.55212">
        <ele>105</ele>
        <time>2017-08-17T08:45:42Z</time>
      </trkpt>
      <trkpt lat="44.83087" lon="1.55211">
        <ele>105</ele>
        <time>2017-08-17T08:45:57Z</time>
      </trkpt>
      <trkpt lat="44.83087" lon="1.55211">
        <ele>105</ele>
        <time>2017-08-17T08:45:58Z</time>
      </trkpt>
      <trkpt lat="44.83091" lon="1.55208">
        <ele>105</ele>
        <time>2017-08-17T08:46:11Z</time>
      </trkpt>
      <trkpt lat="44.83096" lon="1.55203">
        <ele>105</ele>
        <time>2017-08-17T08:46:15Z</time>
      </trkpt>
      <trkpt lat="44.831" lon="1.55199">
        <ele>105</ele>
        <time>2017-08-17T08:46:23Z</time>
      </trkpt>
      <trkpt lat="44.83104" lon="1.55194">
        <ele>105</ele>
        <time>2017-08-17T08:46:27Z</time>
      </trkpt>
      <trkpt lat="44.83109" lon="1.55189">
        <ele>104</ele>
        <time>2017-08-17T08:46:34Z</time>
      </trkpt>
      <trkpt lat="44.83113" lon="1.55186">
        <ele>105</ele>
        <time>2017-08-17T08:46:37Z</time>
      </trkpt>
      <trkpt lat="44.83116" lon="1.5518">
        <ele>105</ele>
        <time>2017-08-17T08:46:41Z</time>
      </trkpt>
      <trkpt lat="44.83119" lon="1.55175">
        <ele>105</ele>
        <time>2017-08-17T08:46:45Z</time>
      </trkpt>
      <trkpt lat="44.83123" lon="1.55174">
        <ele>106</ele>
        <time>2017-08-17T08:46:49Z</time>
      </trkpt>
      <trkpt lat="44.83127" lon="1.5517">
        <ele>107</ele>
        <time>2017-08-17T08:46:55Z</time>
      </trkpt>
      <trkpt lat="44.83129" lon="1.55162">
        <ele>108</ele>
        <time>2017-08-17T08:47:00Z</time>
      </trkpt>
      <trkpt lat="44.83131" lon="1.55156">
        <ele>109</ele>
        <time>2017-08-17T08:47:04Z</time>
      </trkpt>
      <trkpt lat="44.83133" lon="1.5515">
        <ele>110</ele>
        <time>2017-08-17T08:47:08Z</time>
      </trkpt>
      <trkpt lat="44.83137" lon="1.55144">
        <ele>111</ele>
        <time>2017-08-17T08:47:13Z</time>
      </trkpt>
      <trkpt lat="44.8314" lon="1.55139">
        <ele>112</ele>
        <time>2017-08-17T08:47:16Z</time>
      </trkpt>
      <trkpt lat="44.83144" lon="1.55136">
        <ele>113</ele>
        <time>2017-08-17T08:47:19Z</time>
      </trkpt>
      <trkpt lat="44.83148" lon="1.55132">
        <ele>114</ele>
        <time>2017-08-17T08:47:24Z</time>
      </trkpt>
      <trkpt lat="44.83152" lon="1.55129">
        <ele>114</ele>
        <time>2017-08-17T08:47:42Z</time>
      </trkpt>
      <trkpt lat="44.83152" lon="1.55129">
        <ele>114</ele>
        <time>2017-08-17T08:47:43Z</time>
      </trkpt>
      <trkpt lat="44.83152" lon="1.55128">
        <ele>114</ele>
        <time>2017-08-17T08:48:12Z</time>
      </trkpt>
      <trkpt lat="44.83152" lon="1.55128">
        <ele>113</ele>
        <time>2017-08-17T08:48:13Z</time>
      </trkpt>
      <trkpt lat="44.83156" lon="1.55125">
        <ele>112</ele>
        <time>2017-08-17T08:48:20Z</time>
      </trkpt>
      <trkpt lat="44.8316" lon="1.55121">
        <ele>111</ele>
        <time>2017-08-17T08:48:25Z</time>
      </trkpt>
      <trkpt lat="44.83165" lon="1.55119">
        <ele>110</ele>
        <time>2017-08-17T08:48:35Z</time>
      </trkpt>
      <trkpt lat="44.83168" lon="1.55115">
        <ele>110</ele>
        <time>2017-08-17T08:48:39Z</time>
      </trkpt>
      <trkpt lat="44.83173" lon="1.55112">
        <ele>109</ele>
        <time>2017-08-17T08:48:43Z</time>
      </trkpt>
      <trkpt lat="44.83177" lon="1.55108">
        <ele>109</ele>
        <time>2017-08-17T08:48:51Z</time>
      </trkpt>
      <trkpt lat="44.83182" lon="1.55104">
        <ele>109</ele>
        <time>2017-08-17T08:48:56Z</time>
      </trkpt>
      <trkpt lat="44.83187" lon="1.55104">
        <ele>108</ele>
        <time>2017-08-17T08:49:00Z</time>
      </trkpt>
      <trkpt lat="44.83191" lon="1.55097">
        <ele>108</ele>
        <time>2017-08-17T08:49:04Z</time>
      </trkpt>
      <trkpt lat="44.83194" lon="1.55092">
        <ele>108</ele>
        <time>2017-08-17T08:49:07Z</time>
      </trkpt>
      <trkpt lat="44.83198" lon="1.55089">
        <ele>108</ele>
        <time>2017-08-17T08:49:15Z</time>
      </trkpt>
      <trkpt lat="44.83202" lon="1.55084">
        <ele>108</ele>
        <time>2017-08-17T08:49:19Z</time>
      </trkpt>
      <trkpt lat="44.83206" lon="1.5508">
        <ele>108</ele>
        <time>2017-08-17T08:49:23Z</time>
      </trkpt>
      <trkpt lat="44.83209" lon="1.55075">
        <ele>109</ele>
        <time>2017-08-17T08:49:26Z</time>
      </trkpt>
      <trkpt lat="44.83213" lon="1.55069">
        <ele>109</ele>
        <time>2017-08-17T08:49:30Z</time>
      </trkpt>
      <trkpt lat="44.83217" lon="1.55064">
        <ele>110</ele>
        <time>2017-08-17T08:49:34Z</time>
      </trkpt>
      <trkpt lat="44.83221" lon="1.5506">
        <ele>110</ele>
        <time>2017-08-17T08:49:38Z</time>
      </trkpt>
      <trkpt lat="44.83223" lon="1.55053">
        <ele>111</ele>
        <time>2017-08-17T08:49:43Z</time>
      </trkpt>
      <trkpt lat="44.83226" lon="1.55049">
        <ele>112</ele>
        <time>2017-08-17T08:49:47Z</time>
      </trkpt>
      <trkpt lat="44.83229" lon="1.55042">
        <ele>112</ele>
        <time>2017-08-17T08:49:53Z</time>
      </trkpt>
      <trkpt lat="44.83233" lon="1.55037">
        <ele>113</ele>
        <time>2017-08-17T08:49:58Z</time>
      </trkpt>
      <trkpt lat="44.83236" lon="1.55033">
        <ele>113</ele>
        <time>2017-08-17T08:50:05Z</time>
      </trkpt>
      <trkpt lat="44.83239" lon="1.55028">
        <ele>113</ele>
        <time>2017-08-17T08:50:09Z</time>
      </trkpt>
      <trkpt lat="44.83243" lon="1.55023">
        <ele>113</ele>
        <time>2017-08-17T08:50:13Z</time>
      </trkpt>
      <trkpt lat="44.83245" lon="1.55017">
        <ele>113</ele>
        <time>2017-08-17T08:50:16Z</time>
      </trkpt>
      <trkpt lat="44.83247" lon="1.5501">
        <ele>113</ele>
        <time>2017-08-17T08:50:19Z</time>
      </trkpt>
      <trkpt lat="44.83251" lon="1.55006">
        <ele>112</ele>
        <time>2017-08-17T08:50:23Z</time>
      </trkpt>
      <trkpt lat="44.83252" lon="1.54999">
        <ele>112</ele>
        <time>2017-08-17T08:50:27Z</time>
      </trkpt>
      <trkpt lat="44.83254" lon="1.54992">
        <ele>111</ele>
        <time>2017-08-17T08:50:31Z</time>
      </trkpt>
      <trkpt lat="44.83256" lon="1.54986">
        <ele>111</ele>
        <time>2017-08-17T08:50:35Z</time>
      </trkpt>
      <trkpt lat="44.83259" lon="1.54981">
        <ele>110</ele>
        <time>2017-08-17T08:50:39Z</time>
      </trkpt>
      <trkpt lat="44.83262" lon="1.54975">
        <ele>110</ele>
        <time>2017-08-17T08:50:43Z</time>
      </trkpt>
      <trkpt lat="44.83263" lon="1.54967">
        <ele>109</ele>
        <time>2017-08-17T08:50:47Z</time>
      </trkpt>
      <trkpt lat="44.83266" lon="1.54962">
        <ele>109</ele>
        <time>2017-08-17T08:50:51Z</time>
      </trkpt>
      <trkpt lat="44.83269" lon="1.54957">
        <ele>108</ele>
        <time>2017-08-17T08:50:55Z</time>
      </trkpt>
      <trkpt lat="44.83272" lon="1.54951">
        <ele>108</ele>
        <time>2017-08-17T08:51:00Z</time>
      </trkpt>
      <trkpt lat="44.83276" lon="1.54945">
        <ele>107</ele>
        <time>2017-08-17T08:51:05Z</time>
      </trkpt>
      <trkpt lat="44.83279" lon="1.54941">
        <ele>106</ele>
        <time>2017-08-17T08:51:09Z</time>
      </trkpt>
      <trkpt lat="44.83281" lon="1.54934">
        <ele>106</ele>
        <time>2017-08-17T08:51:13Z</time>
      </trkpt>
      <trkpt lat="44.83284" lon="1.54928">
        <ele>106</ele>
        <time>2017-08-17T08:51:17Z</time>
      </trkpt>
      <trkpt lat="44.83286" lon="1.54922">
        <ele>105</ele>
        <time>2017-08-17T08:51:21Z</time>
      </trkpt>
      <trkpt lat="44.83289" lon="1.54916">
        <ele>105</ele>
        <time>2017-08-17T08:51:25Z</time>
      </trkpt>
      <trkpt lat="44.83293" lon="1.5491">
        <ele>104</ele>
        <time>2017-08-17T08:51:30Z</time>
      </trkpt>
      <trkpt lat="44.83296" lon="1.54905">
        <ele>104</ele>
        <time>2017-08-17T08:51:34Z</time>
      </trkpt>
      <trkpt lat="44.833" lon="1.54899">
        <ele>104</ele>
        <time>2017-08-17T08:51:38Z</time>
      </trkpt>
      <trkpt lat="44.83304" lon="1.54895">
        <ele>103</ele>
        <time>2017-08-17T08:51:41Z</time>
      </trkpt>
      <trkpt lat="44.83308" lon="1.5489">
        <ele>103</ele>
        <time>2017-08-17T08:51:46Z</time>
      </trkpt>
      <trkpt lat="44.83312" lon="1.54886">
        <ele>103</ele>
        <time>2017-08-17T08:51:50Z</time>
      </trkpt>
      <trkpt lat="44.83317" lon="1.54883">
        <ele>103</ele>
        <time>2017-08-17T08:51:55Z</time>
      </trkpt>
      <trkpt lat="44.83321" lon="1.54878">
        <ele>104</ele>
        <time>2017-08-17T08:51:59Z</time>
      </trkpt>
      <trkpt lat="44.83325" lon="1.54874">
        <ele>104</ele>
        <time>2017-08-17T08:52:03Z</time>
      </trkpt>
      <trkpt lat="44.83329" lon="1.5487">
        <ele>104</ele>
        <time>2017-08-17T08:52:06Z</time>
      </trkpt>
      <trkpt lat="44.83333" lon="1.54867">
        <ele>104</ele>
        <time>2017-08-17T08:52:11Z</time>
      </trkpt>
      <trkpt lat="44.83337" lon="1.54863">
        <ele>104</ele>
        <time>2017-08-17T08:52:16Z</time>
      </trkpt>
      <trkpt lat="44.83341" lon="1.54859">
        <ele>104</ele>
        <time>2017-08-17T08:52:20Z</time>
      </trkpt>
      <trkpt lat="44.83346" lon="1.54855">
        <ele>104</ele>
        <time>2017-08-17T08:52:24Z</time>
      </trkpt>
      <trkpt lat="44.83351" lon="1.54853">
        <ele>104</ele>
        <time>2017-08-17T08:52:27Z</time>
      </trkpt>
      <trkpt lat="44.83355" lon="1.5485">
        <ele>105</ele>
        <time>2017-08-17T08:52:31Z</time>
      </trkpt>
      <trkpt lat="44.8336" lon="1.54849">
        <ele>105</ele>
        <time>2017-08-17T08:52:35Z</time>
      </trkpt>
      <trkpt lat="44.83365" lon="1.54849">
        <ele>106</ele>
        <time>2017-08-17T08:52:39Z</time>
      </trkpt>
      <trkpt lat="44.8337" lon="1.54849">
        <ele>106</ele>
        <time>2017-08-17T08:52:42Z</time>
      </trkpt>
      <trkpt lat="44.83375" lon="1.54849">
        <ele>106</ele>
        <time>2017-08-17T08:52:46Z</time>
      </trkpt>
      <trkpt lat="44.8338" lon="1.5485">
        <ele>106</ele>
        <time>2017-08-17T08:52:50Z</time>
      </trkpt>
      <trkpt lat="44.83384" lon="1.5485">
        <ele>106</ele>
        <time>2017-08-17T08:52:57Z</time>
      </trkpt>
      <trkpt lat="44.83383" lon="1.54849">
        <ele>107</ele>
        <time>2017-08-17T08:53:12Z</time>
      </trkpt>
      <trkpt lat="44.83383" lon="1.54849">
        <ele>107</ele>
        <time>2017-08-17T08:53:13Z</time>
      </trkpt>
      <trkpt lat="44.83384" lon="1.54851">
        <ele>108</ele>
        <time>2017-08-17T08:53:42Z</time>
      </trkpt>
      <trkpt lat="44.83384" lon="1.54851">
        <ele>108</ele>
        <time>2017-08-17T08:53:43Z</time>
      </trkpt>
      <trkpt lat="44.83389" lon="1.54854">
        <ele>109</ele>
        <time>2017-08-17T08:54:01Z</time>
      </trkpt>
      <trkpt lat="44.83394" lon="1.54858">
        <ele>109</ele>
        <time>2017-08-17T08:54:04Z</time>
      </trkpt>
      <trkpt lat="44.83398" lon="1.54862">
        <ele>108</ele>
        <time>2017-08-17T08:54:07Z</time>
      </trkpt>
      <trkpt lat="44.83403" lon="1.54863">
        <ele>108</ele>
        <time>2017-08-17T08:54:11Z</time>
      </trkpt>
      <trkpt lat="44.83408" lon="1.54863">
        <ele>108</ele>
        <time>2017-08-17T08:54:15Z</time>
      </trkpt>
      <trkpt lat="44.83413" lon="1.5486">
        <ele>108</ele>
        <time>2017-08-17T08:54:20Z</time>
      </trkpt>
      <trkpt lat="44.83418" lon="1.54861">
        <ele>108</ele>
        <time>2017-08-17T08:54:26Z</time>
      </trkpt>
      <trkpt lat="44.83423" lon="1.54859">
        <ele>108</ele>
        <time>2017-08-17T08:54:30Z</time>
      </trkpt>
      <trkpt lat="44.83426" lon="1.54854">
        <ele>108</ele>
        <time>2017-08-17T08:54:37Z</time>
      </trkpt>
      <trkpt lat="44.83427" lon="1.54847">
        <ele>108</ele>
        <time>2017-08-17T08:54:44Z</time>
      </trkpt>
      <trkpt lat="44.83428" lon="1.5484">
        <ele>108</ele>
        <time>2017-08-17T08:54:51Z</time>
      </trkpt>
      <trkpt lat="44.83429" lon="1.54833">
        <ele>108</ele>
        <time>2017-08-17T08:54:56Z</time>
      </trkpt>
      <trkpt lat="44.8343" lon="1.54826">
        <ele>108</ele>
        <time>2017-08-17T08:55:00Z</time>
      </trkpt>
      <trkpt lat="44.83431" lon="1.54818">
        <ele>108</ele>
        <time>2017-08-17T08:55:04Z</time>
      </trkpt>
      <trkpt lat="44.83432" lon="1.54811">
        <ele>108</ele>
        <time>2017-08-17T08:55:07Z</time>
      </trkpt>
      <trkpt lat="44.83435" lon="1.54805">
        <ele>108</ele>
        <time>2017-08-17T08:55:10Z</time>
      </trkpt>
      <trkpt lat="44.83435" lon="1.54799">
        <ele>107</ele>
        <time>2017-08-17T08:55:24Z</time>
      </trkpt>
      <trkpt lat="44.83437" lon="1.54792">
        <ele>107</ele>
        <time>2017-08-17T08:55:28Z</time>
      </trkpt>
      <trkpt lat="44.8344" lon="1.54786">
        <ele>106</ele>
        <time>2017-08-17T08:55:33Z</time>
      </trkpt>
      <trkpt lat="44.83442" lon="1.54779">
        <ele>105</ele>
        <time>2017-08-17T08:55:44Z</time>
      </trkpt>
      <trkpt lat="44.83441" lon="1.54778">
        <ele>105</ele>
        <time>2017-08-17T08:56:12Z</time>
      </trkpt>
      <trkpt lat="44.83441" lon="1.54778">
        <ele>104</ele>
        <time>2017-08-17T08:56:13Z</time>
      </trkpt>
      <trkpt lat="44.83445" lon="1.54777">
        <ele>104</ele>
        <time>2017-08-17T08:56:42Z</time>
      </trkpt>
      <trkpt lat="44.83445" lon="1.54777">
        <ele>103</ele>
        <time>2017-08-17T08:56:43Z</time>
      </trkpt>
      <trkpt lat="44.83446" lon="1.54784">
        <ele>104</ele>
        <time>2017-08-17T08:56:59Z</time>
      </trkpt>
      <trkpt lat="44.83449" lon="1.54789">
        <ele>105</ele>
        <time>2017-08-17T08:57:02Z</time>
      </trkpt>
      <trkpt lat="44.83449" lon="1.5479">
        <ele>105</ele>
        <time>2017-08-17T08:57:27Z</time>
      </trkpt>
      <trkpt lat="44.83449" lon="1.5479">
        <ele>105</ele>
        <time>2017-08-17T08:57:28Z</time>
      </trkpt>
      <trkpt lat="44.83448" lon="1.54789">
        <ele>106</ele>
        <time>2017-08-17T08:57:57Z</time>
      </trkpt>
      <trkpt lat="44.83448" lon="1.54789">
        <ele>105</ele>
        <time>2017-08-17T08:57:58Z</time>
      </trkpt>
      <trkpt lat="44.8345" lon="1.54791">
        <ele>105</ele>
        <time>2017-08-17T08:58:27Z</time>
      </trkpt>
      <trkpt lat="44.8345" lon="1.54791">
        <ele>105</ele>
        <time>2017-08-17T08:58:28Z</time>
      </trkpt>
      <trkpt lat="44.83451" lon="1.54784">
        <ele>105</ele>
        <time>2017-08-17T08:58:53Z</time>
      </trkpt>
      <trkpt lat="44.83452" lon="1.54783">
        <ele>104</ele>
        <time>2017-08-17T08:59:12Z</time>
      </trkpt>
      <trkpt lat="44.83452" lon="1.54783">
        <ele>104</ele>
        <time>2017-08-17T08:59:14Z</time>
      </trkpt>
      <trkpt lat="44.83452" lon="1.54783">
        <ele>103</ele>
        <time>2017-08-17T08:59:42Z</time>
      </trkpt>
      <trkpt lat="44.83452" lon="1.54784">
        <ele>102</ele>
        <time>2017-08-17T08:59:44Z</time>
      </trkpt>
      <trkpt lat="44.83447" lon="1.5479">
        <ele>101</ele>
        <time>2017-08-17T09:00:10Z</time>
      </trkpt>
      <trkpt lat="44.83447" lon="1.5479">
        <ele>101</ele>
        <time>2017-08-17T09:00:27Z</time>
      </trkpt>
      <trkpt lat="44.83447" lon="1.5479">
        <ele>100</ele>
        <time>2017-08-17T09:00:29Z</time>
      </trkpt>
      <trkpt lat="44.83448" lon="1.54789">
        <ele>100</ele>
        <time>2017-08-17T09:00:57Z</time>
      </trkpt>
      <trkpt lat="44.83448" lon="1.54789">
        <ele>99</ele>
        <time>2017-08-17T09:00:59Z</time>
      </trkpt>
      <trkpt lat="44.83449" lon="1.54791">
        <ele>99</ele>
        <time>2017-08-17T09:01:27Z</time>
      </trkpt>
      <trkpt lat="44.83449" lon="1.54791">
        <ele>99</ele>
        <time>2017-08-17T09:01:29Z</time>
      </trkpt>
      <trkpt lat="44.83449" lon="1.54791">
        <ele>99</ele>
        <time>2017-08-17T09:01:57Z</time>
      </trkpt>
      <trkpt lat="44.83449" lon="1.54791">
        <ele>99</ele>
        <time>2017-08-17T09:01:59Z</time>
      </trkpt>
      <trkpt lat="44.83449" lon="1.54794">
        <ele>98</ele>
        <time>2017-08-17T09:02:27Z</time>
      </trkpt>
      <trkpt lat="44.83449" lon="1.54794">
        <ele>98</ele>
        <time>2017-08-17T09:02:29Z</time>
      </trkpt>
      <trkpt lat="44.83449" lon="1.54793">
        <ele>97</ele>
        <time>2017-08-17T09:02:57Z</time>
      </trkpt>
      <trkpt lat="44.83449" lon="1.54793">
        <ele>96</ele>
        <time>2017-08-17T09:02:59Z</time>
      </trkpt>
      <trkpt lat="44.83449" lon="1.54793">
        <ele>96</ele>
        <time>2017-08-17T09:03:27Z</time>
      </trkpt>
      <trkpt lat="44.83449" lon="1.54793">
        <ele>96</ele>
        <time>2017-08-17T09:03:29Z</time>
      </trkpt>
      <trkpt lat="44.83449" lon="1.54793">
        <ele>96</ele>
        <time>2017-08-17T09:03:57Z</time>
      </trkpt>
      <trkpt lat="44.83449" lon="1.54792">
        <ele>96</ele>
        <time>2017-08-17T09:03:59Z</time>
      </trkpt>
      <trkpt lat="44.83449" lon="1.54792">
        <ele>97</ele>
        <time>2017-08-17T09:04:27Z</time>
      </trkpt>
      <trkpt lat="44.83449" lon="1.54792">
        <ele>97</ele>
        <time>2017-08-17T09:04:29Z</time>
      </trkpt>
      <trkpt lat="44.83449" lon="1.54793">
        <ele>98</ele>
        <time>2017-08-17T09:04:57Z</time>
      </trkpt>
      <trkpt lat="44.83449" lon="1.54793">
        <ele>99</ele>
        <time>2017-08-17T09:04:59Z</time>
      </trkpt>
      <trkpt lat="44.83448" lon="1.54793">
        <ele>99</ele>
        <time>2017-08-17T09:05:27Z</time>
      </trkpt>
      <trkpt lat="44.83448" lon="1.54794">
        <ele>100</ele>
        <time>2017-08-17T09:05:29Z</time>
      </trkpt>
      <trkpt lat="44.83448" lon="1.54801">
        <ele>101</ele>
        <time>2017-08-17T09:05:47Z</time>
      </trkpt>
      <trkpt lat="44.83445" lon="1.54808">
        <ele>101</ele>
        <time>2017-08-17T09:05:51Z</time>
      </trkpt>
      <trkpt lat="44.83444" lon="1.54814">
        <ele>102</ele>
        <time>2017-08-17T09:05:55Z</time>
      </trkpt>
      <trkpt lat="44.83442" lon="1.54821">
        <ele>102</ele>
        <time>2017-08-17T09:06:02Z</time>
      </trkpt>
      <trkpt lat="44.83441" lon="1.54827">
        <ele>102</ele>
        <time>2017-08-17T09:06:07Z</time>
      </trkpt>
      <trkpt lat="44.83441" lon="1.54834">
        <ele>102</ele>
        <time>2017-08-17T09:06:12Z</time>
      </trkpt>
      <trkpt lat="44.8344" lon="1.5484">
        <ele>102</ele>
        <time>2017-08-17T09:06:17Z</time>
      </trkpt>
      <trkpt lat="44.83439" lon="1.54847">
        <ele>102</ele>
        <time>2017-08-17T09:06:22Z</time>
      </trkpt>
      <trkpt lat="44.83439" lon="1.54853">
        <ele>102</ele>
        <time>2017-08-17T09:06:27Z</time>
      </trkpt>
      <trkpt lat="44.83437" lon="1.5486">
        <ele>103</ele>
        <time>2017-08-17T09:06:34Z</time>
      </trkpt>
      <trkpt lat="44.83434" lon="1.54867">
        <ele>103</ele>
        <time>2017-08-17T09:06:38Z</time>
      </trkpt>
      <trkpt lat="44.83431" lon="1.54872">
        <ele>104</ele>
        <time>2017-08-17T09:06:42Z</time>
      </trkpt>
      <trkpt lat="44.83426" lon="1.54875">
        <ele>104</ele>
        <time>2017-08-17T09:06:45Z</time>
      </trkpt>
      <trkpt lat="44.83421" lon="1.54878">
        <ele>104</ele>
        <time>2017-08-17T09:06:49Z</time>
      </trkpt>
      <trkpt lat="44.83416" lon="1.54879">
        <ele>104</ele>
        <time>2017-08-17T09:06:54Z</time>
      </trkpt>
      <trkpt lat="44.8341" lon="1.54879">
        <ele>104</ele>
        <time>2017-08-17T09:06:59Z</time>
      </trkpt>
      <trkpt lat="44.83405" lon="1.54877">
        <ele>104</ele>
        <time>2017-08-17T09:07:03Z</time>
      </trkpt>
      <trkpt lat="44.834" lon="1.54875">
        <ele>104</ele>
        <time>2017-08-17T09:07:08Z</time>
      </trkpt>
      <trkpt lat="44.83395" lon="1.54872">
        <ele>104</ele>
        <time>2017-08-17T09:07:14Z</time>
      </trkpt>
      <trkpt lat="44.83391" lon="1.54869">
        <ele>104</ele>
        <time>2017-08-17T09:07:20Z</time>
      </trkpt>
      <trkpt lat="44.83386" lon="1.54867">
        <ele>105</ele>
        <time>2017-08-17T09:07:24Z</time>
      </trkpt>
      <trkpt lat="44.83381" lon="1.54867">
        <ele>105</ele>
        <time>2017-08-17T09:07:28Z</time>
      </trkpt>
      <trkpt lat="44.83376" lon="1.54864">
        <ele>105</ele>
        <time>2017-08-17T09:07:34Z</time>
      </trkpt>
      <trkpt lat="44.83371" lon="1.54865">
        <ele>105</ele>
        <time>2017-08-17T09:07:40Z</time>
      </trkpt>
      <trkpt lat="44.83366" lon="1.54868">
        <ele>106</ele>
        <time>2017-08-17T09:07:47Z</time>
      </trkpt>
      <trkpt lat="44.83361" lon="1.54869">
        <ele>106</ele>
        <time>2017-08-17T09:07:54Z</time>
      </trkpt>
      <trkpt lat="44.83355" lon="1.54872">
        <ele>106</ele>
        <time>2017-08-17T09:07:57Z</time>
      </trkpt>
      <trkpt lat="44.8335" lon="1.5487">
        <ele>106</ele>
        <time>2017-08-17T09:08:00Z</time>
      </trkpt>
      <trkpt lat="44.83345" lon="1.54872">
        <ele>107</ele>
        <time>2017-08-17T09:08:04Z</time>
      </trkpt>
      <trkpt lat="44.83341" lon="1.54873">
        <ele>107</ele>
        <time>2017-08-17T09:08:08Z</time>
      </trkpt>
      <trkpt lat="44.83336" lon="1.54875">
        <ele>107</ele>
        <time>2017-08-17T09:08:15Z</time>
      </trkpt>
      <trkpt lat="44.83331" lon="1.54877">
        <ele>106</ele>
        <time>2017-08-17T09:08:20Z</time>
      </trkpt>
      <trkpt lat="44.83327" lon="1.54882">
        <ele>106</ele>
        <time>2017-08-17T09:08:24Z</time>
      </trkpt>
      <trkpt lat="44.83323" lon="1.54886">
        <ele>106</ele>
        <time>2017-08-17T09:08:30Z</time>
      </trkpt>
      <trkpt lat="44.83318" lon="1.54891">
        <ele>106</ele>
        <time>2017-08-17T09:08:34Z</time>
      </trkpt>
      <trkpt lat="44.83313" lon="1.54894">
        <ele>106</ele>
        <time>2017-08-17T09:08:39Z</time>
      </trkpt>
      <trkpt lat="44.83309" lon="1.54901">
        <ele>106</ele>
        <time>2017-08-17T09:08:45Z</time>
      </trkpt>
      <trkpt lat="44.83306" lon="1.54906">
        <ele>106</ele>
        <time>2017-08-17T09:08:50Z</time>
      </trkpt>
      <trkpt lat="44.83302" lon="1.5491">
        <ele>106</ele>
        <time>2017-08-17T09:08:55Z</time>
      </trkpt>
      <trkpt lat="44.83299" lon="1.54915">
        <ele>106</ele>
        <time>2017-08-17T09:08:59Z</time>
      </trkpt>
      <trkpt lat="44.83295" lon="1.54921">
        <ele>106</ele>
        <time>2017-08-17T09:09:03Z</time>
      </trkpt>
      <trkpt lat="44.83291" lon="1.54926">
        <ele>106</ele>
        <time>2017-08-17T09:09:08Z</time>
      </trkpt>
      <trkpt lat="44.83287" lon="1.54931">
        <ele>106</ele>
        <time>2017-08-17T09:09:13Z</time>
      </trkpt>
      <trkpt lat="44.83285" lon="1.54937">
        <ele>106</ele>
        <time>2017-08-17T09:09:17Z</time>
      </trkpt>
      <trkpt lat="44.83282" lon="1.54943">
        <ele>105</ele>
        <time>2017-08-17T09:09:22Z</time>
      </trkpt>
      <trkpt lat="44.83281" lon="1.54951">
        <ele>105</ele>
        <time>2017-08-17T09:09:27Z</time>
      </trkpt>
      <trkpt lat="44.83278" lon="1.54958">
        <ele>104</ele>
        <time>2017-08-17T09:09:32Z</time>
      </trkpt>
      <trkpt lat="44.83276" lon="1.54964">
        <ele>104</ele>
        <time>2017-08-17T09:09:36Z</time>
      </trkpt>
      <trkpt lat="44.83272" lon="1.54969">
        <ele>104</ele>
        <time>2017-08-17T09:09:41Z</time>
      </trkpt>
      <trkpt lat="44.83269" lon="1.54974">
        <ele>104</ele>
        <time>2017-08-17T09:09:46Z</time>
      </trkpt>
      <trkpt lat="44.83267" lon="1.54982">
        <ele>104</ele>
        <time>2017-08-17T09:09:51Z</time>
      </trkpt>
      <trkpt lat="44.83263" lon="1.54988">
        <ele>105</ele>
        <time>2017-08-17T09:09:56Z</time>
      </trkpt>
      <trkpt lat="44.83261" lon="1.54996">
        <ele>105</ele>
        <time>2017-08-17T09:10:02Z</time>
      </trkpt>
      <trkpt lat="44.83258" lon="1.55">
        <ele>105</ele>
        <time>2017-08-17T09:10:06Z</time>
      </trkpt>
      <trkpt lat="44.83255" lon="1.55005">
        <ele>105</ele>
        <time>2017-08-17T09:10:11Z</time>
      </trkpt>
      <trkpt lat="44.83251" lon="1.5501">
        <ele>105</ele>
        <time>2017-08-17T09:10:16Z</time>
      </trkpt>
      <trkpt lat="44.83247" lon="1.55015">
        <ele>106</ele>
        <time>2017-08-17T09:10:21Z</time>
      </trkpt>
      <trkpt lat="44.83246" lon="1.55021">
        <ele>106</ele>
        <time>2017-08-17T09:10:26Z</time>
      </trkpt>
      <trkpt lat="44.83243" lon="1.55027">
        <ele>106</ele>
        <time>2017-08-17T09:10:30Z</time>
      </trkpt>
      <trkpt lat="44.8324" lon="1.55031">
        <ele>106</ele>
        <time>2017-08-17T09:10:34Z</time>
      </trkpt>
      <trkpt lat="44.83236" lon="1.55036">
        <ele>105</ele>
        <time>2017-08-17T09:10:39Z</time>
      </trkpt>
      <trkpt lat="44.83235" lon="1.55042">
        <ele>105</ele>
        <time>2017-08-17T09:10:43Z</time>
      </trkpt>
      <trkpt lat="44.83232" lon="1.55049">
        <ele>105</ele>
        <time>2017-08-17T09:10:50Z</time>
      </trkpt>
      <trkpt lat="44.83229" lon="1.55056">
        <ele>106</ele>
        <time>2017-08-17T09:10:55Z</time>
      </trkpt>
      <trkpt lat="44.83227" lon="1.55062">
        <ele>106</ele>
        <time>2017-08-17T09:10:59Z</time>
      </trkpt>
      <trkpt lat="44.83223" lon="1.55067">
        <ele>106</ele>
        <time>2017-08-17T09:11:02Z</time>
      </trkpt>
      <trkpt lat="44.8322" lon="1.55073">
        <ele>107</ele>
        <time>2017-08-17T09:11:07Z</time>
      </trkpt>
      <trkpt lat="44.83217" lon="1.55077">
        <ele>107</ele>
        <time>2017-08-17T09:11:10Z</time>
      </trkpt>
      <trkpt lat="44.83212" lon="1.55082">
        <ele>107</ele>
        <time>2017-08-17T09:11:14Z</time>
      </trkpt>
      <trkpt lat="44.83207" lon="1.55085">
        <ele>107</ele>
        <time>2017-08-17T09:11:19Z</time>
      </trkpt>
      <trkpt lat="44.83204" lon="1.55091">
        <ele>107</ele>
        <time>2017-08-17T09:11:24Z</time>
      </trkpt>
      <trkpt lat="44.83201" lon="1.55096">
        <ele>107</ele>
        <time>2017-08-17T09:11:28Z</time>
      </trkpt>
      <trkpt lat="44.83197" lon="1.55101">
        <ele>107</ele>
        <time>2017-08-17T09:11:34Z</time>
      </trkpt>
      <trkpt lat="44.83193" lon="1.55104">
        <ele>107</ele>
        <time>2017-08-17T09:11:38Z</time>
      </trkpt>
      <trkpt lat="44.8319" lon="1.55109">
        <ele>106</ele>
        <time>2017-08-17T09:11:42Z</time>
      </trkpt>
      <trkpt lat="44.83184" lon="1.55112">
        <ele>106</ele>
        <time>2017-08-17T09:11:46Z</time>
      </trkpt>
      <trkpt lat="44.83183" lon="1.55118">
        <ele>106</ele>
        <time>2017-08-17T09:11:51Z</time>
      </trkpt>
      <trkpt lat="44.83178" lon="1.55122">
        <ele>106</ele>
        <time>2017-08-17T09:11:56Z</time>
      </trkpt>
      <trkpt lat="44.83173" lon="1.55125">
        <ele>106</ele>
        <time>2017-08-17T09:12:03Z</time>
      </trkpt>
      <trkpt lat="44.8317" lon="1.55129">
        <ele>106</ele>
        <time>2017-08-17T09:12:10Z</time>
      </trkpt>
      <trkpt lat="44.83165" lon="1.5513">
        <ele>105</ele>
        <time>2017-08-17T09:12:13Z</time>
      </trkpt>
      <trkpt lat="44.83161" lon="1.55134">
        <ele>105</ele>
        <time>2017-08-17T09:12:18Z</time>
      </trkpt>
      <trkpt lat="44.83157" lon="1.55138">
        <ele>105</ele>
        <time>2017-08-17T09:12:22Z</time>
      </trkpt>
      <trkpt lat="44.83153" lon="1.55142">
        <ele>105</ele>
        <time>2017-08-17T09:12:26Z</time>
      </trkpt>
      <trkpt lat="44.83149" lon="1.55147">
        <ele>105</ele>
        <time>2017-08-17T09:12:30Z</time>
      </trkpt>
      <trkpt lat="44.83147" lon="1.55153">
        <ele>105</ele>
        <time>2017-08-17T09:12:34Z</time>
      </trkpt>
      <trkpt lat="44.83144" lon="1.55158">
        <ele>105</ele>
        <time>2017-08-17T09:12:40Z</time>
      </trkpt>
      <trkpt lat="44.83139" lon="1.55162">
        <ele>106</ele>
        <time>2017-08-17T09:12:48Z</time>
      </trkpt>
      <trkpt lat="44.83135" lon="1.55165">
        <ele>106</ele>
        <time>2017-08-17T09:12:53Z</time>
      </trkpt>
      <trkpt lat="44.8313" lon="1.55169">
        <ele>106</ele>
        <time>2017-08-17T09:12:58Z</time>
      </trkpt>
      <trkpt lat="44.83126" lon="1.55172">
        <ele>106</ele>
        <time>2017-08-17T09:13:02Z</time>
      </trkpt>
      <trkpt lat="44.83121" lon="1.55176">
        <ele>107</ele>
        <time>2017-08-17T09:13:07Z</time>
      </trkpt>
      <trkpt lat="44.83116" lon="1.55179">
        <ele>107</ele>
        <time>2017-08-17T09:13:12Z</time>
      </trkpt>
      <trkpt lat="44.83112" lon="1.55181">
        <ele>107</ele>
        <time>2017-08-17T09:13:17Z</time>
      </trkpt>
      <trkpt lat="44.83108" lon="1.55186">
        <ele>107</ele>
        <time>2017-08-17T09:13:22Z</time>
      </trkpt>
      <trkpt lat="44.83106" lon="1.55192">
        <ele>108</ele>
        <time>2017-08-17T09:13:26Z</time>
      </trkpt>
      <trkpt lat="44.83101" lon="1.55196">
        <ele>109</ele>
        <time>2017-08-17T09:13:31Z</time>
      </trkpt>
      <trkpt lat="44.83097" lon="1.55199">
        <ele>110</ele>
        <time>2017-08-17T09:13:37Z</time>
      </trkpt>
      <trkpt lat="44.83093" lon="1.55205">
        <ele>111</ele>
        <time>2017-08-17T09:13:42Z</time>
      </trkpt>
      <trkpt lat="44.83089" lon="1.5521">
        <ele>111</ele>
        <time>2017-08-17T09:13:46Z</time>
      </trkpt>
      <trkpt lat="44.83086" lon="1.55214">
        <ele>112</ele>
        <time>2017-08-17T09:13:50Z</time>
      </trkpt>
      <trkpt lat="44.83083" lon="1.55219">
        <ele>112</ele>
        <time>2017-08-17T09:13:55Z</time>
      </trkpt>
      <trkpt lat="44.8308" lon="1.55225">
        <ele>112</ele>
        <time>2017-08-17T09:13:58Z</time>
      </trkpt>
      <trkpt lat="44.83076" lon="1.55231">
        <ele>113</ele>
        <time>2017-08-17T09:14:02Z</time>
      </trkpt>
      <trkpt lat="44.83073" lon="1.55236">
        <ele>113</ele>
        <time>2017-08-17T09:14:06Z</time>
      </trkpt>
      <trkpt lat="44.8307" lon="1.55242">
        <ele>114</ele>
        <time>2017-08-17T09:14:12Z</time>
      </trkpt>
      <trkpt lat="44.83066" lon="1.55248">
        <ele>114</ele>
        <time>2017-08-17T09:14:16Z</time>
      </trkpt>
      <trkpt lat="44.83062" lon="1.55253">
        <ele>115</ele>
        <time>2017-08-17T09:14:21Z</time>
      </trkpt>
      <trkpt lat="44.83058" lon="1.55257">
        <ele>115</ele>
        <time>2017-08-17T09:14:24Z</time>
      </trkpt>
      <trkpt lat="44.83054" lon="1.55261">
        <ele>115</ele>
        <time>2017-08-17T09:14:29Z</time>
      </trkpt>
      <trkpt lat="44.83049" lon="1.55265">
        <ele>115</ele>
        <time>2017-08-17T09:14:33Z</time>
      </trkpt>
      <trkpt lat="44.83044" lon="1.55267">
        <ele>115</ele>
        <time>2017-08-17T09:14:38Z</time>
      </trkpt>
      <trkpt lat="44.8304" lon="1.55271">
        <ele>115</ele>
        <time>2017-08-17T09:14:43Z</time>
      </trkpt>
      <trkpt lat="44.83033" lon="1.55272">
        <ele>114</ele>
        <time>2017-08-17T09:14:48Z</time>
      </trkpt>
      <trkpt lat="44.83028" lon="1.55273">
        <ele>114</ele>
        <time>2017-08-17T09:14:54Z</time>
      </trkpt>
      <trkpt lat="44.83022" lon="1.55273">
        <ele>114</ele>
        <time>2017-08-17T09:14:59Z</time>
      </trkpt>
      <trkpt lat="44.83016" lon="1.55273">
        <ele>114</ele>
        <time>2017-08-17T09:15:06Z</time>
      </trkpt>
      <trkpt lat="44.83012" lon="1.55274">
        <ele>114</ele>
        <time>2017-08-17T09:15:14Z</time>
      </trkpt>
      <trkpt lat="44.83006" lon="1.55273">
        <ele>114</ele>
        <time>2017-08-17T09:15:24Z</time>
      </trkpt>
      <trkpt lat="44.83001" lon="1.55272">
        <ele>115</ele>
        <time>2017-08-17T09:15:27Z</time>
      </trkpt>
      <trkpt lat="44.82996" lon="1.55274">
        <ele>116</ele>
        <time>2017-08-17T09:15:33Z</time>
      </trkpt>
      <trkpt lat="44.82992" lon="1.55271">
        <ele>117</ele>
        <time>2017-08-17T09:15:37Z</time>
      </trkpt>
      <trkpt lat="44.82987" lon="1.55271">
        <ele>118</ele>
        <time>2017-08-17T09:15:40Z</time>
      </trkpt>
      <trkpt lat="44.82982" lon="1.55271">
        <ele>118</ele>
        <time>2017-08-17T09:15:43Z</time>
      </trkpt>
      <trkpt lat="44.82977" lon="1.55269">
        <ele>119</ele>
        <time>2017-08-17T09:15:47Z</time>
      </trkpt>
      <trkpt lat="44.82972" lon="1.55269">
        <ele>119</ele>
        <time>2017-08-17T09:15:51Z</time>
      </trkpt>
      <trkpt lat="44.82967" lon="1.55269">
        <ele>119</ele>
        <time>2017-08-17T09:15:54Z</time>
      </trkpt>
      <trkpt lat="44.82962" lon="1.5527">
        <ele>119</ele>
        <time>2017-08-17T09:16:00Z</time>
      </trkpt>
      <trkpt lat="44.82957" lon="1.55268">
        <ele>119</ele>
        <time>2017-08-17T09:16:07Z</time>
      </trkpt>
      <trkpt lat="44.82952" lon="1.55268">
        <ele>120</ele>
        <time>2017-08-17T09:16:15Z</time>
      </trkpt>
      <trkpt lat="44.82946" lon="1.55265">
        <ele>121</ele>
        <time>2017-08-17T09:16:19Z</time>
      </trkpt>
      <trkpt lat="44.82942" lon="1.55264">
        <ele>122</ele>
        <time>2017-08-17T09:16:22Z</time>
      </trkpt>
      <trkpt lat="44.82937" lon="1.55263">
        <ele>122</ele>
        <time>2017-08-17T09:16:25Z</time>
      </trkpt>
      <trkpt lat="44.82931" lon="1.5526">
        <ele>123</ele>
        <time>2017-08-17T09:16:30Z</time>
      </trkpt>
      <trkpt lat="44.82927" lon="1.55258">
        <ele>123</ele>
        <time>2017-08-17T09:16:34Z</time>
      </trkpt>
      <trkpt lat="44.82922" lon="1.55254">
        <ele>123</ele>
        <time>2017-08-17T09:16:38Z</time>
      </trkpt>
      <trkpt lat="44.82919" lon="1.55249">
        <ele>124</ele>
        <time>2017-08-17T09:16:41Z</time>
      </trkpt>
      <trkpt lat="44.82914" lon="1.55245">
        <ele>124</ele>
        <time>2017-08-17T09:16:45Z</time>
      </trkpt>
      <trkpt lat="44.82911" lon="1.55241">
        <ele>125</ele>
        <time>2017-08-17T09:16:49Z</time>
      </trkpt>
      <trkpt lat="44.82908" lon="1.55236">
        <ele>125</ele>
        <time>2017-08-17T09:16:53Z</time>
      </trkpt>
      <trkpt lat="44.82904" lon="1.55231">
        <ele>126</ele>
        <time>2017-08-17T09:16:59Z</time>
      </trkpt>
      <trkpt lat="44.829" lon="1.55227">
        <ele>126</ele>
        <time>2017-08-17T09:17:03Z</time>
      </trkpt>
      <trkpt lat="44.82896" lon="1.5522">
        <ele>126</ele>
        <time>2017-08-17T09:17:08Z</time>
      </trkpt>
      <trkpt lat="44.82893" lon="1.55213">
        <ele>126</ele>
        <time>2017-08-17T09:17:14Z</time>
      </trkpt>
      <trkpt lat="44.8289" lon="1.55206">
        <ele>126</ele>
        <time>2017-08-17T09:17:18Z</time>
      </trkpt>
      <trkpt lat="44.82887" lon="1.55199">
        <ele>125</ele>
        <time>2017-08-17T09:17:23Z</time>
      </trkpt>
      <trkpt lat="44.82885" lon="1.55193">
        <ele>124</ele>
        <time>2017-08-17T09:17:30Z</time>
      </trkpt>
      <trkpt lat="44.82884" lon="1.55185">
        <ele>123</ele>
        <time>2017-08-17T09:17:42Z</time>
      </trkpt>
      <trkpt lat="44.82882" lon="1.5518">
        <ele>122</ele>
        <time>2017-08-17T09:17:46Z</time>
      </trkpt>
      <trkpt lat="44.82879" lon="1.55174">
        <ele>121</ele>
        <time>2017-08-17T09:17:51Z</time>
      </trkpt>
      <trkpt lat="44.82879" lon="1.55168">
        <ele>120</ele>
        <time>2017-08-17T09:17:56Z</time>
      </trkpt>
      <trkpt lat="44.82877" lon="1.5516">
        <ele>119</ele>
        <time>2017-08-17T09:18:03Z</time>
      </trkpt>
      <trkpt lat="44.82874" lon="1.55153">
        <ele>118</ele>
        <time>2017-08-17T09:18:06Z</time>
      </trkpt>
      <trkpt lat="44.82872" lon="1.55147">
        <ele>117</ele>
        <time>2017-08-17T09:18:11Z</time>
      </trkpt>
      <trkpt lat="44.8287" lon="1.5514">
        <ele>117</ele>
        <time>2017-08-17T09:18:17Z</time>
      </trkpt>
      <trkpt lat="44.82867" lon="1.55133">
        <ele>116</ele>
        <time>2017-08-17T09:18:24Z</time>
      </trkpt>
      <trkpt lat="44.82865" lon="1.55128">
        <ele>116</ele>
        <time>2017-08-17T09:18:29Z</time>
      </trkpt>
      <trkpt lat="44.82864" lon="1.55121">
        <ele>117</ele>
        <time>2017-08-17T09:18:32Z</time>
      </trkpt>
      <trkpt lat="44.82864" lon="1.55114">
        <ele>117</ele>
        <time>2017-08-17T09:18:35Z</time>
      </trkpt>
      <trkpt lat="44.82863" lon="1.55107">
        <ele>117</ele>
        <time>2017-08-17T09:18:39Z</time>
      </trkpt>
      <trkpt lat="44.82861" lon="1.55101">
        <ele>117</ele>
        <time>2017-08-17T09:18:48Z</time>
      </trkpt>
      <trkpt lat="44.8286" lon="1.55094">
        <ele>118</ele>
        <time>2017-08-17T09:18:52Z</time>
      </trkpt>
      <trkpt lat="44.82857" lon="1.55088">
        <ele>118</ele>
        <time>2017-08-17T09:18:58Z</time>
      </trkpt>
      <trkpt lat="44.82855" lon="1.55082">
        <ele>119</ele>
        <time>2017-08-17T09:19:03Z</time>
      </trkpt>
      <trkpt lat="44.82852" lon="1.55076">
        <ele>119</ele>
        <time>2017-08-17T09:19:09Z</time>
      </trkpt>
      <trkpt lat="44.8285" lon="1.5507">
        <ele>119</ele>
        <time>2017-08-17T09:19:14Z</time>
      </trkpt>
      <trkpt lat="44.8285" lon="1.55063">
        <ele>120</ele>
        <time>2017-08-17T09:19:19Z</time>
      </trkpt>
      <trkpt lat="44.82848" lon="1.55057">
        <ele>120</ele>
        <time>2017-08-17T09:19:24Z</time>
      </trkpt>
      <trkpt lat="44.82846" lon="1.5505">
        <ele>120</ele>
        <time>2017-08-17T09:19:35Z</time>
      </trkpt>
      <trkpt lat="44.82846" lon="1.55044">
        <ele>120</ele>
        <time>2017-08-17T09:19:38Z</time>
      </trkpt>
      <trkpt lat="44.82843" lon="1.55037">
        <ele>120</ele>
        <time>2017-08-17T09:19:44Z</time>
      </trkpt>
      <trkpt lat="44.82841" lon="1.5503">
        <ele>120</ele>
        <time>2017-08-17T09:19:50Z</time>
      </trkpt>
      <trkpt lat="44.8284" lon="1.55023">
        <ele>120</ele>
        <time>2017-08-17T09:19:56Z</time>
      </trkpt>
      <trkpt lat="44.82838" lon="1.55015">
        <ele>120</ele>
        <time>2017-08-17T09:20:01Z</time>
      </trkpt>
      <trkpt lat="44.82838" lon="1.55008">
        <ele>120</ele>
        <time>2017-08-17T09:20:05Z</time>
      </trkpt>
      <trkpt lat="44.82835" lon="1.55003">
        <ele>120</ele>
        <time>2017-08-17T09:20:11Z</time>
      </trkpt>
      <trkpt lat="44.82833" lon="1.54997">
        <ele>120</ele>
        <time>2017-08-17T09:20:19Z</time>
      </trkpt>
      <trkpt lat="44.8283" lon="1.54992">
        <ele>119</ele>
        <time>2017-08-17T09:20:24Z</time>
      </trkpt>
      <trkpt lat="44.82825" lon="1.54989">
        <ele>119</ele>
        <time>2017-08-17T09:20:31Z</time>
      </trkpt>
      <trkpt lat="44.8282" lon="1.54988">
        <ele>119</ele>
        <time>2017-08-17T09:20:40Z</time>
      </trkpt>
      <trkpt lat="44.82815" lon="1.54987">
        <ele>118</ele>
        <time>2017-08-17T09:20:44Z</time>
      </trkpt>
      <trkpt lat="44.8281" lon="1.54989">
        <ele>117</ele>
        <time>2017-08-17T09:20:48Z</time>
      </trkpt>
      <trkpt lat="44.82805" lon="1.54989">
        <ele>117</ele>
        <time>2017-08-17T09:20:52Z</time>
      </trkpt>
      <trkpt lat="44.828" lon="1.5499">
        <ele>116</ele>
        <time>2017-08-17T09:20:56Z</time>
      </trkpt>
      <trkpt lat="44.82795" lon="1.54993">
        <ele>115</ele>
        <time>2017-08-17T09:21:02Z</time>
      </trkpt>
      <trkpt lat="44.82791" lon="1.54995">
        <ele>114</ele>
        <time>2017-08-17T09:21:06Z</time>
      </trkpt>
      <trkpt lat="44.82786" lon="1.54998">
        <ele>113</ele>
        <time>2017-08-17T09:21:11Z</time>
      </trkpt>
      <trkpt lat="44.82782" lon="1.55001">
        <ele>112</ele>
        <time>2017-08-17T09:21:15Z</time>
      </trkpt>
      <trkpt lat="44.82777" lon="1.55003">
        <ele>111</ele>
        <time>2017-08-17T09:21:20Z</time>
      </trkpt>
      <trkpt lat="44.82773" lon="1.55007">
        <ele>111</ele>
        <time>2017-08-17T09:21:26Z</time>
      </trkpt>
      <trkpt lat="44.82767" lon="1.55008">
        <ele>110</ele>
        <time>2017-08-17T09:21:31Z</time>
      </trkpt>
      <trkpt lat="44.82762" lon="1.55011">
        <ele>110</ele>
        <time>2017-08-17T09:21:35Z</time>
      </trkpt>
      <trkpt lat="44.82758" lon="1.55016">
        <ele>109</ele>
        <time>2017-08-17T09:21:39Z</time>
      </trkpt>
      <trkpt lat="44.82755" lon="1.55022">
        <ele>109</ele>
        <time>2017-08-17T09:21:42Z</time>
      </trkpt>
      <trkpt lat="44.82751" lon="1.55025">
        <ele>109</ele>
        <time>2017-08-17T09:21:45Z</time>
      </trkpt>
      <trkpt lat="44.82747" lon="1.55029">
        <ele>108</ele>
        <time>2017-08-17T09:21:50Z</time>
      </trkpt>
      <trkpt lat="44.82742" lon="1.55031">
        <ele>108</ele>
        <time>2017-08-17T09:21:54Z</time>
      </trkpt>
      <trkpt lat="44.82738" lon="1.55032">
        <ele>108</ele>
        <time>2017-08-17T09:21:59Z</time>
      </trkpt>
      <trkpt lat="44.82734" lon="1.55035">
        <ele>107</ele>
        <time>2017-08-17T09:22:03Z</time>
      </trkpt>
      <trkpt lat="44.82729" lon="1.55039">
        <ele>107</ele>
        <time>2017-08-17T09:22:07Z</time>
      </trkpt>
      <trkpt lat="44.82726" lon="1.55044">
        <ele>107</ele>
        <time>2017-08-17T09:22:11Z</time>
      </trkpt>
      <trkpt lat="44.82721" lon="1.55049">
        <ele>106</ele>
        <time>2017-08-17T09:22:16Z</time>
      </trkpt>
      <trkpt lat="44.82718" lon="1.55053">
        <ele>106</ele>
        <time>2017-08-17T09:22:23Z</time>
      </trkpt>
      <trkpt lat="44.82715" lon="1.55059">
        <ele>106</ele>
        <time>2017-08-17T09:22:27Z</time>
      </trkpt>
      <trkpt lat="44.82714" lon="1.55066">
        <ele>106</ele>
        <time>2017-08-17T09:22:31Z</time>
      </trkpt>
      <trkpt lat="44.82709" lon="1.55067">
        <ele>107</ele>
        <time>2017-08-17T09:22:37Z</time>
      </trkpt>
      <trkpt lat="44.82705" lon="1.55067">
        <ele>107</ele>
        <time>2017-08-17T09:22:40Z</time>
      </trkpt>
      <trkpt lat="44.827" lon="1.55066">
        <ele>108</ele>
        <time>2017-08-17T09:22:45Z</time>
      </trkpt>
      <trkpt lat="44.827" lon="1.55064">
        <ele>108</ele>
        <time>2017-08-17T09:23:13Z</time>
      </trkpt>
      <trkpt lat="44.827" lon="1.55064">
        <ele>109</ele>
        <time>2017-08-17T09:23:15Z</time>
      </trkpt>
      <trkpt lat="44.827" lon="1.55064">
        <ele>109</ele>
        <time>2017-08-17T09:23:43Z</time>
      </trkpt>
      <trkpt lat="44.827" lon="1.55064">
        <ele>109</ele>
        <time>2017-08-17T09:23:45Z</time>
      </trkpt>
      <trkpt lat="44.82699" lon="1.55064">
        <ele>110</ele>
        <time>2017-08-17T09:24:13Z</time>
      </trkpt>
      <trkpt lat="44.82698" lon="1.55063">
        <ele>110</ele>
        <time>2017-08-17T09:24:15Z</time>
      </trkpt>
      <trkpt lat="44.82695" lon="1.55058">
        <ele>110</ele>
        <time>2017-08-17T09:24:22Z</time>
      </trkpt>
      <trkpt lat="44.8269" lon="1.55054">
        <ele>111</ele>
        <time>2017-08-17T09:24:26Z</time>
      </trkpt>
      <trkpt lat="44.82685" lon="1.55055">
        <ele>111</ele>
        <time>2017-08-17T09:24:30Z</time>
      </trkpt>
      <trkpt lat="44.82679" lon="1.55056">
        <ele>111</ele>
        <time>2017-08-17T09:24:35Z</time>
      </trkpt>
      <trkpt lat="44.82674" lon="1.55054">
        <ele>112</ele>
        <time>2017-08-17T09:24:39Z</time>
      </trkpt>
      <trkpt lat="44.82669" lon="1.55055">
        <ele>113</ele>
        <time>2017-08-17T09:24:43Z</time>
      </trkpt>
      <trkpt lat="44.82665" lon="1.55055">
        <ele>114</ele>
        <time>2017-08-17T09:24:47Z</time>
      </trkpt>
      <trkpt lat="44.82659" lon="1.55057">
        <ele>114</ele>
        <time>2017-08-17T09:24:52Z</time>
      </trkpt>
      <trkpt lat="44.82655" lon="1.55059">
        <ele>115</ele>
        <time>2017-08-17T09:24:57Z</time>
      </trkpt>
      <trkpt lat="44.8265" lon="1.55059">
        <ele>115</ele>
        <time>2017-08-17T09:25:00Z</time>
      </trkpt>
      <trkpt lat="44.82645" lon="1.55061">
        <ele>115</ele>
        <time>2017-08-17T09:25:04Z</time>
      </trkpt>
      <trkpt lat="44.8264" lon="1.55064">
        <ele>115</ele>
        <time>2017-08-17T09:25:09Z</time>
      </trkpt>
      <trkpt lat="44.82635" lon="1.55063">
        <ele>114</ele>
        <time>2017-08-17T09:25:13Z</time>
      </trkpt>
      <trkpt lat="44.8263" lon="1.55061">
        <ele>114</ele>
        <time>2017-08-17T09:25:16Z</time>
      </trkpt>
      <trkpt lat="44.82625" lon="1.55065">
        <ele>114</ele>
        <time>2017-08-17T09:25:21Z</time>
      </trkpt>
      <trkpt lat="44.8262" lon="1.55067">
        <ele>114</ele>
        <time>2017-08-17T09:25:26Z</time>
      </trkpt>
      <trkpt lat="44.82616" lon="1.55069">
        <ele>114</ele>
        <time>2017-08-17T09:25:31Z</time>
      </trkpt>
      <trkpt lat="44.82611" lon="1.5507">
        <ele>114</ele>
        <time>2017-08-17T09:25:37Z</time>
      </trkpt>
      <trkpt lat="44.82606" lon="1.55071">
        <ele>113</ele>
        <time>2017-08-17T09:25:42Z</time>
      </trkpt>
      <trkpt lat="44.82601" lon="1.55072">
        <ele>113</ele>
        <time>2017-08-17T09:25:46Z</time>
      </trkpt>
      <trkpt lat="44.82596" lon="1.55073">
        <ele>113</ele>
        <time>2017-08-17T09:25:49Z</time>
      </trkpt>
      <trkpt lat="44.82591" lon="1.55074">
        <ele>114</ele>
        <time>2017-08-17T09:25:53Z</time>
      </trkpt>
      <trkpt lat="44.82586" lon="1.55076">
        <ele>114</ele>
        <time>2017-08-17T09:25:58Z</time>
      </trkpt>
      <trkpt lat="44.82581" lon="1.55077">
        <ele>114</ele>
        <time>2017-08-17T09:26:03Z</time>
      </trkpt>
      <trkpt lat="44.82576" lon="1.55077">
        <ele>115</ele>
        <time>2017-08-17T09:26:07Z</time>
      </trkpt>
      <trkpt lat="44.82572" lon="1.5508">
        <ele>115</ele>
        <time>2017-08-17T09:26:11Z</time>
      </trkpt>
      <trkpt lat="44.82567" lon="1.55079">
        <ele>116</ele>
        <time>2017-08-17T09:26:15Z</time>
      </trkpt>
      <trkpt lat="44.82563" lon="1.5508">
        <ele>117</ele>
        <time>2017-08-17T09:26:18Z</time>
      </trkpt>
      <trkpt lat="44.82558" lon="1.5508">
        <ele>118</ele>
        <time>2017-08-17T09:26:22Z</time>
      </trkpt>
      <trkpt lat="44.82554" lon="1.5508">
        <ele>118</ele>
        <time>2017-08-17T09:26:28Z</time>
      </trkpt>
      <trkpt lat="44.82548" lon="1.55079">
        <ele>119</ele>
        <time>2017-08-17T09:26:32Z</time>
      </trkpt>
      <trkpt lat="44.82544" lon="1.55081">
        <ele>119</ele>
        <time>2017-08-17T09:26:35Z</time>
      </trkpt>
      <trkpt lat="44.82538" lon="1.55082">
        <ele>119</ele>
        <time>2017-08-17T09:26:38Z</time>
      </trkpt>
      <trkpt lat="44.82533" lon="1.55084">
        <ele>119</ele>
        <time>2017-08-17T09:26:44Z</time>
      </trkpt>
      <trkpt lat="44.82529" lon="1.55081">
        <ele>119</ele>
        <time>2017-08-17T09:26:50Z</time>
      </trkpt>
      <trkpt lat="44.82525" lon="1.5508">
        <ele>119</ele>
        <time>2017-08-17T09:26:53Z</time>
      </trkpt>
      <trkpt lat="44.8252" lon="1.55079">
        <ele>118</ele>
        <time>2017-08-17T09:26:58Z</time>
      </trkpt>
      <trkpt lat="44.82514" lon="1.5508">
        <ele>118</ele>
        <time>2017-08-17T09:27:03Z</time>
      </trkpt>
      <trkpt lat="44.8251" lon="1.55076">
        <ele>117</ele>
        <time>2017-08-17T09:27:10Z</time>
      </trkpt>
      <trkpt lat="44.82504" lon="1.55073">
        <ele>117</ele>
        <time>2017-08-17T09:27:16Z</time>
      </trkpt>
      <trkpt lat="44.82499" lon="1.55071">
        <ele>117</ele>
        <time>2017-08-17T09:27:21Z</time>
      </trkpt>
      <trkpt lat="44.82495" lon="1.55067">
        <ele>117</ele>
        <time>2017-08-17T09:27:25Z</time>
      </trkpt>
      <trkpt lat="44.82493" lon="1.55061">
        <ele>117</ele>
        <time>2017-08-17T09:27:34Z</time>
      </trkpt>
      <trkpt lat="44.82489" lon="1.55057">
        <ele>117</ele>
        <time>2017-08-17T09:27:40Z</time>
      </trkpt>
      <trkpt lat="44.82485" lon="1.55052">
        <ele>116</ele>
        <time>2017-08-17T09:27:43Z</time>
      </trkpt>
      <trkpt lat="44.82482" lon="1.55047">
        <ele>116</ele>
        <time>2017-08-17T09:27:47Z</time>
      </trkpt>
      <trkpt lat="44.82478" lon="1.5504">
        <ele>116</ele>
        <time>2017-08-17T09:27:50Z</time>
      </trkpt>
      <trkpt lat="44.82475" lon="1.55035">
        <ele>116</ele>
        <time>2017-08-17T09:27:55Z</time>
      </trkpt>
      <trkpt lat="44.82471" lon="1.55029">
        <ele>116</ele>
        <time>2017-08-17T09:28:02Z</time>
      </trkpt>
      <trkpt lat="44.82466" lon="1.55025">
        <ele>115</ele>
        <time>2017-08-17T09:28:06Z</time>
      </trkpt>
      <trkpt lat="44.82462" lon="1.55021">
        <ele>115</ele>
        <time>2017-08-17T09:28:11Z</time>
      </trkpt>
      <trkpt lat="44.82459" lon="1.55016">
        <ele>115</ele>
        <time>2017-08-17T09:28:17Z</time>
      </trkpt>
      <trkpt lat="44.82455" lon="1.5501">
        <ele>115</ele>
        <time>2017-08-17T09:28:22Z</time>
      </trkpt>
      <trkpt lat="44.82451" lon="1.55007">
        <ele>114</ele>
        <time>2017-08-17T09:28:27Z</time>
      </trkpt>
      <trkpt lat="44.82447" lon="1.55004">
        <ele>114</ele>
        <time>2017-08-17T09:28:31Z</time>
      </trkpt>
      <trkpt lat="44.82443" lon="1.54999">
        <ele>115</ele>
        <time>2017-08-17T09:28:35Z</time>
      </trkpt>
      <trkpt lat="44.82439" lon="1.54994">
        <ele>115</ele>
        <time>2017-08-17T09:28:38Z</time>
      </trkpt>
      <trkpt lat="44.82436" lon="1.54989">
        <ele>115</ele>
        <time>2017-08-17T09:28:41Z</time>
      </trkpt>
      <trkpt lat="44.82432" lon="1.54983">
        <ele>114</ele>
        <time>2017-08-17T09:28:46Z</time>
      </trkpt>
      <trkpt lat="44.82428" lon="1.54978">
        <ele>114</ele>
        <time>2017-08-17T09:28:51Z</time>
      </trkpt>
      <trkpt lat="44.82425" lon="1.54973">
        <ele>113</ele>
        <time>2017-08-17T09:28:56Z</time>
      </trkpt>
      <trkpt lat="44.82422" lon="1.54967">
        <ele>113</ele>
        <time>2017-08-17T09:29:01Z</time>
      </trkpt>
      <trkpt lat="44.8242" lon="1.54961">
        <ele>112</ele>
        <time>2017-08-17T09:29:04Z</time>
      </trkpt>
      <trkpt lat="44.82418" lon="1.54954">
        <ele>112</ele>
        <time>2017-08-17T09:29:08Z</time>
      </trkpt>
      <trkpt lat="44.82417" lon="1.54946">
        <ele>111</ele>
        <time>2017-08-17T09:29:13Z</time>
      </trkpt>
      <trkpt lat="44.82415" lon="1.5494">
        <ele>111</ele>
        <time>2017-08-17T09:29:18Z</time>
      </trkpt>
      <trkpt lat="44.82412" lon="1.54935">
        <ele>111</ele>
        <time>2017-08-17T09:29:23Z</time>
      </trkpt>
      <trkpt lat="44.82409" lon="1.54928">
        <ele>110</ele>
        <time>2017-08-17T09:29:28Z</time>
      </trkpt>
      <trkpt lat="44.82405" lon="1.54923">
        <ele>110</ele>
        <time>2017-08-17T09:29:32Z</time>
      </trkpt>
      <trkpt lat="44.82404" lon="1.54917">
        <ele>109</ele>
        <time>2017-08-17T09:29:44Z</time>
      </trkpt>
      <trkpt lat="44.82402" lon="1.54911">
        <ele>109</ele>
        <time>2017-08-17T09:29:53Z</time>
      </trkpt>
      <trkpt lat="44.82399" lon="1.54906">
        <ele>109</ele>
        <time>2017-08-17T09:29:57Z</time>
      </trkpt>
      <trkpt lat="44.82396" lon="1.54902">
        <ele>109</ele>
        <time>2017-08-17T09:30:02Z</time>
      </trkpt>
      <trkpt lat="44.82391" lon="1.54899">
        <ele>109</ele>
        <time>2017-08-17T09:30:11Z</time>
      </trkpt>
      <trkpt lat="44.82388" lon="1.54894">
        <ele>109</ele>
        <time>2017-08-17T09:30:18Z</time>
      </trkpt>
      <trkpt lat="44.82385" lon="1.5489">
        <ele>109</ele>
        <time>2017-08-17T09:30:22Z</time>
      </trkpt>
      <trkpt lat="44.82381" lon="1.54887">
        <ele>109</ele>
        <time>2017-08-17T09:30:27Z</time>
      </trkpt>
      <trkpt lat="44.82376" lon="1.54884">
        <ele>109</ele>
        <time>2017-08-17T09:30:31Z</time>
      </trkpt>
      <trkpt lat="44.82372" lon="1.54879">
        <ele>109</ele>
        <time>2017-08-17T09:30:37Z</time>
      </trkpt>
      <trkpt lat="44.82368" lon="1.54875">
        <ele>109</ele>
        <time>2017-08-17T09:30:43Z</time>
      </trkpt>
      <trkpt lat="44.82365" lon="1.5487">
        <ele>109</ele>
        <time>2017-08-17T09:30:49Z</time>
      </trkpt>
      <trkpt lat="44.82361" lon="1.54866">
        <ele>110</ele>
        <time>2017-08-17T09:30:53Z</time>
      </trkpt>
      <trkpt lat="44.82356" lon="1.54863">
        <ele>110</ele>
        <time>2017-08-17T09:30:58Z</time>
      </trkpt>
      <trkpt lat="44.82352" lon="1.5486">
        <ele>111</ele>
        <time>2017-08-17T09:31:04Z</time>
      </trkpt>
      <trkpt lat="44.82348" lon="1.54856">
        <ele>112</ele>
        <time>2017-08-17T09:31:10Z</time>
      </trkpt>
      <trkpt lat="44.82344" lon="1.54853">
        <ele>113</ele>
        <time>2017-08-17T09:31:15Z</time>
      </trkpt>
      <trkpt lat="44.82348" lon="1.54849">
        <ele>114</ele>
        <time>2017-08-17T09:31:24Z</time>
      </trkpt>
      <trkpt lat="44.8235" lon="1.54842">
        <ele>114</ele>
        <time>2017-08-17T09:31:29Z</time>
      </trkpt>
      <trkpt lat="44.82352" lon="1.54836">
        <ele>115</ele>
        <time>2017-08-17T09:31:47Z</time>
      </trkpt>
      <trkpt lat="44.8235" lon="1.54836">
        <ele>115</ele>
        <time>2017-08-17T09:32:14Z</time>
      </trkpt>
      <trkpt lat="44.8235" lon="1.54836">
        <ele>114</ele>
        <time>2017-08-17T09:32:15Z</time>
      </trkpt>
      <trkpt lat="44.82346" lon="1.5483">
        <ele>114</ele>
        <time>2017-08-17T09:32:26Z</time>
      </trkpt>
      <trkpt lat="44.82341" lon="1.54829">
        <ele>114</ele>
        <time>2017-08-17T09:32:30Z</time>
      </trkpt>
      <trkpt lat="44.82336" lon="1.54829">
        <ele>114</ele>
        <time>2017-08-17T09:32:34Z</time>
      </trkpt>
      <trkpt lat="44.82332" lon="1.54827">
        <ele>114</ele>
        <time>2017-08-17T09:32:39Z</time>
      </trkpt>
      <trkpt lat="44.82327" lon="1.54825">
        <ele>114</ele>
        <time>2017-08-17T09:32:43Z</time>
      </trkpt>
      <trkpt lat="44.82321" lon="1.54823">
        <ele>115</ele>
        <time>2017-08-17T09:32:47Z</time>
      </trkpt>
      <trkpt lat="44.82317" lon="1.5482">
        <ele>116</ele>
        <time>2017-08-17T09:32:51Z</time>
      </trkpt>
      <trkpt lat="44.82313" lon="1.54816">
        <ele>116</ele>
        <time>2017-08-17T09:32:55Z</time>
      </trkpt>
      <trkpt lat="44.82308" lon="1.54814">
        <ele>116</ele>
        <time>2017-08-17T09:32:59Z</time>
      </trkpt>
      <trkpt lat="44.82303" lon="1.54812">
        <ele>117</ele>
        <time>2017-08-17T09:33:06Z</time>
      </trkpt>
      <trkpt lat="44.82298" lon="1.54811">
        <ele>117</ele>
        <time>2017-08-17T09:33:11Z</time>
      </trkpt>
      <trkpt lat="44.82294" lon="1.54807">
        <ele>117</ele>
        <time>2017-08-17T09:33:18Z</time>
      </trkpt>
      <trkpt lat="44.8229" lon="1.54803">
        <ele>118</ele>
        <time>2017-08-17T09:33:21Z</time>
      </trkpt>
      <trkpt lat="44.82285" lon="1.54799">
        <ele>118</ele>
        <time>2017-08-17T09:33:25Z</time>
      </trkpt>
      <trkpt lat="44.82282" lon="1.54794">
        <ele>118</ele>
        <time>2017-08-17T09:33:31Z</time>
      </trkpt>
      <trkpt lat="44.82276" lon="1.54791">
        <ele>119</ele>
        <time>2017-08-17T09:33:39Z</time>
      </trkpt>
      <trkpt lat="44.82272" lon="1.54787">
        <ele>119</ele>
        <time>2017-08-17T09:33:44Z</time>
      </trkpt>
      <trkpt lat="44.82269" lon="1.54783">
        <ele>120</ele>
        <time>2017-08-17T09:33:48Z</time>
      </trkpt>
      <trkpt lat="44.82264" lon="1.54779">
        <ele>120</ele>
        <time>2017-08-17T09:33:52Z</time>
      </trkpt>
      <trkpt lat="44.82261" lon="1.54774">
        <ele>121</ele>
        <time>2017-08-17T09:33:56Z</time>
      </trkpt>
      <trkpt lat="44.82256" lon="1.54769">
        <ele>121</ele>
        <time>2017-08-17T09:34:03Z</time>
      </trkpt>
      <trkpt lat="44.82251" lon="1.54764">
        <ele>122</ele>
        <time>2017-08-17T09:34:13Z</time>
      </trkpt>
      <trkpt lat="44.82247" lon="1.54764">
        <ele>122</ele>
        <time>2017-08-17T09:34:17Z</time>
      </trkpt>
      <trkpt lat="44.82242" lon="1.54761">
        <ele>122</ele>
        <time>2017-08-17T09:34:20Z</time>
      </trkpt>
      <trkpt lat="44.82237" lon="1.54759">
        <ele>122</ele>
        <time>2017-08-17T09:34:24Z</time>
      </trkpt>
      <trkpt lat="44.82231" lon="1.54758">
        <ele>121</ele>
        <time>2017-08-17T09:34:29Z</time>
      </trkpt>
      <trkpt lat="44.82226" lon="1.54756">
        <ele>121</ele>
        <time>2017-08-17T09:34:32Z</time>
      </trkpt>
      <trkpt lat="44.82221" lon="1.54756">
        <ele>120</ele>
        <time>2017-08-17T09:34:36Z</time>
      </trkpt>
      <trkpt lat="44.82216" lon="1.54759">
        <ele>119</ele>
        <time>2017-08-17T09:34:41Z</time>
      </trkpt>
      <trkpt lat="44.82212" lon="1.54763">
        <ele>118</ele>
        <time>2017-08-17T09:34:47Z</time>
      </trkpt>
      <trkpt lat="44.82208" lon="1.54766">
        <ele>118</ele>
        <time>2017-08-17T09:34:52Z</time>
      </trkpt>
      <trkpt lat="44.82203" lon="1.54769">
        <ele>117</ele>
        <time>2017-08-17T09:34:57Z</time>
      </trkpt>
      <trkpt lat="44.82199" lon="1.54773">
        <ele>117</ele>
        <time>2017-08-17T09:35:03Z</time>
      </trkpt>
      <trkpt lat="44.82195" lon="1.54778">
        <ele>116</ele>
        <time>2017-08-17T09:35:07Z</time>
      </trkpt>
      <trkpt lat="44.82192" lon="1.54784">
        <ele>116</ele>
        <time>2017-08-17T09:35:12Z</time>
      </trkpt>
      <trkpt lat="44.8219" lon="1.5479">
        <ele>116</ele>
        <time>2017-08-17T09:35:16Z</time>
      </trkpt>
      <trkpt lat="44.82187" lon="1.54795">
        <ele>115</ele>
        <time>2017-08-17T09:35:23Z</time>
      </trkpt>
      <trkpt lat="44.82182" lon="1.548">
        <ele>115</ele>
        <time>2017-08-17T09:35:27Z</time>
      </trkpt>
      <trkpt lat="44.8218" lon="1.54806">
        <ele>115</ele>
        <time>2017-08-17T09:35:32Z</time>
      </trkpt>
      <trkpt lat="44.82177" lon="1.54811">
        <ele>114</ele>
        <time>2017-08-17T09:35:37Z</time>
      </trkpt>
      <trkpt lat="44.82174" lon="1.54817">
        <ele>114</ele>
        <time>2017-08-17T09:35:40Z</time>
      </trkpt>
      <trkpt lat="44.82174" lon="1.54825">
        <ele>113</ele>
        <time>2017-08-17T09:35:45Z</time>
      </trkpt>
      <trkpt lat="44.82172" lon="1.54831">
        <ele>113</ele>
        <time>2017-08-17T09:35:49Z</time>
      </trkpt>
      <trkpt lat="44.82174" lon="1.54839">
        <ele>112</ele>
        <time>2017-08-17T09:35:55Z</time>
      </trkpt>
      <trkpt lat="44.82172" lon="1.54845">
        <ele>112</ele>
        <time>2017-08-17T09:36:01Z</time>
      </trkpt>
      <trkpt lat="44.82171" lon="1.54852">
        <ele>112</ele>
        <time>2017-08-17T09:36:06Z</time>
      </trkpt>
      <trkpt lat="44.82169" lon="1.54859">
        <ele>112</ele>
        <time>2017-08-17T09:36:14Z</time>
      </trkpt>
      <trkpt lat="44.82167" lon="1.54866">
        <ele>112</ele>
        <time>2017-08-17T09:36:19Z</time>
      </trkpt>
      <trkpt lat="44.82167" lon="1.54874">
        <ele>111</ele>
        <time>2017-08-17T09:36:24Z</time>
      </trkpt>
      <trkpt lat="44.82166" lon="1.54881">
        <ele>111</ele>
        <time>2017-08-17T09:36:28Z</time>
      </trkpt>
      <trkpt lat="44.82165" lon="1.54887">
        <ele>111</ele>
        <time>2017-08-17T09:36:34Z</time>
      </trkpt>
      <trkpt lat="44.82163" lon="1.54894">
        <ele>110</ele>
        <time>2017-08-17T09:36:39Z</time>
      </trkpt>
      <trkpt lat="44.82163" lon="1.54901">
        <ele>110</ele>
        <time>2017-08-17T09:36:43Z</time>
      </trkpt>
      <trkpt lat="44.82163" lon="1.54908">
        <ele>109</ele>
        <time>2017-08-17T09:36:50Z</time>
      </trkpt>
      <trkpt lat="44.8216" lon="1.54913">
        <ele>109</ele>
        <time>2017-08-17T09:36:54Z</time>
      </trkpt>
      <trkpt lat="44.82159" lon="1.54919">
        <ele>108</ele>
        <time>2017-08-17T09:36:57Z</time>
      </trkpt>
      <trkpt lat="44.82157" lon="1.54926">
        <ele>107</ele>
        <time>2017-08-17T09:37:02Z</time>
      </trkpt>
      <trkpt lat="44.82158" lon="1.54933">
        <ele>107</ele>
        <time>2017-08-17T09:37:07Z</time>
      </trkpt>
      <trkpt lat="44.82158" lon="1.54939">
        <ele>106</ele>
        <time>2017-08-17T09:37:12Z</time>
      </trkpt>
      <trkpt lat="44.82159" lon="1.54946">
        <ele>106</ele>
        <time>2017-08-17T09:37:17Z</time>
      </trkpt>
      <trkpt lat="44.82159" lon="1.54952">
        <ele>105</ele>
        <time>2017-08-17T09:37:19Z</time>
      </trkpt>
      <trkpt lat="44.82158" lon="1.54959">
        <ele>105</ele>
        <time>2017-08-17T09:37:24Z</time>
      </trkpt>
      <trkpt lat="44.82158" lon="1.54966">
        <ele>105</ele>
        <time>2017-08-17T09:37:28Z</time>
      </trkpt>
      <trkpt lat="44.82158" lon="1.54973">
        <ele>105</ele>
        <time>2017-08-17T09:37:35Z</time>
      </trkpt>
      <trkpt lat="44.82158" lon="1.54981">
        <ele>105</ele>
        <time>2017-08-17T09:37:40Z</time>
      </trkpt>
      <trkpt lat="44.82158" lon="1.54988">
        <ele>105</ele>
        <time>2017-08-17T09:37:45Z</time>
      </trkpt>
      <trkpt lat="44.82157" lon="1.54995">
        <ele>105</ele>
        <time>2017-08-17T09:37:50Z</time>
      </trkpt>
      <trkpt lat="44.82158" lon="1.55003">
        <ele>105</ele>
        <time>2017-08-17T09:37:56Z</time>
      </trkpt>
      <trkpt lat="44.82158" lon="1.55009">
        <ele>105</ele>
        <time>2017-08-17T09:38:02Z</time>
      </trkpt>
      <trkpt lat="44.82155" lon="1.55016">
        <ele>105</ele>
        <time>2017-08-17T09:38:07Z</time>
      </trkpt>
      <trkpt lat="44.82155" lon="1.55024">
        <ele>105</ele>
        <time>2017-08-17T09:38:12Z</time>
      </trkpt>
      <trkpt lat="44.82154" lon="1.55031">
        <ele>106</ele>
        <time>2017-08-17T09:38:18Z</time>
      </trkpt>
      <trkpt lat="44.82152" lon="1.55039">
        <ele>106</ele>
        <time>2017-08-17T09:38:23Z</time>
      </trkpt>
      <trkpt lat="44.82151" lon="1.55046">
        <ele>106</ele>
        <time>2017-08-17T09:38:28Z</time>
      </trkpt>
      <trkpt lat="44.8215" lon="1.55054">
        <ele>106</ele>
        <time>2017-08-17T09:38:35Z</time>
      </trkpt>
      <trkpt lat="44.82147" lon="1.5506">
        <ele>107</ele>
        <time>2017-08-17T09:38:43Z</time>
      </trkpt>
      <trkpt lat="44.82146" lon="1.55067">
        <ele>107</ele>
        <time>2017-08-17T09:38:48Z</time>
      </trkpt>
      <trkpt lat="44.82143" lon="1.55073">
        <ele>107</ele>
        <time>2017-08-17T09:38:53Z</time>
      </trkpt>
      <trkpt lat="44.82141" lon="1.55082">
        <ele>107</ele>
        <time>2017-08-17T09:38:59Z</time>
      </trkpt>
      <trkpt lat="44.82139" lon="1.55088">
        <ele>108</ele>
        <time>2017-08-17T09:39:03Z</time>
      </trkpt>
      <trkpt lat="44.82137" lon="1.55094">
        <ele>108</ele>
        <time>2017-08-17T09:39:06Z</time>
      </trkpt>
      <trkpt lat="44.82134" lon="1.551">
        <ele>107</ele>
        <time>2017-08-17T09:39:11Z</time>
      </trkpt>
      <trkpt lat="44.82132" lon="1.55106">
        <ele>107</ele>
        <time>2017-08-17T09:39:15Z</time>
      </trkpt>
      <trkpt lat="44.82129" lon="1.55111">
        <ele>107</ele>
        <time>2017-08-17T09:39:22Z</time>
      </trkpt>
      <trkpt lat="44.82126" lon="1.55116">
        <ele>107</ele>
        <time>2017-08-17T09:39:27Z</time>
      </trkpt>
      <trkpt lat="44.82124" lon="1.55122">
        <ele>107</ele>
        <time>2017-08-17T09:39:35Z</time>
      </trkpt>
      <trkpt lat="44.82124" lon="1.55129">
        <ele>107</ele>
        <time>2017-08-17T09:39:40Z</time>
      </trkpt>
      <trkpt lat="44.82121" lon="1.55134">
        <ele>107</ele>
        <time>2017-08-17T09:39:43Z</time>
      </trkpt>
      <trkpt lat="44.8212" lon="1.55141">
        <ele>107</ele>
        <time>2017-08-17T09:39:49Z</time>
      </trkpt>
      <trkpt lat="44.82118" lon="1.55147">
        <ele>107</ele>
        <time>2017-08-17T09:39:54Z</time>
      </trkpt>
      <trkpt lat="44.82116" lon="1.55154">
        <ele>107</ele>
        <time>2017-08-17T09:39:58Z</time>
      </trkpt>
      <trkpt lat="44.82113" lon="1.55161">
        <ele>107</ele>
        <time>2017-08-17T09:40:04Z</time>
      </trkpt>
      <trkpt lat="44.8211" lon="1.55167">
        <ele>107</ele>
        <time>2017-08-17T09:40:09Z</time>
      </trkpt>
      <trkpt lat="44.82106" lon="1.55174">
        <ele>107</ele>
        <time>2017-08-17T09:40:14Z</time>
      </trkpt>
      <trkpt lat="44.82103" lon="1.5518">
        <ele>107</ele>
        <time>2017-08-17T09:40:20Z</time>
      </trkpt>
      <trkpt lat="44.821" lon="1.55185">
        <ele>107</ele>
        <time>2017-08-17T09:40:26Z</time>
      </trkpt>
      <trkpt lat="44.82097" lon="1.5519">
        <ele>107</ele>
        <time>2017-08-17T09:40:30Z</time>
      </trkpt>
      <trkpt lat="44.82093" lon="1.55196">
        <ele>107</ele>
        <time>2017-08-17T09:40:38Z</time>
      </trkpt>
      <trkpt lat="44.82089" lon="1.55202">
        <ele>107</ele>
        <time>2017-08-17T09:40:42Z</time>
      </trkpt>
      <trkpt lat="44.82086" lon="1.55207">
        <ele>107</ele>
        <time>2017-08-17T09:40:47Z</time>
      </trkpt>
      <trkpt lat="44.82083" lon="1.55213">
        <ele>107</ele>
        <time>2017-08-17T09:40:52Z</time>
      </trkpt>
      <trkpt lat="44.8208" lon="1.55217">
        <ele>108</ele>
        <time>2017-08-17T09:40:57Z</time>
      </trkpt>
      <trkpt lat="44.82077" lon="1.55223">
        <ele>108</ele>
        <time>2017-08-17T09:41:06Z</time>
      </trkpt>
      <trkpt lat="44.82074" lon="1.55229">
        <ele>108</ele>
        <time>2017-08-17T09:41:10Z</time>
      </trkpt>
      <trkpt lat="44.8207" lon="1.55232">
        <ele>108</ele>
        <time>2017-08-17T09:41:16Z</time>
      </trkpt>
      <trkpt lat="44.82066" lon="1.55235">
        <ele>109</ele>
        <time>2017-08-17T09:41:24Z</time>
      </trkpt>
      <trkpt lat="44.82061" lon="1.55239">
        <ele>109</ele>
        <time>2017-08-17T09:41:31Z</time>
      </trkpt>
      <trkpt lat="44.82058" lon="1.55244">
        <ele>109</ele>
        <time>2017-08-17T09:41:36Z</time>
      </trkpt>
      <trkpt lat="44.82053" lon="1.55248">
        <ele>109</ele>
        <time>2017-08-17T09:41:42Z</time>
      </trkpt>
      <trkpt lat="44.82049" lon="1.55252">
        <ele>109</ele>
        <time>2017-08-17T09:41:46Z</time>
      </trkpt>
      <trkpt lat="44.82045" lon="1.55254">
        <ele>109</ele>
        <time>2017-08-17T09:41:58Z</time>
      </trkpt>
      <trkpt lat="44.8204" lon="1.55258">
        <ele>109</ele>
        <time>2017-08-17T09:42:02Z</time>
      </trkpt>
      <trkpt lat="44.82037" lon="1.55263">
        <ele>109</ele>
        <time>2017-08-17T09:42:08Z</time>
      </trkpt>
      <trkpt lat="44.82034" lon="1.55269">
        <ele>109</ele>
        <time>2017-08-17T09:42:12Z</time>
      </trkpt>
      <trkpt lat="44.82029" lon="1.55274">
        <ele>109</ele>
        <time>2017-08-17T09:42:16Z</time>
      </trkpt>
      <trkpt lat="44.82025" lon="1.55279">
        <ele>109</ele>
        <time>2017-08-17T09:42:20Z</time>
      </trkpt>
      <trkpt lat="44.82022" lon="1.55283">
        <ele>109</ele>
        <time>2017-08-17T09:42:25Z</time>
      </trkpt>
      <trkpt lat="44.82018" lon="1.55287">
        <ele>110</ele>
        <time>2017-08-17T09:42:32Z</time>
      </trkpt>
      <trkpt lat="44.82015" lon="1.55292">
        <ele>110</ele>
        <time>2017-08-17T09:42:38Z</time>
      </trkpt>
      <trkpt lat="44.8201" lon="1.55295">
        <ele>111</ele>
        <time>2017-08-17T09:42:44Z</time>
      </trkpt>
      <trkpt lat="44.82005" lon="1.55298">
        <ele>112</ele>
        <time>2017-08-17T09:42:49Z</time>
      </trkpt>
      <trkpt lat="44.82002" lon="1.55302">
        <ele>112</ele>
        <time>2017-08-17T09:42:54Z</time>
      </trkpt>
      <trkpt lat="44.81997" lon="1.55306">
        <ele>113</ele>
        <time>2017-08-17T09:43:02Z</time>
      </trkpt>
      <trkpt lat="44.81992" lon="1.55308">
        <ele>113</ele>
        <time>2017-08-17T09:43:06Z</time>
      </trkpt>
      <trkpt lat="44.81987" lon="1.5531">
        <ele>114</ele>
        <time>2017-08-17T09:43:10Z</time>
      </trkpt>
      <trkpt lat="44.81981" lon="1.55311">
        <ele>114</ele>
        <time>2017-08-17T09:43:14Z</time>
      </trkpt>
      <trkpt lat="44.81976" lon="1.55313">
        <ele>115</ele>
        <time>2017-08-17T09:43:19Z</time>
      </trkpt>
      <trkpt lat="44.8197" lon="1.55316">
        <ele>115</ele>
        <time>2017-08-17T09:43:23Z</time>
      </trkpt>
      <trkpt lat="44.81965" lon="1.55315">
        <ele>116</ele>
        <time>2017-08-17T09:43:27Z</time>
      </trkpt>
      <trkpt lat="44.8196" lon="1.55317">
        <ele>117</ele>
        <time>2017-08-17T09:43:32Z</time>
      </trkpt>
      <trkpt lat="44.81956" lon="1.55321">
        <ele>118</ele>
        <time>2017-08-17T09:43:37Z</time>
      </trkpt>
      <trkpt lat="44.81951" lon="1.55321">
        <ele>118</ele>
        <time>2017-08-17T09:43:40Z</time>
      </trkpt>
      <trkpt lat="44.81946" lon="1.55322">
        <ele>119</ele>
        <time>2017-08-17T09:43:43Z</time>
      </trkpt>
      <trkpt lat="44.81942" lon="1.55324">
        <ele>119</ele>
        <time>2017-08-17T09:43:49Z</time>
      </trkpt>
      <trkpt lat="44.81937" lon="1.55324">
        <ele>119</ele>
        <time>2017-08-17T09:43:54Z</time>
      </trkpt>
      <trkpt lat="44.81932" lon="1.55325">
        <ele>119</ele>
        <time>2017-08-17T09:43:58Z</time>
      </trkpt>
      <trkpt lat="44.81928" lon="1.55328">
        <ele>119</ele>
        <time>2017-08-17T09:44:03Z</time>
      </trkpt>
      <trkpt lat="44.81923" lon="1.55331">
        <ele>119</ele>
        <time>2017-08-17T09:44:09Z</time>
      </trkpt>
      <trkpt lat="44.81918" lon="1.55331">
        <ele>118</ele>
        <time>2017-08-17T09:44:12Z</time>
      </trkpt>
      <trkpt lat="44.81914" lon="1.55332">
        <ele>118</ele>
        <time>2017-08-17T09:44:15Z</time>
      </trkpt>
      <trkpt lat="44.81908" lon="1.55333">
        <ele>118</ele>
        <time>2017-08-17T09:44:21Z</time>
      </trkpt>
      <trkpt lat="44.81903" lon="1.55332">
        <ele>118</ele>
        <time>2017-08-17T09:44:27Z</time>
      </trkpt>
      <trkpt lat="44.81898" lon="1.55333">
        <ele>117</ele>
        <time>2017-08-17T09:44:34Z</time>
      </trkpt>
      <trkpt lat="44.81893" lon="1.55335">
        <ele>117</ele>
        <time>2017-08-17T09:44:39Z</time>
      </trkpt>
      <trkpt lat="44.81889" lon="1.55338">
        <ele>117</ele>
        <time>2017-08-17T09:44:43Z</time>
      </trkpt>
      <trkpt lat="44.81884" lon="1.5534">
        <ele>117</ele>
        <time>2017-08-17T09:44:48Z</time>
      </trkpt>
      <trkpt lat="44.8188" lon="1.55343">
        <ele>116</ele>
        <time>2017-08-17T09:44:53Z</time>
      </trkpt>
      <trkpt lat="44.81875" lon="1.55344">
        <ele>116</ele>
        <time>2017-08-17T09:44:55Z</time>
      </trkpt>
      <trkpt lat="44.8187" lon="1.55343">
        <ele>115</ele>
        <time>2017-08-17T09:44:58Z</time>
      </trkpt>
      <trkpt lat="44.81866" lon="1.55344">
        <ele>115</ele>
        <time>2017-08-17T09:45:02Z</time>
      </trkpt>
      <trkpt lat="44.8186" lon="1.55344">
        <ele>114</ele>
        <time>2017-08-17T09:45:07Z</time>
      </trkpt>
      <trkpt lat="44.81854" lon="1.55345">
        <ele>113</ele>
        <time>2017-08-17T09:45:12Z</time>
      </trkpt>
      <trkpt lat="44.8185" lon="1.55349">
        <ele>112</ele>
        <time>2017-08-17T09:45:20Z</time>
      </trkpt>
      <trkpt lat="44.81845" lon="1.55348">
        <ele>110</ele>
        <time>2017-08-17T09:45:24Z</time>
      </trkpt>
      <trkpt lat="44.8184" lon="1.55349">
        <ele>109</ele>
        <time>2017-08-17T09:45:31Z</time>
      </trkpt>
      <trkpt lat="44.81835" lon="1.55351">
        <ele>108</ele>
        <time>2017-08-17T09:45:39Z</time>
      </trkpt>
      <trkpt lat="44.8183" lon="1.55354">
        <ele>108</ele>
        <time>2017-08-17T09:45:44Z</time>
      </trkpt>
      <trkpt lat="44.81826" lon="1.55358">
        <ele>107</ele>
        <time>2017-08-17T09:45:49Z</time>
      </trkpt>
      <trkpt lat="44.81823" lon="1.55363">
        <ele>108</ele>
        <time>2017-08-17T09:45:56Z</time>
      </trkpt>
      <trkpt lat="44.81821" lon="1.5537">
        <ele>108</ele>
        <time>2017-08-17T09:46:03Z</time>
      </trkpt>
      <trkpt lat="44.81821" lon="1.55377">
        <ele>109</ele>
        <time>2017-08-17T09:46:10Z</time>
      </trkpt>
      <trkpt lat="44.8182" lon="1.55384">
        <ele>110</ele>
        <time>2017-08-17T09:46:15Z</time>
      </trkpt>
      <trkpt lat="44.81819" lon="1.55392">
        <ele>111</ele>
        <time>2017-08-17T09:46:21Z</time>
      </trkpt>
      <trkpt lat="44.81817" lon="1.55397">
        <ele>112</ele>
        <time>2017-08-17T09:46:30Z</time>
      </trkpt>
      <trkpt lat="44.81814" lon="1.55402">
        <ele>113</ele>
        <time>2017-08-17T09:46:34Z</time>
      </trkpt>
      <trkpt lat="44.8181" lon="1.55407">
        <ele>113</ele>
        <time>2017-08-17T09:46:39Z</time>
      </trkpt>
      <trkpt lat="44.81808" lon="1.55413">
        <ele>114</ele>
        <time>2017-08-17T09:46:44Z</time>
      </trkpt>
      <trkpt lat="44.81805" lon="1.5542">
        <ele>114</ele>
        <time>2017-08-17T09:46:50Z</time>
      </trkpt>
      <trkpt lat="44.81802" lon="1.55427">
        <ele>114</ele>
        <time>2017-08-17T09:46:56Z</time>
      </trkpt>
      <trkpt lat="44.81798" lon="1.55432">
        <ele>114</ele>
        <time>2017-08-17T09:47:02Z</time>
      </trkpt>
      <trkpt lat="44.81794" lon="1.55436">
        <ele>114</ele>
        <time>2017-08-17T09:47:07Z</time>
      </trkpt>
      <trkpt lat="44.81791" lon="1.5544">
        <ele>114</ele>
        <time>2017-08-17T09:47:14Z</time>
      </trkpt>
      <trkpt lat="44.81788" lon="1.55447">
        <ele>114</ele>
        <time>2017-08-17T09:47:17Z</time>
      </trkpt>
      <trkpt lat="44.81785" lon="1.55453">
        <ele>114</ele>
        <time>2017-08-17T09:47:20Z</time>
      </trkpt>
      <trkpt lat="44.81781" lon="1.55458">
        <ele>113</ele>
        <time>2017-08-17T09:47:24Z</time>
      </trkpt>
      <trkpt lat="44.81777" lon="1.55463">
        <ele>112</ele>
        <time>2017-08-17T09:47:29Z</time>
      </trkpt>
      <trkpt lat="44.81777" lon="1.5547">
        <ele>112</ele>
        <time>2017-08-17T09:47:31Z</time>
      </trkpt>
      <trkpt lat="44.81775" lon="1.55476">
        <ele>111</ele>
        <time>2017-08-17T09:47:36Z</time>
      </trkpt>
      <trkpt lat="44.81769" lon="1.5548">
        <ele>111</ele>
        <time>2017-08-17T09:47:41Z</time>
      </trkpt>
      <trkpt lat="44.81764" lon="1.55483">
        <ele>111</ele>
        <time>2017-08-17T09:47:45Z</time>
      </trkpt>
      <trkpt lat="44.81762" lon="1.55489">
        <ele>110</ele>
        <time>2017-08-17T09:47:48Z</time>
      </trkpt>
      <trkpt lat="44.81758" lon="1.55492">
        <ele>110</ele>
        <time>2017-08-17T09:47:53Z</time>
      </trkpt>
      <trkpt lat="44.81754" lon="1.55495">
        <ele>109</ele>
        <time>2017-08-17T09:47:59Z</time>
      </trkpt>
      <trkpt lat="44.81748" lon="1.55496">
        <ele>109</ele>
        <time>2017-08-17T09:48:03Z</time>
      </trkpt>
      <trkpt lat="44.81743" lon="1.55498">
        <ele>108</ele>
        <time>2017-08-17T09:48:09Z</time>
      </trkpt>
      <trkpt lat="44.81736" lon="1.55501">
        <ele>108</ele>
        <time>2017-08-17T09:48:12Z</time>
      </trkpt>
      <trkpt lat="44.81731" lon="1.55503">
        <ele>108</ele>
        <time>2017-08-17T09:48:18Z</time>
      </trkpt>
      <trkpt lat="44.81727" lon="1.55506">
        <ele>108</ele>
        <time>2017-08-17T09:48:22Z</time>
      </trkpt>
      <trkpt lat="44.81722" lon="1.55506">
        <ele>108</ele>
        <time>2017-08-17T09:48:27Z</time>
      </trkpt>
      <trkpt lat="44.81717" lon="1.55508">
        <ele>108</ele>
        <time>2017-08-17T09:48:31Z</time>
      </trkpt>
      <trkpt lat="44.81712" lon="1.5551">
        <ele>108</ele>
        <time>2017-08-17T09:48:37Z</time>
      </trkpt>
      <trkpt lat="44.81707" lon="1.55513">
        <ele>108</ele>
        <time>2017-08-17T09:48:41Z</time>
      </trkpt>
      <trkpt lat="44.81703" lon="1.55516">
        <ele>108</ele>
        <time>2017-08-17T09:48:45Z</time>
      </trkpt>
      <trkpt lat="44.81699" lon="1.55519">
        <ele>109</ele>
        <time>2017-08-17T09:48:50Z</time>
      </trkpt>
      <trkpt lat="44.81694" lon="1.55522">
        <ele>109</ele>
        <time>2017-08-17T09:48:54Z</time>
      </trkpt>
      <trkpt lat="44.81689" lon="1.55523">
        <ele>109</ele>
        <time>2017-08-17T09:48:59Z</time>
      </trkpt>
      <trkpt lat="44.81683" lon="1.55525">
        <ele>108</ele>
        <time>2017-08-17T09:49:04Z</time>
      </trkpt>
      <trkpt lat="44.81678" lon="1.55523">
        <ele>108</ele>
        <time>2017-08-17T09:49:07Z</time>
      </trkpt>
      <trkpt lat="44.81673" lon="1.55524">
        <ele>108</ele>
        <time>2017-08-17T09:49:12Z</time>
      </trkpt>
      <trkpt lat="44.81668" lon="1.55526">
        <ele>107</ele>
        <time>2017-08-17T09:49:18Z</time>
      </trkpt>
      <trkpt lat="44.81662" lon="1.55528">
        <ele>106</ele>
        <time>2017-08-17T09:49:23Z</time>
      </trkpt>
      <trkpt lat="44.81656" lon="1.5553">
        <ele>104</ele>
        <time>2017-08-17T09:49:39Z</time>
      </trkpt>
      <trkpt lat="44.81651" lon="1.55532">
        <ele>103</ele>
        <time>2017-08-17T09:49:42Z</time>
      </trkpt>
      <trkpt lat="44.81646" lon="1.55534">
        <ele>101</ele>
        <time>2017-08-17T09:49:52Z</time>
      </trkpt>
      <trkpt lat="44.8164" lon="1.55538">
        <ele>100</ele>
        <time>2017-08-17T09:50:00Z</time>
      </trkpt>
      <trkpt lat="44.81635" lon="1.55537">
        <ele>99</ele>
        <time>2017-08-17T09:50:04Z</time>
      </trkpt>
      <trkpt lat="44.8163" lon="1.55534">
        <ele>98</ele>
        <time>2017-08-17T09:50:07Z</time>
      </trkpt>
      <trkpt lat="44.81624" lon="1.55534">
        <ele>98</ele>
        <time>2017-08-17T09:50:12Z</time>
      </trkpt>
      <trkpt lat="44.81619" lon="1.55533">
        <ele>98</ele>
        <time>2017-08-17T09:50:18Z</time>
      </trkpt>
      <trkpt lat="44.81614" lon="1.55531">
        <ele>98</ele>
        <time>2017-08-17T09:50:29Z</time>
      </trkpt>
      <trkpt lat="44.81609" lon="1.55529">
        <ele>98</ele>
        <time>2017-08-17T09:50:34Z</time>
      </trkpt>
      <trkpt lat="44.81604" lon="1.55529">
        <ele>99</ele>
        <time>2017-08-17T09:50:38Z</time>
      </trkpt>
      <trkpt lat="44.81599" lon="1.55527">
        <ele>99</ele>
        <time>2017-08-17T09:50:44Z</time>
      </trkpt>
      <trkpt lat="44.81594" lon="1.55528">
        <ele>100</ele>
        <time>2017-08-17T09:50:49Z</time>
      </trkpt>
      <trkpt lat="44.8159" lon="1.55526">
        <ele>101</ele>
        <time>2017-08-17T09:50:54Z</time>
      </trkpt>
      <trkpt lat="44.81586" lon="1.55523">
        <ele>102</ele>
        <time>2017-08-17T09:50:59Z</time>
      </trkpt>
      <trkpt lat="44.81581" lon="1.55521">
        <ele>103</ele>
        <time>2017-08-17T09:51:04Z</time>
      </trkpt>
      <trkpt lat="44.81577" lon="1.55516">
        <ele>104</ele>
        <time>2017-08-17T09:51:09Z</time>
      </trkpt>
      <trkpt lat="44.81572" lon="1.55514">
        <ele>104</ele>
        <time>2017-08-17T09:51:15Z</time>
      </trkpt>
      <trkpt lat="44.81568" lon="1.5551">
        <ele>105</ele>
        <time>2017-08-17T09:51:20Z</time>
      </trkpt>
      <trkpt lat="44.81565" lon="1.55503">
        <ele>105</ele>
        <time>2017-08-17T09:51:29Z</time>
      </trkpt>
      <trkpt lat="44.81559" lon="1.55499">
        <ele>105</ele>
        <time>2017-08-17T09:51:35Z</time>
      </trkpt>
      <trkpt lat="44.81554" lon="1.55496">
        <ele>106</ele>
        <time>2017-08-17T09:51:41Z</time>
      </trkpt>
      <trkpt lat="44.8155" lon="1.55495">
        <ele>106</ele>
        <time>2017-08-17T09:51:48Z</time>
      </trkpt>
      <trkpt lat="44.81544" lon="1.55493">
        <ele>106</ele>
        <time>2017-08-17T09:51:56Z</time>
      </trkpt>
      <trkpt lat="44.81539" lon="1.55493">
        <ele>107</ele>
        <time>2017-08-17T09:52:03Z</time>
      </trkpt>
      <trkpt lat="44.81533" lon="1.55493">
        <ele>109</ele>
        <time>2017-08-17T09:52:07Z</time>
      </trkpt>
      <trkpt lat="44.81528" lon="1.55492">
        <ele>110</ele>
        <time>2017-08-17T09:52:10Z</time>
      </trkpt>
      <trkpt lat="44.81522" lon="1.55491">
        <ele>111</ele>
        <time>2017-08-17T09:52:16Z</time>
      </trkpt>
      <trkpt lat="44.81516" lon="1.55491">
        <ele>113</ele>
        <time>2017-08-17T09:52:21Z</time>
      </trkpt>
      <trkpt lat="44.81512" lon="1.55489">
        <ele>113</ele>
        <time>2017-08-17T09:52:23Z</time>
      </trkpt>
      <trkpt lat="44.81507" lon="1.55487">
        <ele>114</ele>
        <time>2017-08-17T09:52:27Z</time>
      </trkpt>
      <trkpt lat="44.81502" lon="1.55486">
        <ele>114</ele>
        <time>2017-08-17T09:52:32Z</time>
      </trkpt>
      <trkpt lat="44.81497" lon="1.55486">
        <ele>114</ele>
        <time>2017-08-17T09:52:37Z</time>
      </trkpt>
      <trkpt lat="44.81492" lon="1.55487">
        <ele>114</ele>
        <time>2017-08-17T09:52:44Z</time>
      </trkpt>
      <trkpt lat="44.81488" lon="1.55487">
        <ele>115</ele>
        <time>2017-08-17T09:52:53Z</time>
      </trkpt>
      <trkpt lat="44.81483" lon="1.55488">
        <ele>115</ele>
        <time>2017-08-17T09:52:59Z</time>
      </trkpt>
      <trkpt lat="44.81478" lon="1.55489">
        <ele>115</ele>
        <time>2017-08-17T09:53:04Z</time>
      </trkpt>
      <trkpt lat="44.81473" lon="1.55491">
        <ele>115</ele>
        <time>2017-08-17T09:53:07Z</time>
      </trkpt>
      <trkpt lat="44.81468" lon="1.55492">
        <ele>115</ele>
        <time>2017-08-17T09:53:11Z</time>
      </trkpt>
      <trkpt lat="44.81463" lon="1.55494">
        <ele>115</ele>
        <time>2017-08-17T09:53:17Z</time>
      </trkpt>
      <trkpt lat="44.81459" lon="1.55498">
        <ele>114</ele>
        <time>2017-08-17T09:53:21Z</time>
      </trkpt>
      <trkpt lat="44.81456" lon="1.55503">
        <ele>114</ele>
        <time>2017-08-17T09:53:26Z</time>
      </trkpt>
      <trkpt lat="44.81453" lon="1.55508">
        <ele>114</ele>
        <time>2017-08-17T09:53:30Z</time>
      </trkpt>
      <trkpt lat="44.81451" lon="1.55513">
        <ele>114</ele>
        <time>2017-08-17T09:53:33Z</time>
      </trkpt>
      <trkpt lat="44.81446" lon="1.55515">
        <ele>114</ele>
        <time>2017-08-17T09:53:37Z</time>
      </trkpt>
      <trkpt lat="44.81441" lon="1.55519">
        <ele>114</ele>
        <time>2017-08-17T09:53:43Z</time>
      </trkpt>
      <trkpt lat="44.81438" lon="1.55525">
        <ele>113</ele>
        <time>2017-08-17T09:53:47Z</time>
      </trkpt>
      <trkpt lat="44.81435" lon="1.55532">
        <ele>113</ele>
        <time>2017-08-17T09:53:52Z</time>
      </trkpt>
      <trkpt lat="44.81432" lon="1.55536">
        <ele>112</ele>
        <time>2017-08-17T09:53:57Z</time>
      </trkpt>
      <trkpt lat="44.81429" lon="1.55542">
        <ele>112</ele>
        <time>2017-08-17T09:54:03Z</time>
      </trkpt>
      <trkpt lat="44.81428" lon="1.55548">
        <ele>111</ele>
        <time>2017-08-17T09:54:07Z</time>
      </trkpt>
      <trkpt lat="44.81426" lon="1.55556">
        <ele>111</ele>
        <time>2017-08-17T09:54:12Z</time>
      </trkpt>
      <trkpt lat="44.81423" lon="1.55561">
        <ele>110</ele>
        <time>2017-08-17T09:54:18Z</time>
      </trkpt>
      <trkpt lat="44.81422" lon="1.55568">
        <ele>109</ele>
        <time>2017-08-17T09:54:21Z</time>
      </trkpt>
      <trkpt lat="44.8142" lon="1.55574">
        <ele>109</ele>
        <time>2017-08-17T09:54:25Z</time>
      </trkpt>
      <trkpt lat="44.81422" lon="1.55581">
        <ele>108</ele>
        <time>2017-08-17T09:54:32Z</time>
      </trkpt>
      <trkpt lat="44.81422" lon="1.55587">
        <ele>107</ele>
        <time>2017-08-17T09:54:35Z</time>
      </trkpt>
      <trkpt lat="44.81422" lon="1.55594">
        <ele>107</ele>
        <time>2017-08-17T09:54:39Z</time>
      </trkpt>
      <trkpt lat="44.8142" lon="1.556">
        <ele>106</ele>
        <time>2017-08-17T09:54:42Z</time>
      </trkpt>
      <trkpt lat="44.81418" lon="1.55606">
        <ele>106</ele>
        <time>2017-08-17T09:54:46Z</time>
      </trkpt>
      <trkpt lat="44.81416" lon="1.55612">
        <ele>106</ele>
        <time>2017-08-17T09:54:50Z</time>
      </trkpt>
      <trkpt lat="44.81413" lon="1.55618">
        <ele>106</ele>
        <time>2017-08-17T09:54:55Z</time>
      </trkpt>
      <trkpt lat="44.8141" lon="1.55623">
        <ele>107</ele>
        <time>2017-08-17T09:54:58Z</time>
      </trkpt>
      <trkpt lat="44.81408" lon="1.5563">
        <ele>107</ele>
        <time>2017-08-17T09:55:04Z</time>
      </trkpt>
      <trkpt lat="44.81407" lon="1.55637">
        <ele>107</ele>
        <time>2017-08-17T09:55:08Z</time>
      </trkpt>
      <trkpt lat="44.81406" lon="1.55643">
        <ele>107</ele>
        <time>2017-08-17T09:55:10Z</time>
      </trkpt>
      <trkpt lat="44.81405" lon="1.5565">
        <ele>107</ele>
        <time>2017-08-17T09:55:15Z</time>
      </trkpt>
      <trkpt lat="44.81406" lon="1.55657">
        <ele>107</ele>
        <time>2017-08-17T09:55:22Z</time>
      </trkpt>
      <trkpt lat="44.81405" lon="1.55664">
        <ele>107</ele>
        <time>2017-08-17T09:55:26Z</time>
      </trkpt>
      <trkpt lat="44.81406" lon="1.55671">
        <ele>107</ele>
        <time>2017-08-17T09:55:31Z</time>
      </trkpt>
      <trkpt lat="44.81405" lon="1.55678">
        <ele>107</ele>
        <time>2017-08-17T09:55:35Z</time>
      </trkpt>
      <trkpt lat="44.81404" lon="1.55686">
        <ele>107</ele>
        <time>2017-08-17T09:55:41Z</time>
      </trkpt>
      <trkpt lat="44.81401" lon="1.55691">
        <ele>107</ele>
        <time>2017-08-17T09:55:44Z</time>
      </trkpt>
      <trkpt lat="44.814" lon="1.55698">
        <ele>107</ele>
        <time>2017-08-17T09:55:48Z</time>
      </trkpt>
      <trkpt lat="44.81398" lon="1.55706">
        <ele>107</ele>
        <time>2017-08-17T09:55:54Z</time>
      </trkpt>
      <trkpt lat="44.81398" lon="1.55713">
        <ele>107</ele>
        <time>2017-08-17T09:55:59Z</time>
      </trkpt>
      <trkpt lat="44.81398" lon="1.5572">
        <ele>106</ele>
        <time>2017-08-17T09:56:04Z</time>
      </trkpt>
      <trkpt lat="44.81398" lon="1.55727">
        <ele>106</ele>
        <time>2017-08-17T09:56:09Z</time>
      </trkpt>
      <trkpt lat="44.81397" lon="1.55735">
        <ele>106</ele>
        <time>2017-08-17T09:56:13Z</time>
      </trkpt>
      <trkpt lat="44.81395" lon="1.55741">
        <ele>106</ele>
        <time>2017-08-17T09:56:17Z</time>
      </trkpt>
      <trkpt lat="44.81394" lon="1.55748">
        <ele>106</ele>
        <time>2017-08-17T09:56:21Z</time>
      </trkpt>
      <trkpt lat="44.81391" lon="1.55754">
        <ele>106</ele>
        <time>2017-08-17T09:56:24Z</time>
      </trkpt>
      <trkpt lat="44.81388" lon="1.55759">
        <ele>107</ele>
        <time>2017-08-17T09:56:28Z</time>
      </trkpt>
      <trkpt lat="44.81387" lon="1.55766">
        <ele>107</ele>
        <time>2017-08-17T09:56:33Z</time>
      </trkpt>
      <trkpt lat="44.81387" lon="1.55773">
        <ele>107</ele>
        <time>2017-08-17T09:56:37Z</time>
      </trkpt>
      <trkpt lat="44.81385" lon="1.55779">
        <ele>108</ele>
        <time>2017-08-17T09:56:42Z</time>
      </trkpt>
      <trkpt lat="44.81384" lon="1.5579">
        <ele>108</ele>
        <time>2017-08-17T09:56:49Z</time>
      </trkpt>
      <trkpt lat="44.81384" lon="1.55798">
        <ele>108</ele>
        <time>2017-08-17T09:56:54Z</time>
      </trkpt>
      <trkpt lat="44.81382" lon="1.55804">
        <ele>109</ele>
        <time>2017-08-17T09:56:58Z</time>
      </trkpt>
      <trkpt lat="44.81379" lon="1.5581">
        <ele>109</ele>
        <time>2017-08-17T09:57:03Z</time>
      </trkpt>
      <trkpt lat="44.81376" lon="1.55816">
        <ele>109</ele>
        <time>2017-08-17T09:57:08Z</time>
      </trkpt>
      <trkpt lat="44.81374" lon="1.55824">
        <ele>109</ele>
        <time>2017-08-17T09:57:13Z</time>
      </trkpt>
      <trkpt lat="44.81369" lon="1.55821">
        <ele>110</ele>
        <time>2017-08-17T09:57:21Z</time>
      </trkpt>
      <trkpt lat="44.81366" lon="1.55816">
        <ele>110</ele>
        <time>2017-08-17T09:57:25Z</time>
      </trkpt>
      <trkpt lat="44.81361" lon="1.55817">
        <ele>110</ele>
        <time>2017-08-17T09:57:31Z</time>
      </trkpt>
      <trkpt lat="44.81357" lon="1.55817">
        <ele>109</ele>
        <time>2017-08-17T09:57:35Z</time>
      </trkpt>
      <trkpt lat="44.81355" lon="1.55815">
        <ele>108</ele>
        <time>2017-08-17T09:58:00Z</time>
      </trkpt>
      <trkpt lat="44.81353" lon="1.55815">
        <ele>107</ele>
        <time>2017-08-17T09:58:01Z</time>
      </trkpt>
      <trkpt lat="44.81348" lon="1.55816">
        <ele>107</ele>
        <time>2017-08-17T09:58:09Z</time>
      </trkpt>
      <trkpt lat="44.81348" lon="1.55816">
        <ele>106</ele>
        <time>2017-08-17T09:58:30Z</time>
      </trkpt>
      <trkpt lat="44.81348" lon="1.55816">
        <ele>105</ele>
        <time>2017-08-17T09:58:31Z</time>
      </trkpt>
      <trkpt lat="44.81349" lon="1.55816">
        <ele>105</ele>
        <time>2017-08-17T09:58:44Z</time>
      </trkpt>
      <trkpt lat="44.81351" lon="1.55815">
        <ele>105</ele>
        <time>2017-08-17T09:58:46Z</time>
      </trkpt>
      <trkpt lat="44.81354" lon="1.5582">
        <ele>105</ele>
        <time>2017-08-17T09:58:54Z</time>
      </trkpt>
      <trkpt lat="44.81353" lon="1.55823">
        <ele>106</ele>
        <time>2017-08-17T09:59:19Z</time>
      </trkpt>
      <trkpt lat="44.81352" lon="1.55823">
        <ele>106</ele>
        <time>2017-08-17T09:59:21Z</time>
      </trkpt>
      <trkpt lat="44.81349" lon="1.55829">
        <ele>107</ele>
        <time>2017-08-17T09:59:48Z</time>
      </trkpt>
      <trkpt lat="44.81347" lon="1.55836">
        <ele>108</ele>
        <time>2017-08-17T10:00:01Z</time>
      </trkpt>
      <trkpt lat="44.8135" lon="1.55841">
        <ele>109</ele>
        <time>2017-08-17T10:00:06Z</time>
      </trkpt>
      <trkpt lat="44.8135" lon="1.55847">
        <ele>109</ele>
        <time>2017-08-17T10:00:10Z</time>
      </trkpt>
      <trkpt lat="44.81346" lon="1.55851">
        <ele>110</ele>
        <time>2017-08-17T10:00:13Z</time>
      </trkpt>
      <trkpt lat="44.81345" lon="1.55858">
        <ele>110</ele>
        <time>2017-08-17T10:00:19Z</time>
      </trkpt>
      <trkpt lat="44.81339" lon="1.55864">
        <ele>111</ele>
        <time>2017-08-17T10:00:26Z</time>
      </trkpt>
      <trkpt lat="44.81337" lon="1.55871">
        <ele>111</ele>
        <time>2017-08-17T10:00:30Z</time>
      </trkpt>
      <trkpt lat="44.81334" lon="1.55877">
        <ele>111</ele>
        <time>2017-08-17T10:00:36Z</time>
      </trkpt>
      <trkpt lat="44.81333" lon="1.55883">
        <ele>111</ele>
        <time>2017-08-17T10:00:41Z</time>
      </trkpt>
      <trkpt lat="44.81332" lon="1.5589">
        <ele>111</ele>
        <time>2017-08-17T10:00:43Z</time>
      </trkpt>
      <trkpt lat="44.81332" lon="1.55896">
        <ele>111</ele>
        <time>2017-08-17T10:00:48Z</time>
      </trkpt>
      <trkpt lat="44.81329" lon="1.55903">
        <ele>111</ele>
        <time>2017-08-17T10:00:53Z</time>
      </trkpt>
      <trkpt lat="44.81326" lon="1.55909">
        <ele>111</ele>
        <time>2017-08-17T10:00:59Z</time>
      </trkpt>
      <trkpt lat="44.81323" lon="1.55912">
        <ele>111</ele>
        <time>2017-08-17T10:01:03Z</time>
      </trkpt>
      <trkpt lat="44.81318" lon="1.55916">
        <ele>111</ele>
        <time>2017-08-17T10:01:07Z</time>
      </trkpt>
      <trkpt lat="44.81315" lon="1.55923">
        <ele>111</ele>
        <time>2017-08-17T10:01:13Z</time>
      </trkpt>
      <trkpt lat="44.81313" lon="1.55929">
        <ele>111</ele>
        <time>2017-08-17T10:01:19Z</time>
      </trkpt>
      <trkpt lat="44.81311" lon="1.5594">
        <ele>110</ele>
        <time>2017-08-17T10:01:30Z</time>
      </trkpt>
      <trkpt lat="44.81308" lon="1.55945">
        <ele>110</ele>
        <time>2017-08-17T10:01:36Z</time>
      </trkpt>
      <trkpt lat="44.81306" lon="1.55951">
        <ele>110</ele>
        <time>2017-08-17T10:01:42Z</time>
      </trkpt>
      <trkpt lat="44.81305" lon="1.55957">
        <ele>109</ele>
        <time>2017-08-17T10:01:51Z</time>
      </trkpt>
      <trkpt lat="44.81303" lon="1.55965">
        <ele>109</ele>
        <time>2017-08-17T10:01:59Z</time>
      </trkpt>
      <trkpt lat="44.813" lon="1.55973">
        <ele>109</ele>
        <time>2017-08-17T10:02:04Z</time>
      </trkpt>
      <trkpt lat="44.81295" lon="1.55977">
        <ele>109</ele>
        <time>2017-08-17T10:02:10Z</time>
      </trkpt>
      <trkpt lat="44.81291" lon="1.5598">
        <ele>109</ele>
        <time>2017-08-17T10:02:16Z</time>
      </trkpt>
      <trkpt lat="44.81289" lon="1.55987">
        <ele>108</ele>
        <time>2017-08-17T10:02:20Z</time>
      </trkpt>
      <trkpt lat="44.81284" lon="1.5599">
        <ele>108</ele>
        <time>2017-08-17T10:02:26Z</time>
      </trkpt>
      <trkpt lat="44.8128" lon="1.55995">
        <ele>107</ele>
        <time>2017-08-17T10:02:34Z</time>
      </trkpt>
      <trkpt lat="44.81276" lon="1.56">
        <ele>107</ele>
        <time>2017-08-17T10:02:38Z</time>
      </trkpt>
      <trkpt lat="44.81273" lon="1.56005">
        <ele>106</ele>
        <time>2017-08-17T10:02:42Z</time>
      </trkpt>
      <trkpt lat="44.81268" lon="1.56009">
        <ele>106</ele>
        <time>2017-08-17T10:02:47Z</time>
      </trkpt>
      <trkpt lat="44.81264" lon="1.56013">
        <ele>106</ele>
        <time>2017-08-17T10:02:52Z</time>
      </trkpt>
      <trkpt lat="44.8126" lon="1.56016">
        <ele>106</ele>
        <time>2017-08-17T10:02:58Z</time>
      </trkpt>
      <trkpt lat="44.81255" lon="1.56022">
        <ele>106</ele>
        <time>2017-08-17T10:03:03Z</time>
      </trkpt>
      <trkpt lat="44.81252" lon="1.56026">
        <ele>106</ele>
        <time>2017-08-17T10:03:10Z</time>
      </trkpt>
      <trkpt lat="44.81248" lon="1.56029">
        <ele>105</ele>
        <time>2017-08-17T10:03:19Z</time>
      </trkpt>
      <trkpt lat="44.81244" lon="1.56032">
        <ele>105</ele>
        <time>2017-08-17T10:03:27Z</time>
      </trkpt>
      <trkpt lat="44.81238" lon="1.5603">
        <ele>105</ele>
        <time>2017-08-17T10:03:30Z</time>
      </trkpt>
      <trkpt lat="44.81234" lon="1.56032">
        <ele>104</ele>
        <time>2017-08-17T10:03:59Z</time>
      </trkpt>
    </trkseg>
  </trk>
</gpx>